PWSweather.com
Personal Weather Stations
Station Observations
SKYDIVEKS
Skydive Kansas, Osage City, KS 66523

Skydive KansasOsage City, KS 66523

Lat: 38.636, Lon: -95.803

Elevation: 1080

Station Type: La Crosse

http://www.skydivekansas.com

Latest ConditionsUpdated 5:45:01 PM CDT Monday, Oct 20, 2014
Currently Today's Max Today's Min Today's Average
Temperature 77.5°F25.3°C 82.4°F28.0°C 52.3°F11.3°C 67.6°F19.8°C
Dew Point 49.9°F9.9°C 56.3°F13.5°C 40.2°F4.6°C 48.6°F9.2°C
Winds 2.9 mph WSW4.7 kmh WSW 18.8 mph NNE30.3 kmh NNE - 3.9 mph 6.3 kmh
Wind Gusts 9.6 mph15.4 kmh 18.8 mph30.3 kmh - -
Humidity 38% 67% 37% 52%
Pressure 28.99 in981.7 mb 29.03 in983.1 mb 28.97 in981.0 mb -
Hour Temp Dew Point Humidity Winds Wind Gusts Pressure Precip Precip Rate Daily Precip Total
05:45 PM 77.5°F25.3°C 49.9°F9.9°C 38% 2.9 mph WSW4.7 kmh WSW 9.6 mph15.4 kmh 28.99 in981.7 mb 0.00 in0.0 mm 0.00 in/hr0.0 mm/hr 0.00 in0.0 mm
05:44 PM 77.5°F25.3°C 49.9°F9.9°C 38% 2.9 mph WSW4.7 kmh WSW 9.6 mph15.4 kmh 28.99 in981.7 mb 0.00 in0.0 mm 0.00 in/hr0.0 mm/hr 0.00 in0.0 mm
05:43 PM 77.5°F25.3°C 49.9°F9.9°C 38% 3.6 mph WSW5.8 kmh WSW 9.6 mph15.4 kmh 28.99 in981.7 mb 0.00 in0.0 mm 0.00 in/hr0.0 mm/hr 0.00 in0.0 mm
05:42 PM 77.7°F25.4°C 50.0°F10.0°C 38% 5.4 mph WSW8.7 kmh WSW 9.6 mph15.4 kmh 28.99 in981.7 mb 0.00 in0.0 mm 0.00 in/hr0.0 mm/hr 0.00 in0.0 mm
05:41 PM 77.7°F25.4°C 50.0°F10.0°C 38% 2.0 mph WSW3.2 kmh WSW 9.6 mph15.4 kmh 28.99 in981.7 mb 0.00 in0.0 mm 0.00 in/hr0.0 mm/hr 0.00 in0.0 mm
05:40 PM 77.7°F25.4°C 49.2°F9.6°C 37% 4.9 mph WSW7.9 kmh WSW 9.6 mph15.4 kmh 28.99 in981.7 mb 0.00 in0.0 mm 0.00 in/hr0.0 mm/hr 0.00 in0.0 mm
05:39 PM 77.7°F25.4°C 50.0°F10.0°C 38% Calm Calm 9.6 mph15.4 kmh 28.99 in981.7 mb 0.00 in0.0 mm 0.00 in/hr0.0 mm/hr 0.00 in0.0 mm
05:38 PM 77.9°F25.5°C 50.2°F10.1°C 38% 5.6 mph WSW9.0 kmh WSW 9.6 mph15.4 kmh 28.99 in981.7 mb 0.00 in0.0 mm 0.00 in/hr0.0 mm/hr 0.00 in0.0 mm
05:37 PM 77.9°F25.5°C 50.2°F10.1°C 38% 6.3 mph WSW10.1 kmh WSW 9.6 mph15.4 kmh 28.99 in981.7 mb 0.00 in0.0 mm 0.00 in/hr0.0 mm/hr 0.00 in0.0 mm
05:36 PM 77.9°F25.5°C 49.4°F9.7°C 37% 4.0 mph WSW6.4 kmh WSW 9.4 mph15.1 kmh 28.99 in981.7 mb 0.00 in0.0 mm 0.00 in/hr0.0 mm/hr 0.00 in0.0 mm
05:35 PM 78.1°F25.6°C 49.6°F9.8°C 37% 6.0 mph WSW9.7 kmh WSW 9.4 mph15.1 kmh 28.99 in981.7 mb 0.00 in0.0 mm 0.00 in/hr0.0 mm/hr 0.00 in0.0 mm
05:34 PM 78.1°F25.6°C 49.6°F9.8°C 37% Calm Calm 10.1 mph16.3 kmh 28.98 in981.4 mb 0.00 in0.0 mm 0.00 in/hr0.0 mm/hr 0.00 in0.0 mm
05:33 PM 78.1°F25.6°C 49.6°F9.8°C 37% 1.3 mph WSW2.1 kmh WSW 10.5 mph16.9 kmh 28.98 in981.4 mb 0.00 in0.0 mm 0.00 in/hr0.0 mm/hr 0.00 in0.0 mm
05:32 PM 78.3°F25.7°C 50.5°F10.3°C 38% 4.3 mph WSW6.9 kmh WSW 10.5 mph16.9 kmh 28.98 in981.4 mb 0.00 in0.0 mm 0.00 in/hr0.0 mm/hr 0.00 in0.0 mm
05:31 PM 78.3°F25.7°C 50.5°F10.3°C 38% 5.4 mph WSW8.7 kmh WSW 10.5 mph16.9 kmh 28.99 in981.7 mb 0.00 in0.0 mm 0.00 in/hr0.0 mm/hr 0.00 in0.0 mm
05:30 PM 78.4°F25.8°C 50.6°F10.3°C 38% 6.9 mph WSW11.1 kmh WSW 10.5 mph16.9 kmh 28.98 in981.4 mb 0.00 in0.0 mm 0.00 in/hr0.0 mm/hr 0.00 in0.0 mm
05:29 PM 78.4°F25.8°C 50.6°F10.3°C 38% 6.9 mph WSW11.1 kmh WSW 10.5 mph16.9 kmh 28.98 in981.4 mb 0.00 in0.0 mm 0.00 in/hr0.0 mm/hr 0.00 in0.0 mm
05:28 PM 78.4°F25.8°C 50.6°F10.3°C 38% 6.9 mph WSW11.1 kmh WSW 10.5 mph16.9 kmh 28.98 in981.4 mb 0.00 in0.0 mm 0.00 in/hr0.0 mm/hr 0.00 in0.0 mm
05:27 PM 78.4°F25.8°C 50.6°F10.3°C 38% 6.9 mph WSW11.1 kmh WSW 10.5 mph16.9 kmh 28.98 in981.4 mb 0.00 in0.0 mm 0.00 in/hr0.0 mm/hr 0.00 in0.0 mm
05:26 PM 78.6°F25.9°C 51.6°F10.9°C 39% 4.5 mph WSW7.2 kmh WSW 10.5 mph16.9 kmh 28.98 in981.4 mb 0.00 in0.0 mm 0.00 in/hr0.0 mm/hr 0.00 in0.0 mm
05:25 PM 78.6°F25.9°C 51.6°F10.9°C 39% 4.3 mph WSW6.9 kmh WSW 10.5 mph16.9 kmh 28.99 in981.7 mb 0.00 in0.0 mm 0.00 in/hr0.0 mm/hr 0.00 in0.0 mm
05:24 PM 78.6°F25.9°C 50.8°F10.4°C 38% 7.4 mph WSW11.9 kmh WSW 10.5 mph16.9 kmh 28.98 in981.4 mb 0.00 in0.0 mm 0.00 in/hr0.0 mm/hr 0.00 in0.0 mm
05:23 PM 78.6°F25.9°C 50.8°F10.4°C 38% 9.4 mph WSW15.1 kmh WSW 9.4 mph15.1 kmh 28.99 in981.7 mb 0.00 in0.0 mm 0.00 in/hr0.0 mm/hr 0.00 in0.0 mm
05:22 PM 78.6°F25.9°C 50.8°F10.4°C 38% 0.7 mph WSW1.1 kmh WSW 9.4 mph15.1 kmh 28.99 in981.7 mb 0.00 in0.0 mm 0.00 in/hr0.0 mm/hr 0.00 in0.0 mm
05:21 PM 78.6°F25.9°C 50.8°F10.4°C 38% 3.8 mph WSW6.1 kmh WSW 9.4 mph15.1 kmh 28.99 in981.7 mb 0.00 in0.0 mm 0.00 in/hr0.0 mm/hr 0.00 in0.0 mm
05:20 PM 78.8°F26.0°C 51.0°F10.6°C 38% 6.5 mph WSW10.5 kmh WSW 9.4 mph15.1 kmh 28.99 in981.7 mb 0.00 in0.0 mm 0.00 in/hr0.0 mm/hr 0.00 in0.0 mm
05:19 PM 79.0°F26.1°C 51.1°F10.6°C 38% 4.9 mph WSW7.9 kmh WSW 9.4 mph15.1 kmh 28.99 in981.7 mb 0.00 in0.0 mm 0.00 in/hr0.0 mm/hr 0.00 in0.0 mm
05:18 PM 79.0°F26.1°C 51.1°F10.6°C 38% 5.4 mph WSW8.7 kmh WSW 9.4 mph15.1 kmh 28.99 in981.7 mb 0.00 in0.0 mm 0.00 in/hr0.0 mm/hr 0.00 in0.0 mm
05:17 PM 79.0°F26.1°C 51.1°F10.6°C 38% 4.5 mph WSW7.2 kmh WSW 10.1 mph16.3 kmh 28.99 in981.7 mb 0.00 in0.0 mm 0.00 in/hr0.0 mm/hr 0.00 in0.0 mm
05:16 PM 79.0°F26.1°C 50.4°F10.2°C 37% Calm Calm 10.5 mph16.9 kmh 28.99 in981.7 mb 0.00 in0.0 mm 0.00 in/hr0.0 mm/hr 0.00 in0.0 mm
05:15 PM 79.2°F26.2°C 50.5°F10.3°C 37% 5.1 mph WSW8.2 kmh WSW 10.5 mph16.9 kmh 28.99 in981.7 mb 0.00 in0.0 mm 0.00 in/hr0.0 mm/hr 0.00 in0.0 mm
05:14 PM 79.2°F26.2°C 50.5°F10.3°C 37% 5.8 mph WSW9.3 kmh WSW 10.5 mph16.9 kmh 28.99 in981.7 mb 0.00 in0.0 mm 0.00 in/hr0.0 mm/hr 0.00 in0.0 mm
05:13 PM 79.2°F26.2°C 50.5°F10.3°C 37% 8.1 mph WSW13.0 kmh WSW 10.5 mph16.9 kmh 28.99 in981.7 mb 0.00 in0.0 mm 0.00 in/hr0.0 mm/hr 0.00 in0.0 mm
05:12 PM 79.3°F26.3°C 51.5°F10.8°C 38% 6.5 mph WSW10.5 kmh WSW 10.5 mph16.9 kmh 28.99 in981.7 mb 0.00 in0.0 mm 0.00 in/hr0.0 mm/hr 0.00 in0.0 mm
05:11 PM 79.3°F26.3°C 51.5°F10.8°C 38% 3.6 mph WSW5.8 kmh WSW 10.5 mph16.9 kmh 28.99 in981.7 mb 0.00 in0.0 mm 0.00 in/hr0.0 mm/hr 0.00 in0.0 mm
05:10 PM 79.3°F26.3°C 51.5°F10.8°C 38% 3.6 mph WSW5.8 kmh WSW 10.5 mph16.9 kmh 28.99 in981.7 mb 0.00 in0.0 mm 0.00 in/hr0.0 mm/hr 0.00 in0.0 mm
05:09 PM 79.3°F26.3°C 50.7°F10.4°C 37% 6.3 mph WSW10.1 kmh WSW 10.5 mph16.9 kmh 28.99 in981.7 mb 0.00 in0.0 mm 0.00 in/hr0.0 mm/hr 0.00 in0.0 mm
05:08 PM 79.5°F26.4°C 50.8°F10.4°C 37% 7.2 mph WSW11.6 kmh WSW 10.5 mph16.9 kmh 28.99 in981.7 mb 0.00 in0.0 mm 0.00 in/hr0.0 mm/hr 0.00 in0.0 mm
05:07 PM 79.5°F26.4°C 51.6°F10.9°C 38% 8.5 mph WSW13.7 kmh WSW 10.5 mph16.9 kmh 28.99 in981.7 mb 0.00 in0.0 mm 0.00 in/hr0.0 mm/hr 0.00 in0.0 mm
05:06 PM 79.5°F26.4°C 51.6°F10.9°C 38% 3.4 mph WSW5.5 kmh WSW 8.1 mph13.0 kmh 28.99 in981.7 mb 0.00 in0.0 mm 0.00 in/hr0.0 mm/hr 0.00 in0.0 mm
05:05 PM 79.5°F26.4°C 51.6°F10.9°C 38% 6.7 mph WSW10.8 kmh WSW 7.8 mph12.6 kmh 28.99 in981.7 mb 0.00 in0.0 mm 0.00 in/hr0.0 mm/hr 0.00 in0.0 mm
05:04 PM 79.7°F26.5°C 51.8°F11.0°C 38% 3.1 mph WSW5.0 kmh WSW 7.8 mph12.6 kmh 28.99 in981.7 mb 0.00 in0.0 mm 0.00 in/hr0.0 mm/hr 0.00 in0.0 mm
05:03 PM 79.7°F26.5°C 51.8°F11.0°C 38% Calm Calm 7.8 mph12.6 kmh 28.99 in981.7 mb 0.00 in0.0 mm 0.00 in/hr0.0 mm/hr 0.00 in0.0 mm
05:02 PM 79.9°F26.6°C 51.2°F10.7°C 37% 7.8 mph WSW12.6 kmh WSW 9.8 mph15.8 kmh 28.99 in981.7 mb 0.00 in0.0 mm 0.00 in/hr0.0 mm/hr 0.00 in0.0 mm
05:01 PM 79.9°F26.6°C 51.2°F10.7°C 37% 3.8 mph WSW6.1 kmh WSW 9.8 mph15.8 kmh 28.99 in981.7 mb 0.00 in0.0 mm 0.00 in/hr0.0 mm/hr 0.00 in0.0 mm
05:00 PM 79.9°F26.6°C 51.2°F10.7°C 37% 4.5 mph WSW7.2 kmh WSW 11.6 mph18.7 kmh 28.99 in981.7 mb 0.00 in0.0 mm 0.00 in/hr0.0 mm/hr 0.00 in0.0 mm
04:59 PM 79.9°F26.6°C 51.2°F10.7°C 37% Calm Calm 15.9 mph25.6 kmh 28.99 in981.7 mb 0.00 in0.0 mm 0.00 in/hr0.0 mm/hr 0.00 in0.0 mm
04:58 PM 80.1°F26.7°C 52.1°F11.2°C 38% 4.9 mph WSW7.9 kmh WSW 15.9 mph25.6 kmh 28.99 in981.7 mb 0.00 in0.0 mm 0.00 in/hr0.0 mm/hr 0.00 in0.0 mm
04:57 PM 80.2°F26.8°C 52.3°F11.3°C 38% 4.0 mph WSW6.4 kmh WSW 15.9 mph25.6 kmh 28.98 in981.4 mb 0.00 in0.0 mm 0.00 in/hr0.0 mm/hr 0.00 in0.0 mm
04:56 PM 80.2°F26.8°C 52.3°F11.3°C 38% 7.4 mph WSW11.9 kmh WSW 15.9 mph25.6 kmh 28.99 in981.7 mb 0.00 in0.0 mm 0.00 in/hr0.0 mm/hr 0.00 in0.0 mm
04:55 PM 80.2°F26.8°C 51.5°F10.8°C 37% 7.8 mph WSW12.6 kmh WSW 15.9 mph25.6 kmh 28.99 in981.7 mb 0.00 in0.0 mm 0.00 in/hr0.0 mm/hr 0.00 in0.0 mm
04:54 PM 80.2°F26.8°C 52.3°F11.3°C 38% 6.3 mph WSW10.1 kmh WSW 15.9 mph25.6 kmh 28.99 in981.7 mb 0.00 in0.0 mm 0.00 in/hr0.0 mm/hr 0.00 in0.0 mm
04:53 PM 80.4°F26.9°C 52.4°F11.3°C 38% 4.5 mph WSW7.2 kmh WSW 15.9 mph25.6 kmh 28.99 in981.7 mb 0.00 in0.0 mm 0.00 in/hr0.0 mm/hr 0.00 in0.0 mm
04:52 PM 80.4°F26.9°C 53.2°F11.8°C 39% 7.8 mph WSW12.6 kmh WSW 15.9 mph25.6 kmh 28.98 in981.4 mb 0.00 in0.0 mm 0.00 in/hr0.0 mm/hr 0.00 in0.0 mm
04:51 PM 80.4°F26.9°C 53.2°F11.8°C 39% 6.7 mph WSW10.8 kmh WSW 15.9 mph25.6 kmh 28.99 in981.7 mb 0.00 in0.0 mm 0.00 in/hr0.0 mm/hr 0.00 in0.0 mm
04:50 PM 80.4°F26.9°C 52.4°F11.3°C 38% 11.2 mph WSW18.0 kmh WSW 15.9 mph25.6 kmh 28.99 in981.7 mb 0.00 in0.0 mm 0.00 in/hr0.0 mm/hr 0.00 in0.0 mm
04:49 PM 80.4°F26.9°C 53.2°F11.8°C 39% 14.5 mph WSW23.3 kmh WSW 14.5 mph23.3 kmh 28.98 in981.4 mb 0.00 in0.0 mm 0.00 in/hr0.0 mm/hr 0.00 in0.0 mm
04:48 PM 80.4°F26.9°C 54.0°F12.2°C 40% 7.2 mph WSW11.6 kmh WSW 10.7 mph17.2 kmh 28.98 in981.4 mb 0.00 in0.0 mm 0.00 in/hr0.0 mm/hr 0.00 in0.0 mm
04:47 PM 80.4°F26.9°C 54.0°F12.2°C 40% 5.4 mph WSW8.7 kmh WSW 11.2 mph18.0 kmh 28.98 in981.4 mb 0.00 in0.0 mm 0.00 in/hr0.0 mm/hr 0.00 in0.0 mm
04:46 PM 80.4°F26.9°C 54.0°F12.2°C 40% 7.6 mph WSW12.2 kmh WSW 13.6 mph21.9 kmh 28.98 in981.4 mb 0.00 in0.0 mm 0.00 in/hr0.0 mm/hr 0.00 in0.0 mm
04:45 PM 80.4°F26.9°C 53.2°F11.8°C 39% 6.0 mph WSW9.7 kmh WSW 13.6 mph21.9 kmh 28.98 in981.4 mb 0.00 in0.0 mm 0.00 in/hr0.0 mm/hr 0.00 in0.0 mm
04:44 PM 80.6°F27.0°C 52.6°F11.4°C 38% 6.3 mph WSW10.1 kmh WSW 13.9 mph22.4 kmh 28.98 in981.4 mb 0.00 in0.0 mm 0.00 in/hr0.0 mm/hr 0.00 in0.0 mm
04:43 PM 80.6°F27.0°C 52.6°F11.4°C 38% 4.7 mph WSW7.6 kmh WSW 13.9 mph22.4 kmh 28.98 in981.4 mb 0.00 in0.0 mm 0.00 in/hr0.0 mm/hr 0.00 in0.0 mm
04:42 PM 80.8°F27.1°C 52.7°F11.5°C 38% 5.6 mph WSW9.0 kmh WSW 13.9 mph22.4 kmh 28.98 in981.4 mb 0.00 in0.0 mm 0.00 in/hr0.0 mm/hr 0.00 in0.0 mm
04:41 PM 80.8°F27.1°C 53.5°F11.9°C 39% 6.9 mph WSW11.1 kmh WSW 13.9 mph22.4 kmh 28.98 in981.4 mb 0.00 in0.0 mm 0.00 in/hr0.0 mm/hr 0.00 in0.0 mm
04:40 PM 80.8°F27.1°C 53.5°F11.9°C 39% 9.6 mph WSW15.4 kmh WSW 13.9 mph22.4 kmh 28.98 in981.4 mb 0.00 in0.0 mm 0.00 in/hr0.0 mm/hr 0.00 in0.0 mm
04:39 PM 80.8°F27.1°C 53.5°F11.9°C 39% 6.0 mph WSW9.7 kmh WSW 13.9 mph22.4 kmh 28.98 in981.4 mb 0.00 in0.0 mm 0.00 in/hr0.0 mm/hr 0.00 in0.0 mm
04:38 PM 80.8°F27.1°C 53.5°F11.9°C 39% 10.5 mph WSW16.9 kmh WSW 13.9 mph22.4 kmh 28.99 in981.7 mb 0.00 in0.0 mm 0.00 in/hr0.0 mm/hr 0.00 in0.0 mm
04:37 PM 81.0°F27.2°C 53.7°F12.1°C 39% 6.9 mph WSW11.1 kmh WSW 13.9 mph22.4 kmh 28.98 in981.4 mb 0.00 in0.0 mm 0.00 in/hr0.0 mm/hr 0.00 in0.0 mm
04:36 PM 81.0°F27.2°C 52.9°F11.6°C 38% 6.3 mph WSW10.1 kmh WSW 13.9 mph22.4 kmh 28.98 in981.4 mb 0.00 in0.0 mm 0.00 in/hr0.0 mm/hr 0.00 in0.0 mm
04:35 PM 81.0°F27.2°C 53.7°F12.1°C 39% 10.7 mph WSW17.2 kmh WSW 13.9 mph22.4 kmh 28.98 in981.4 mb 0.00 in0.0 mm 0.00 in/hr0.0 mm/hr 0.00 in0.0 mm
04:34 PM 81.0°F27.2°C 52.9°F11.6°C 38% 10.5 mph WSW16.9 kmh WSW 12.3 mph19.8 kmh 28.98 in981.4 mb 0.00 in0.0 mm 0.00 in/hr0.0 mm/hr 0.00 in0.0 mm
04:33 PM 81.0°F27.2°C 52.9°F11.6°C 38% 6.3 mph WSW10.1 kmh WSW 12.3 mph19.8 kmh 28.99 in981.7 mb 0.00 in0.0 mm 0.00 in/hr0.0 mm/hr 0.00 in0.0 mm
04:32 PM 81.1°F27.3°C 53.8°F12.1°C 39% 11.2 mph WSW18.0 kmh WSW 12.3 mph19.8 kmh 28.98 in981.4 mb 0.00 in0.0 mm 0.00 in/hr0.0 mm/hr 0.00 in0.0 mm
04:31 PM 81.1°F27.3°C 53.8°F12.1°C 39% 6.3 mph WSW10.1 kmh WSW 12.3 mph19.8 kmh 28.98 in981.4 mb 0.00 in0.0 mm 0.00 in/hr0.0 mm/hr 0.00 in0.0 mm
04:30 PM 81.1°F27.3°C 53.1°F11.7°C 38% 8.7 mph WSW14.0 kmh WSW 12.3 mph19.8 kmh 28.98 in981.4 mb 0.00 in0.0 mm 0.00 in/hr0.0 mm/hr 0.00 in0.0 mm
04:29 PM 81.1°F27.3°C 53.1°F11.7°C 38% 9.2 mph WSW14.8 kmh WSW 14.1 mph22.7 kmh 28.98 in981.4 mb 0.00 in0.0 mm 0.00 in/hr0.0 mm/hr 0.00 in0.0 mm
04:28 PM 81.1°F27.3°C 53.8°F12.1°C 39% 1.8 mph WSW2.9 kmh WSW 14.1 mph22.7 kmh 28.99 in981.7 mb 0.00 in0.0 mm 0.00 in/hr0.0 mm/hr 0.00 in0.0 mm
04:27 PM 81.1°F27.3°C 54.6°F12.6°C 40% 4.3 mph WSW6.9 kmh WSW 14.1 mph22.7 kmh 28.98 in981.4 mb 0.00 in0.0 mm 0.00 in/hr0.0 mm/hr 0.00 in0.0 mm
04:26 PM 81.1°F27.3°C 54.6°F12.6°C 40% 8.7 mph WSW14.0 kmh WSW 14.5 mph23.3 kmh 28.99 in981.7 mb 0.00 in0.0 mm 0.00 in/hr0.0 mm/hr 0.00 in0.0 mm
04:25 PM 81.1°F27.3°C 53.1°F11.7°C 38% 6.7 mph WSW10.8 kmh WSW 14.8 mph23.8 kmh 28.99 in981.7 mb 0.00 in0.0 mm 0.00 in/hr0.0 mm/hr 0.00 in0.0 mm
04:24 PM 81.1°F27.3°C 53.1°F11.7°C 38% 10.5 mph WSW16.9 kmh WSW 14.8 mph23.8 kmh 28.98 in981.4 mb 0.00 in0.0 mm 0.00 in/hr0.0 mm/hr 0.00 in0.0 mm
04:23 PM 81.1°F27.3°C 53.1°F11.7°C 38% 6.3 mph WSW10.1 kmh WSW 14.8 mph23.8 kmh 28.98 in981.4 mb 0.00 in0.0 mm 0.00 in/hr0.0 mm/hr 0.00 in0.0 mm
04:22 PM 81.1°F27.3°C 53.8°F12.1°C 39% 4.5 mph WSW7.2 kmh WSW 14.8 mph23.8 kmh 28.99 in981.7 mb 0.00 in0.0 mm 0.00 in/hr0.0 mm/hr 0.00 in0.0 mm
04:21 PM 81.1°F27.3°C 53.8°F12.1°C 39% 8.7 mph WSW14.0 kmh WSW 14.8 mph23.8 kmh 28.98 in981.4 mb 0.00 in0.0 mm 0.00 in/hr0.0 mm/hr 0.00 in0.0 mm
04:20 PM 81.1°F27.3°C 53.1°F11.7°C 38% 10.1 mph WSW16.3 kmh WSW 14.8 mph23.8 kmh 28.98 in981.4 mb 0.00 in0.0 mm 0.00 in/hr0.0 mm/hr 0.00 in0.0 mm
04:19 PM 81.1°F27.3°C 53.1°F11.7°C 38% 11.4 mph WSW18.3 kmh WSW 14.8 mph23.8 kmh 28.98 in981.4 mb 0.00 in0.0 mm 0.00 in/hr0.0 mm/hr 0.00 in0.0 mm
04:18 PM 81.1°F27.3°C 53.1°F11.7°C 38% 9.8 mph WSW15.8 kmh WSW 14.8 mph23.8 kmh 28.98 in981.4 mb 0.00 in0.0 mm 0.00 in/hr0.0 mm/hr 0.00 in0.0 mm
04:17 PM 81.1°F27.3°C 53.1°F11.7°C 38% 14.5 mph WSW23.3 kmh WSW 14.8 mph23.8 kmh 28.98 in981.4 mb 0.00 in0.0 mm 0.00 in/hr0.0 mm/hr 0.00 in0.0 mm
04:16 PM 81.3°F27.4°C 53.2°F11.8°C 38% 14.1 mph WSW22.7 kmh WSW 14.8 mph23.8 kmh 28.98 in981.4 mb 0.00 in0.0 mm 0.00 in/hr0.0 mm/hr 0.00 in0.0 mm
04:15 PM 81.3°F27.4°C 53.2°F11.8°C 38% 3.6 mph WSW5.8 kmh WSW 9.4 mph15.1 kmh 28.98 in981.4 mb 0.00 in0.0 mm 0.00 in/hr0.0 mm/hr 0.00 in0.0 mm
04:14 PM 81.3°F27.4°C 53.2°F11.8°C 38% 8.9 mph WSW14.3 kmh WSW 10.3 mph16.6 kmh 28.98 in981.4 mb 0.00 in0.0 mm 0.00 in/hr0.0 mm/hr 0.00 in0.0 mm
04:13 PM 81.3°F27.4°C 53.2°F11.8°C 38% 2.5 mph WSW4.0 kmh WSW 11.9 mph19.2 kmh 28.98 in981.4 mb 0.00 in0.0 mm 0.00 in/hr0.0 mm/hr 0.00 in0.0 mm
04:12 PM 81.3°F27.4°C 54.8°F12.7°C 40% Calm Calm 12.5 mph20.1 kmh 28.98 in981.4 mb 0.00 in0.0 mm 0.00 in/hr0.0 mm/hr 0.00 in0.0 mm
04:11 PM 81.3°F27.4°C 54.0°F12.2°C 39% 3.1 mph WSW5.0 kmh WSW 14.5 mph23.3 kmh 28.98 in981.4 mb 0.00 in0.0 mm 0.00 in/hr0.0 mm/hr 0.00 in0.0 mm
04:10 PM 81.3°F27.4°C 54.0°F12.2°C 39% 6.5 mph WSW10.5 kmh WSW 14.5 mph23.3 kmh 28.98 in981.4 mb 0.00 in0.0 mm 0.00 in/hr0.0 mm/hr 0.00 in0.0 mm
04:09 PM 81.3°F27.4°C 53.2°F11.8°C 38% 6.7 mph WSW10.8 kmh WSW 14.5 mph23.3 kmh 28.98 in981.4 mb 0.00 in0.0 mm 0.00 in/hr0.0 mm/hr 0.00 in0.0 mm
04:08 PM 81.5°F27.5°C 53.4°F11.9°C 38% 3.6 mph WSW5.8 kmh WSW 14.5 mph23.3 kmh 28.98 in981.4 mb 0.00 in0.0 mm 0.00 in/hr0.0 mm/hr 0.00 in0.0 mm
04:07 PM 81.5°F27.5°C 52.6°F11.4°C 37% 5.4 mph WSW8.7 kmh WSW 14.5 mph23.3 kmh 28.99 in981.7 mb 0.00 in0.0 mm 0.00 in/hr0.0 mm/hr 0.00 in0.0 mm
04:06 PM 81.5°F27.5°C 53.4°F11.9°C 38% 3.4 mph WSW5.5 kmh WSW 14.5 mph23.3 kmh 28.98 in981.4 mb 0.00 in0.0 mm 0.00 in/hr0.0 mm/hr 0.00 in0.0 mm
04:05 PM 81.7°F27.6°C 53.5°F11.9°C 38% 6.0 mph WSW9.7 kmh WSW 15.9 mph25.6 kmh 28.99 in981.7 mb 0.00 in0.0 mm 0.00 in/hr0.0 mm/hr 0.00 in0.0 mm
04:04 PM 81.7°F27.6°C 53.5°F11.9°C 38% 6.5 mph WSW10.5 kmh WSW 15.9 mph25.6 kmh 28.98 in981.4 mb 0.00 in0.0 mm 0.00 in/hr0.0 mm/hr 0.00 in0.0 mm
04:03 PM 81.7°F27.6°C 53.5°F11.9°C 38% 8.1 mph WSW13.0 kmh WSW 15.9 mph25.6 kmh 28.99 in981.7 mb 0.00 in0.0 mm 0.00 in/hr0.0 mm/hr 0.00 in0.0 mm
04:02 PM 81.7°F27.6°C 54.3°F12.4°C 39% 9.6 mph WSW15.4 kmh WSW 15.9 mph25.6 kmh 28.99 in981.7 mb 0.00 in0.0 mm 0.00 in/hr0.0 mm/hr 0.00 in0.0 mm
04:01 PM 81.7°F27.6°C 54.3°F12.4°C 39% 9.8 mph WSW15.8 kmh WSW 15.9 mph25.6 kmh 28.98 in981.4 mb 0.00 in0.0 mm 0.00 in/hr0.0 mm/hr 0.00 in0.0 mm
04:00 PM 81.7°F27.6°C 54.3°F12.4°C 39% 13.4 mph WSW21.6 kmh WSW 15.9 mph25.6 kmh 28.98 in981.4 mb 0.00 in0.0 mm 0.00 in/hr0.0 mm/hr 0.00 in0.0 mm
03:59 PM 81.7°F27.6°C 54.3°F12.4°C 39% 4.5 mph WSW7.2 kmh WSW 15.9 mph25.6 kmh 28.98 in981.4 mb 0.00 in0.0 mm 0.00 in/hr0.0 mm/hr 0.00 in0.0 mm
03:58 PM 81.9°F27.7°C 54.5°F12.5°C 39% 5.1 mph WSW8.2 kmh WSW 15.9 mph25.6 kmh 28.98 in981.4 mb 0.00 in0.0 mm 0.00 in/hr0.0 mm/hr 0.00 in0.0 mm
03:57 PM 82.0°F27.8°C 53.9°F12.2°C 38% 4.0 mph WSW6.4 kmh WSW 15.9 mph25.6 kmh 28.98 in981.4 mb 0.00 in0.0 mm 0.00 in/hr0.0 mm/hr 0.00 in0.0 mm
03:56 PM 82.0°F27.8°C 54.6°F12.6°C 39% 12.8 mph WSW20.6 kmh WSW 15.9 mph25.6 kmh 28.98 in981.4 mb 0.00 in0.0 mm 0.00 in/hr0.0 mm/hr 0.00 in0.0 mm
03:55 PM 82.0°F27.8°C 54.6°F12.6°C 39% 11.6 mph WSW18.7 kmh WSW 15.0 mph24.1 kmh 28.99 in981.7 mb 0.00 in0.0 mm 0.00 in/hr0.0 mm/hr 0.00 in0.0 mm
03:54 PM 82.0°F27.8°C 54.6°F12.6°C 39% 11.2 mph WSW18.0 kmh WSW 15.0 mph24.1 kmh 28.98 in981.4 mb 0.00 in0.0 mm 0.00 in/hr0.0 mm/hr 0.00 in0.0 mm
03:53 PM 82.0°F27.8°C 54.6°F12.6°C 39% 10.7 mph WSW17.2 kmh WSW 15.0 mph24.1 kmh 28.98 in981.4 mb 0.00 in0.0 mm 0.00 in/hr0.0 mm/hr 0.00 in0.0 mm
03:52 PM 82.0°F27.8°C 54.6°F12.6°C 39% 11.6 mph WSW18.7 kmh WSW 15.7 mph25.3 kmh 28.98 in981.4 mb 0.00 in0.0 mm 0.00 in/hr0.0 mm/hr 0.00 in0.0 mm
03:51 PM 82.0°F27.8°C 54.6°F12.6°C 39% 6.5 mph WSW10.5 kmh WSW 15.7 mph25.3 kmh 28.98 in981.4 mb 0.00 in0.0 mm 0.00 in/hr0.0 mm/hr 0.00 in0.0 mm
03:50 PM 82.0°F27.8°C 55.4°F13.0°C 40% 8.1 mph W13.0 kmh W 15.7 mph25.3 kmh 28.98 in981.4 mb 0.00 in0.0 mm 0.00 in/hr0.0 mm/hr 0.00 in0.0 mm
03:49 PM 82.0°F27.8°C 55.4°F13.0°C 40% 8.5 mph W13.7 kmh W 15.7 mph25.3 kmh 28.98 in981.4 mb 0.00 in0.0 mm 0.00 in/hr0.0 mm/hr 0.00 in0.0 mm
03:48 PM 82.0°F27.8°C 54.6°F12.6°C 39% 5.8 mph W9.3 kmh W 15.7 mph25.3 kmh 28.98 in981.4 mb 0.00 in0.0 mm 0.00 in/hr0.0 mm/hr 0.00 in0.0 mm
03:47 PM 82.0°F27.8°C 54.6°F12.6°C 39% 10.7 mph WNW17.2 kmh WNW 15.7 mph25.3 kmh 28.98 in981.4 mb 0.00 in0.0 mm 0.00 in/hr0.0 mm/hr 0.00 in0.0 mm
03:46 PM 82.0°F27.8°C 54.6°F12.6°C 39% 3.8 mph NW6.1 kmh NW 15.7 mph25.3 kmh 28.98 in981.4 mb 0.00 in0.0 mm 0.00 in/hr0.0 mm/hr 0.00 in0.0 mm
03:45 PM 82.2°F27.9°C 54.8°F12.7°C 39% 6.0 mph NNW9.7 kmh NNW 15.7 mph25.3 kmh 28.98 in981.4 mb 0.00 in0.0 mm 0.00 in/hr0.0 mm/hr 0.00 in0.0 mm
03:44 PM 82.2°F27.9°C 54.8°F12.7°C 39% 0.9 mph NNW1.4 kmh NNW 15.7 mph25.3 kmh 28.98 in981.4 mb 0.00 in0.0 mm 0.00 in/hr0.0 mm/hr 0.00 in0.0 mm
03:43 PM 82.2°F27.9°C 54.8°F12.7°C 39% 7.6 mph N12.2 kmh N 15.7 mph25.3 kmh 28.98 in981.4 mb 0.00 in0.0 mm 0.00 in/hr0.0 mm/hr 0.00 in0.0 mm
03:42 PM 82.2°F27.9°C 54.8°F12.7°C 39% 13.0 mph N20.9 kmh N 13.6 mph21.9 kmh 28.98 in981.4 mb 0.00 in0.0 mm 0.00 in/hr0.0 mm/hr 0.00 in0.0 mm
03:41 PM 82.2°F27.9°C 54.0°F12.2°C 38% 6.5 mph NNE10.5 kmh NNE 13.6 mph21.9 kmh 28.98 in981.4 mb 0.00 in0.0 mm 0.00 in/hr0.0 mm/hr 0.00 in0.0 mm
03:40 PM 82.2°F27.9°C 54.0°F12.2°C 38% 8.7 mph NNE14.0 kmh NNE 14.1 mph22.7 kmh 28.98 in981.4 mb 0.00 in0.0 mm 0.00 in/hr0.0 mm/hr 0.00 in0.0 mm
03:39 PM 82.2°F27.9°C 54.0°F12.2°C 38% 6.3 mph NE10.1 kmh NE 14.8 mph23.8 kmh 28.98 in981.4 mb 0.00 in0.0 mm 0.00 in/hr0.0 mm/hr 0.00 in0.0 mm
03:38 PM 82.2°F27.9°C 54.8°F12.7°C 39% 3.4 mph NE5.5 kmh NE 14.8 mph23.8 kmh 28.99 in981.7 mb 0.00 in0.0 mm 0.00 in/hr0.0 mm/hr 0.00 in0.0 mm
03:37 PM 82.4°F28.0°C 54.2°F12.3°C 38% 8.9 mph NE14.3 kmh NE 14.8 mph23.8 kmh 28.98 in981.4 mb 0.00 in0.0 mm 0.00 in/hr0.0 mm/hr 0.00 in0.0 mm
03:36 PM 82.4°F28.0°C 54.2°F12.3°C 38% 10.3 mph NE16.6 kmh NE 14.8 mph23.8 kmh 28.99 in981.7 mb 0.00 in0.0 mm 0.00 in/hr0.0 mm/hr 0.00 in0.0 mm
03:35 PM 82.4°F28.0°C 54.2°F12.3°C 38% 8.7 mph NE14.0 kmh NE 14.8 mph23.8 kmh 28.99 in981.7 mb 0.00 in0.0 mm 0.00 in/hr0.0 mm/hr 0.00 in0.0 mm
03:34 PM 82.4°F28.0°C 55.0°F12.8°C 39% 7.8 mph NE12.6 kmh NE 14.8 mph23.8 kmh 28.99 in981.7 mb 0.00 in0.0 mm 0.00 in/hr0.0 mm/hr 0.00 in0.0 mm
03:33 PM 82.4°F28.0°C 55.8°F13.2°C 40% 11.2 mph NE18.0 kmh NE 14.8 mph23.8 kmh 28.99 in981.7 mb 0.00 in0.0 mm 0.00 in/hr0.0 mm/hr 0.00 in0.0 mm
03:32 PM 82.4°F28.0°C 55.0°F12.8°C 39% 8.9 mph NE14.3 kmh NE 14.8 mph23.8 kmh 28.98 in981.4 mb 0.00 in0.0 mm 0.00 in/hr0.0 mm/hr 0.00 in0.0 mm
03:31 PM 82.2°F27.9°C 54.8°F12.7°C 39% 10.1 mph NNE16.3 kmh NNE 14.8 mph23.8 kmh 28.99 in981.7 mb 0.00 in0.0 mm 0.00 in/hr0.0 mm/hr 0.00 in0.0 mm
03:30 PM 82.2°F27.9°C 54.8°F12.7°C 39% 14.1 mph N22.7 kmh N 14.8 mph23.8 kmh 28.98 in981.4 mb 0.00 in0.0 mm 0.00 in/hr0.0 mm/hr 0.00 in0.0 mm
03:29 PM 82.2°F27.9°C 54.8°F12.7°C 39% 6.0 mph N9.7 kmh N 12.8 mph20.6 kmh 28.98 in981.4 mb 0.00 in0.0 mm 0.00 in/hr0.0 mm/hr 0.00 in0.0 mm
03:28 PM 82.2°F27.9°C 54.0°F12.2°C 38% 9.4 mph N15.1 kmh N 12.8 mph20.6 kmh 28.99 in981.7 mb 0.00 in0.0 mm 0.00 in/hr0.0 mm/hr 0.00 in0.0 mm
03:27 PM 82.2°F27.9°C 54.8°F12.7°C 39% 4.5 mph N7.2 kmh N 14.3 mph23.0 kmh 28.99 in981.7 mb 0.00 in0.0 mm 0.00 in/hr0.0 mm/hr 0.00 in0.0 mm
03:26 PM 82.2°F27.9°C 54.8°F12.7°C 39% 5.8 mph N9.3 kmh N 14.3 mph23.0 kmh 28.98 in981.4 mb 0.00 in0.0 mm 0.00 in/hr0.0 mm/hr 0.00 in0.0 mm
03:25 PM 82.2°F27.9°C 54.8°F12.7°C 39% 6.3 mph N10.1 kmh N 14.3 mph23.0 kmh 28.98 in981.4 mb 0.00 in0.0 mm 0.00 in/hr0.0 mm/hr 0.00 in0.0 mm
03:24 PM 82.2°F27.9°C 54.8°F12.7°C 39% 6.3 mph N10.1 kmh N 14.3 mph23.0 kmh 28.98 in981.4 mb 0.00 in0.0 mm 0.00 in/hr0.0 mm/hr 0.00 in0.0 mm
03:23 PM 82.0°F27.8°C 54.6°F12.6°C 39% 2.5 mph N4.0 kmh N 14.3 mph23.0 kmh 28.99 in981.7 mb 0.00 in0.0 mm 0.00 in/hr0.0 mm/hr 0.00 in0.0 mm
03:22 PM 82.0°F27.8°C 54.6°F12.6°C 39% 9.8 mph N15.8 kmh N 14.3 mph23.0 kmh 28.99 in981.7 mb 0.00 in0.0 mm 0.00 in/hr0.0 mm/hr 0.00 in0.0 mm
03:21 PM 82.0°F27.8°C 54.6°F12.6°C 39% 5.1 mph N8.2 kmh N 14.3 mph23.0 kmh 28.98 in981.4 mb 0.00 in0.0 mm 0.00 in/hr0.0 mm/hr 0.00 in0.0 mm
03:20 PM 82.0°F27.8°C 54.6°F12.6°C 39% 5.1 mph NNE8.2 kmh NNE 14.3 mph23.0 kmh 28.99 in981.7 mb 0.00 in0.0 mm 0.00 in/hr0.0 mm/hr 0.00 in0.0 mm
03:19 PM 82.0°F27.8°C 54.6°F12.6°C 39% 11.2 mph NNE18.0 kmh NNE 15.4 mph24.8 kmh 28.99 in981.7 mb 0.00 in0.0 mm 0.00 in/hr0.0 mm/hr 0.00 in0.0 mm
03:18 PM 82.0°F27.8°C 54.6°F12.6°C 39% 14.3 mph NNE23.0 kmh NNE 15.7 mph25.3 kmh 28.99 in981.7 mb 0.00 in0.0 mm 0.00 in/hr0.0 mm/hr 0.00 in0.0 mm
03:17 PM 82.0°F27.8°C 54.6°F12.6°C 39% 11.2 mph NNE18.0 kmh NNE 15.7 mph25.3 kmh 28.99 in981.7 mb 0.00 in0.0 mm 0.00 in/hr0.0 mm/hr 0.00 in0.0 mm
03:16 PM 82.0°F27.8°C 54.6°F12.6°C 39% 10.1 mph NNE16.3 kmh NNE 15.7 mph25.3 kmh 28.99 in981.7 mb 0.00 in0.0 mm 0.00 in/hr0.0 mm/hr 0.00 in0.0 mm
03:15 PM 82.0°F27.8°C 54.6°F12.6°C 39% 3.6 mph NNE5.8 kmh NNE 15.7 mph25.3 kmh 28.99 in981.7 mb 0.00 in0.0 mm 0.00 in/hr0.0 mm/hr 0.00 in0.0 mm
03:14 PM 82.0°F27.8°C 54.6°F12.6°C 39% 6.0 mph N9.7 kmh N 15.7 mph25.3 kmh 28.99 in981.7 mb 0.00 in0.0 mm 0.00 in/hr0.0 mm/hr 0.00 in0.0 mm
03:13 PM 82.0°F27.8°C 53.9°F12.2°C 38% 5.6 mph N9.0 kmh N 15.7 mph25.3 kmh 28.99 in981.7 mb 0.00 in0.0 mm 0.00 in/hr0.0 mm/hr 0.00 in0.0 mm
03:12 PM 82.0°F27.8°C 54.6°F12.6°C 39% 9.6 mph NNE15.4 kmh NNE 15.7 mph25.3 kmh 28.99 in981.7 mb 0.00 in0.0 mm 0.00 in/hr0.0 mm/hr 0.00 in0.0 mm
03:11 PM 82.0°F27.8°C 53.9°F12.2°C 38% 8.3 mph NNE13.4 kmh NNE 15.7 mph25.3 kmh 28.99 in981.7 mb 0.00 in0.0 mm 0.00 in/hr0.0 mm/hr 0.00 in0.0 mm
03:10 PM 82.0°F27.8°C 53.9°F12.2°C 38% 8.3 mph NNE13.4 kmh NNE 15.7 mph25.3 kmh 28.99 in981.7 mb 0.00 in0.0 mm 0.00 in/hr0.0 mm/hr 0.00 in0.0 mm
03:09 PM 82.0°F27.8°C 54.6°F12.6°C 39% 15.4 mph NNE24.8 kmh NNE 15.7 mph25.3 kmh 28.99 in981.7 mb 0.00 in0.0 mm 0.00 in/hr0.0 mm/hr 0.00 in0.0 mm
03:08 PM 82.0°F27.8°C 54.6°F12.6°C 39% 8.3 mph NNE13.4 kmh NNE 15.0 mph24.1 kmh 28.99 in981.7 mb 0.00 in0.0 mm 0.00 in/hr0.0 mm/hr 0.00 in0.0 mm
03:07 PM 82.0°F27.8°C 55.4°F13.0°C 40% 6.5 mph NNE10.5 kmh NNE 15.0 mph24.1 kmh 28.99 in981.7 mb 0.00 in0.0 mm 0.00 in/hr0.0 mm/hr 0.00 in0.0 mm
03:06 PM 82.2°F27.9°C 55.6°F13.1°C 40% 4.7 mph NNE7.6 kmh NNE 15.0 mph24.1 kmh 28.99 in981.7 mb 0.00 in0.0 mm 0.00 in/hr0.0 mm/hr 0.00 in0.0 mm
03:05 PM 82.2°F27.9°C 55.6°F13.1°C 40% 11.2 mph NNE18.0 kmh NNE 15.7 mph25.3 kmh 28.99 in981.7 mb 0.00 in0.0 mm 0.00 in/hr0.0 mm/hr 0.00 in0.0 mm
03:04 PM 82.2°F27.9°C 55.6°F13.1°C 40% 12.5 mph NNE20.1 kmh NNE 16.1 mph25.9 kmh 28.99 in981.7 mb 0.00 in0.0 mm 0.00 in/hr0.0 mm/hr 0.00 in0.0 mm
03:03 PM 82.0°F27.8°C 55.4°F13.0°C 40% 9.6 mph NNE15.4 kmh NNE 18.8 mph30.3 kmh 28.99 in981.7 mb 0.00 in0.0 mm 0.00 in/hr0.0 mm/hr 0.00 in0.0 mm
03:02 PM 82.0°F27.8°C 55.4°F13.0°C 40% 11.6 mph NNE18.7 kmh NNE 18.8 mph30.3 kmh 28.99 in981.7 mb 0.00 in0.0 mm 0.00 in/hr0.0 mm/hr 0.00 in0.0 mm
03:01 PM 82.2°F27.9°C 55.6°F13.1°C 40% 8.1 mph NNE13.0 kmh NNE 18.8 mph30.3 kmh 28.99 in981.7 mb 0.00 in0.0 mm 0.00 in/hr0.0 mm/hr 0.00 in0.0 mm
03:00 PM 82.0°F27.8°C 55.4°F13.0°C 40% 12.3 mph NNE19.8 kmh NNE 18.8 mph30.3 kmh 28.99 in981.7 mb 0.00 in0.0 mm 0.00 in/hr0.0 mm/hr 0.00 in0.0 mm
02:59 PM 82.0°F27.8°C 55.4°F13.0°C 40% 4.9 mph N7.9 kmh N 18.8 mph30.3 kmh 28.99 in981.7 mb 0.00 in0.0 mm 0.00 in/hr0.0 mm/hr 0.00 in0.0 mm
02:58 PM 82.0°F27.8°C 55.4°F13.0°C 40% 4.9 mph N7.9 kmh N 18.8 mph30.3 kmh 28.99 in981.7 mb 0.00 in0.0 mm 0.00 in/hr0.0 mm/hr 0.00 in0.0 mm
02:57 PM 82.0°F27.8°C 55.4°F13.0°C 40% 11.0 mph NNE17.7 kmh NNE 18.8 mph30.3 kmh 28.99 in981.7 mb 0.00 in0.0 mm 0.00 in/hr0.0 mm/hr 0.00 in0.0 mm
02:56 PM 82.0°F27.8°C 55.4°F13.0°C 40% 5.8 mph NNE9.3 kmh NNE 18.8 mph30.3 kmh 28.99 in981.7 mb 0.00 in0.0 mm 0.00 in/hr0.0 mm/hr 0.00 in0.0 mm
02:55 PM 82.0°F27.8°C 55.4°F13.0°C 40% 11.9 mph NNE19.2 kmh NNE 18.8 mph30.3 kmh 28.99 in981.7 mb 0.00 in0.0 mm 0.00 in/hr0.0 mm/hr 0.00 in0.0 mm
02:54 PM 82.0°F27.8°C 55.4°F13.0°C 40% 18.8 mph NNE30.3 kmh NNE 18.8 mph30.3 kmh 28.99 in981.7 mb 0.00 in0.0 mm 0.00 in/hr0.0 mm/hr 0.00 in0.0 mm
02:53 PM 82.0°F27.8°C 54.6°F12.6°C 39% 7.4 mph NNE11.9 kmh NNE 17.0 mph27.4 kmh 28.99 in981.7 mb 0.00 in0.0 mm 0.00 in/hr0.0 mm/hr 0.00 in0.0 mm
02:52 PM 82.0°F27.8°C 54.6°F12.6°C 39% 6.7 mph NNE10.8 kmh NNE 17.0 mph27.4 kmh 28.99 in981.7 mb 0.00 in0.0 mm 0.00 in/hr0.0 mm/hr 0.00 in0.0 mm
02:51 PM 82.0°F27.8°C 55.4°F13.0°C 40% 8.5 mph NNE13.7 kmh NNE 17.0 mph27.4 kmh 28.99 in981.7 mb 0.00 in0.0 mm 0.00 in/hr0.0 mm/hr 0.00 in0.0 mm
02:50 PM 82.0°F27.8°C 55.4°F13.0°C 40% 8.9 mph NNE14.3 kmh NNE 17.0 mph27.4 kmh 28.99 in981.7 mb 0.00 in0.0 mm 0.00 in/hr0.0 mm/hr 0.00 in0.0 mm
02:49 PM 82.0°F27.8°C 54.6°F12.6°C 39% 7.4 mph NE11.9 kmh NE 17.0 mph27.4 kmh 28.99 in981.7 mb 0.00 in0.0 mm 0.00 in/hr0.0 mm/hr 0.00 in0.0 mm
02:48 PM 82.0°F27.8°C 55.4°F13.0°C 40% 9.2 mph NE14.8 kmh NE 17.0 mph27.4 kmh 28.99 in981.7 mb 0.00 in0.0 mm 0.00 in/hr0.0 mm/hr 0.00 in0.0 mm
02:47 PM 82.0°F27.8°C 55.4°F13.0°C 40% 15.9 mph NE25.6 kmh NE 16.3 mph26.2 kmh 28.99 in981.7 mb 0.00 in0.0 mm 0.00 in/hr0.0 mm/hr 0.00 in0.0 mm
02:46 PM 82.0°F27.8°C 55.4°F13.0°C 40% 10.5 mph NE16.9 kmh NE 15.4 mph24.8 kmh 28.99 in981.7 mb 0.00 in0.0 mm 0.00 in/hr0.0 mm/hr 0.00 in0.0 mm
02:45 PM 82.0°F27.8°C 56.0°F13.3°C 41% 14.3 mph NE23.0 kmh NE 15.2 mph24.5 kmh 28.99 in981.7 mb 0.00 in0.0 mm 0.00 in/hr0.0 mm/hr 0.00 in0.0 mm
02:44 PM 82.0°F27.8°C 55.4°F13.0°C 40% 12.1 mph NE19.5 kmh NE 12.5 mph20.1 kmh 28.99 in981.7 mb 0.00 in0.0 mm 0.00 in/hr0.0 mm/hr 0.00 in0.0 mm
02:43 PM 82.0°F27.8°C 55.4°F13.0°C 40% 9.6 mph NE15.4 kmh NE 15.2 mph24.5 kmh 28.99 in981.7 mb 0.00 in0.0 mm 0.00 in/hr0.0 mm/hr 0.00 in0.0 mm
02:42 PM 82.0°F27.8°C 55.4°F13.0°C 40% 11.2 mph NE18.0 kmh NE 15.2 mph24.5 kmh 28.99 in981.7 mb 0.00 in0.0 mm 0.00 in/hr0.0 mm/hr 0.00 in0.0 mm
02:41 PM 82.0°F27.8°C 55.4°F13.0°C 40% 9.6 mph NE15.4 kmh NE 15.2 mph24.5 kmh 28.99 in981.7 mb 0.00 in0.0 mm 0.00 in/hr0.0 mm/hr 0.00 in0.0 mm
02:40 PM 82.0°F27.8°C 55.4°F13.0°C 40% 6.0 mph NE9.7 kmh NE 15.2 mph24.5 kmh 28.99 in981.7 mb 0.00 in0.0 mm 0.00 in/hr0.0 mm/hr 0.00 in0.0 mm
02:39 PM 82.0°F27.8°C 56.0°F13.3°C 41% 7.6 mph NE12.2 kmh NE 15.2 mph24.5 kmh 28.99 in981.7 mb 0.00 in0.0 mm 0.00 in/hr0.0 mm/hr 0.00 in0.0 mm
02:38 PM 82.0°F27.8°C 56.0°F13.3°C 41% 8.5 mph NE13.7 kmh NE 15.2 mph24.5 kmh 28.99 in981.7 mb 0.00 in0.0 mm 0.00 in/hr0.0 mm/hr 0.00 in0.0 mm
02:37 PM 82.0°F27.8°C 56.0°F13.3°C 41% 8.3 mph NE13.4 kmh NE 15.2 mph24.5 kmh 28.99 in981.7 mb 0.00 in0.0 mm 0.00 in/hr0.0 mm/hr 0.00 in0.0 mm
02:36 PM 82.0°F27.8°C 56.0°F13.3°C 41% 12.1 mph NE19.5 kmh NE 17.2 mph27.7 kmh 28.99 in981.7 mb 0.00 in0.0 mm 0.00 in/hr0.0 mm/hr 0.00 in0.0 mm
02:35 PM 82.0°F27.8°C 56.0°F13.3°C 41% 9.6 mph NE15.4 kmh NE 17.2 mph27.7 kmh 28.99 in981.7 mb 0.00 in0.0 mm 0.00 in/hr0.0 mm/hr 0.00 in0.0 mm
02:34 PM 82.0°F27.8°C 56.0°F13.3°C 41% 12.8 mph NE20.6 kmh NE 17.2 mph27.7 kmh 28.99 in981.7 mb 0.00 in0.0 mm 0.00 in/hr0.0 mm/hr 0.00 in0.0 mm
02:33 PM 82.0°F27.8°C 56.0°F13.3°C 41% 4.7 mph NE7.6 kmh NE 17.2 mph27.7 kmh 28.99 in981.7 mb 0.00 in0.0 mm 0.00 in/hr0.0 mm/hr 0.00 in0.0 mm
02:32 PM 82.0°F27.8°C 56.0°F13.3°C 41% 6.9 mph NE11.1 kmh NE 17.2 mph27.7 kmh 28.99 in981.7 mb 0.00 in0.0 mm 0.00 in/hr0.0 mm/hr 0.00 in0.0 mm
02:31 PM 82.0°F27.8°C 56.0°F13.3°C 41% 7.2 mph NE11.6 kmh NE 17.2 mph27.7 kmh 28.99 in981.7 mb 0.00 in0.0 mm 0.00 in/hr0.0 mm/hr 0.00 in0.0 mm
02:30 PM 82.0°F27.8°C 56.0°F13.3°C 41% 9.4 mph NE15.1 kmh NE 17.2 mph27.7 kmh 28.99 in981.7 mb 0.00 in0.0 mm 0.00 in/hr0.0 mm/hr 0.00 in0.0 mm
02:29 PM 82.0°F27.8°C 56.0°F13.3°C 41% 8.9 mph NE14.3 kmh NE 18.3 mph29.5 kmh 28.99 in981.7 mb 0.00 in0.0 mm 0.00 in/hr0.0 mm/hr 0.00 in0.0 mm
02:28 PM 82.0°F27.8°C 56.0°F13.3°C 41% 6.5 mph NE10.5 kmh NE 18.3 mph29.5 kmh 28.99 in981.7 mb 0.00 in0.0 mm 0.00 in/hr0.0 mm/hr 0.00 in0.0 mm
02:27 PM 82.0°F27.8°C 55.4°F13.0°C 40% 14.1 mph NNE22.7 kmh NNE 18.3 mph29.5 kmh 28.99 in981.7 mb 0.00 in0.0 mm 0.00 in/hr0.0 mm/hr 0.00 in0.0 mm
02:26 PM 82.0°F27.8°C 55.4°F13.0°C 40% 9.6 mph NNE15.4 kmh NNE 18.3 mph29.5 kmh 28.99 in981.7 mb 0.00 in0.0 mm 0.00 in/hr0.0 mm/hr 0.00 in0.0 mm
02:25 PM 82.0°F27.8°C 55.4°F13.0°C 40% 13.9 mph NNE22.4 kmh NNE 18.3 mph29.5 kmh 28.99 in981.7 mb 0.00 in0.0 mm 0.00 in/hr0.0 mm/hr 0.00 in0.0 mm
02:24 PM 82.0°F27.8°C 55.4°F13.0°C 40% 8.7 mph NNE14.0 kmh NNE 18.3 mph29.5 kmh 28.99 in981.7 mb 0.00 in0.0 mm 0.00 in/hr0.0 mm/hr 0.00 in0.0 mm
02:23 PM 82.0°F27.8°C 55.4°F13.0°C 40% 8.3 mph NNE13.4 kmh NNE 18.3 mph29.5 kmh 28.99 in981.7 mb 0.00 in0.0 mm 0.00 in/hr0.0 mm/hr 0.00 in0.0 mm
02:22 PM 82.0°F27.8°C 56.0°F13.3°C 41% 11.9 mph NNE19.2 kmh NNE 18.3 mph29.5 kmh 28.99 in981.7 mb 0.00 in0.0 mm 0.00 in/hr0.0 mm/hr 0.00 in0.0 mm
02:21 PM 81.9°F27.7°C 55.9°F13.3°C 41% 12.3 mph N19.8 kmh N 18.3 mph29.5 kmh 28.99 in981.7 mb 0.00 in0.0 mm 0.00 in/hr0.0 mm/hr 0.00 in0.0 mm
02:20 PM 81.7°F27.6°C 55.7°F13.2°C 41% 14.1 mph N22.7 kmh N 18.3 mph29.5 kmh 28.99 in981.7 mb 0.00 in0.0 mm 0.00 in/hr0.0 mm/hr 0.00 in0.0 mm
02:19 PM 81.7°F27.6°C 55.7°F13.2°C 41% 6.5 mph N10.5 kmh N 15.0 mph24.1 kmh 28.99 in981.7 mb 0.00 in0.0 mm 0.00 in/hr0.0 mm/hr 0.00 in0.0 mm
02:18 PM 81.7°F27.6°C 55.7°F13.2°C 41% 10.1 mph N16.3 kmh N 15.0 mph24.1 kmh 28.99 in981.7 mb 0.00 in0.0 mm 0.00 in/hr0.0 mm/hr 0.00 in0.0 mm
02:17 PM 81.7°F27.6°C 55.7°F13.2°C 41% 9.6 mph NNE15.4 kmh NNE 15.0 mph24.1 kmh 28.99 in981.7 mb 0.00 in0.0 mm 0.00 in/hr0.0 mm/hr 0.00 in0.0 mm
02:16 PM 81.7°F27.6°C 55.1°F12.8°C 40% 11.2 mph NNE18.0 kmh NNE 15.0 mph24.1 kmh 28.99 in981.7 mb 0.00 in0.0 mm 0.00 in/hr0.0 mm/hr 0.00 in0.0 mm
02:15 PM 81.7°F27.6°C 55.7°F13.2°C 41% 6.3 mph NNE10.1 kmh NNE 15.0 mph24.1 kmh 28.99 in981.7 mb 0.00 in0.0 mm 0.00 in/hr0.0 mm/hr 0.00 in0.0 mm
02:14 PM 81.7°F27.6°C 55.7°F13.2°C 41% 10.7 mph NNE17.2 kmh NNE 15.0 mph24.1 kmh 28.99 in981.7 mb 0.00 in0.0 mm 0.00 in/hr0.0 mm/hr 0.00 in0.0 mm
02:13 PM 81.7°F27.6°C 55.7°F13.2°C 41% 4.7 mph NNE7.6 kmh NNE 15.0 mph24.1 kmh 28.99 in981.7 mb 0.00 in0.0 mm 0.00 in/hr0.0 mm/hr 0.00 in0.0 mm
02:12 PM 81.7°F27.6°C 55.7°F13.2°C 41% 5.4 mph NNE8.7 kmh NNE 15.0 mph24.1 kmh 28.99 in981.7 mb 0.00 in0.0 mm 0.00 in/hr0.0 mm/hr 0.00 in0.0 mm
02:11 PM 81.7°F27.6°C 55.7°F13.2°C 41% 6.3 mph NNE10.1 kmh NNE 15.0 mph24.1 kmh 28.99 in981.7 mb 0.00 in0.0 mm 0.00 in/hr0.0 mm/hr 0.00 in0.0 mm
02:10 PM 81.7°F27.6°C 56.3°F13.5°C 42% 12.5 mph NNE20.1 kmh NNE 14.5 mph23.3 kmh 28.99 in981.7 mb 0.00 in0.0 mm 0.00 in/hr0.0 mm/hr 0.00 in0.0 mm
02:09 PM 81.7°F27.6°C 55.7°F13.2°C 41% 6.3 mph NNE10.1 kmh NNE 15.2 mph24.5 kmh 29.00 in982.1 mb 0.00 in0.0 mm 0.00 in/hr0.0 mm/hr 0.00 in0.0 mm
02:08 PM 81.7°F27.6°C 55.7°F13.2°C 41% 5.1 mph NNE8.2 kmh NNE 17.2 mph27.7 kmh 28.99 in981.7 mb 0.00 in0.0 mm 0.00 in/hr0.0 mm/hr 0.00 in0.0 mm
02:07 PM 81.5°F27.5°C 55.6°F13.1°C 41% 12.3 mph NNE19.8 kmh NNE 17.2 mph27.7 kmh 28.99 in981.7 mb 0.00 in0.0 mm 0.00 in/hr0.0 mm/hr 0.00 in0.0 mm
02:06 PM 81.5°F27.5°C 55.6°F13.1°C 41% 11.9 mph NNE19.2 kmh NNE 17.2 mph27.7 kmh 29.00 in982.1 mb 0.00 in0.0 mm 0.00 in/hr0.0 mm/hr 0.00 in0.0 mm
02:05 PM 81.5°F27.5°C 55.6°F13.1°C 41% 11.2 mph NNE18.0 kmh NNE 17.2 mph27.7 kmh 28.99 in981.7 mb 0.00 in0.0 mm 0.00 in/hr0.0 mm/hr 0.00 in0.0 mm
02:04 PM 81.5°F27.5°C 55.6°F13.1°C 41% 14.1 mph NNE22.7 kmh NNE 17.2 mph27.7 kmh 29.00 in982.1 mb 0.00 in0.0 mm 0.00 in/hr0.0 mm/hr 0.00 in0.0 mm
02:03 PM 81.5°F27.5°C 55.6°F13.1°C 41% 11.6 mph NNE18.7 kmh NNE 17.2 mph27.7 kmh 29.00 in982.1 mb 0.00 in0.0 mm 0.00 in/hr0.0 mm/hr 0.00 in0.0 mm
02:02 PM 81.5°F27.5°C 55.6°F13.1°C 41% 12.3 mph NNE19.8 kmh NNE 17.2 mph27.7 kmh 29.00 in982.1 mb 0.00 in0.0 mm 0.00 in/hr0.0 mm/hr 0.00 in0.0 mm
02:01 PM 81.5°F27.5°C 55.6°F13.1°C 41% 6.3 mph NNE10.1 kmh NNE 17.4 mph28.0 kmh 29.00 in982.1 mb 0.00 in0.0 mm 0.00 in/hr0.0 mm/hr 0.00 in0.0 mm
02:00 PM 81.5°F27.5°C 55.6°F13.1°C 41% 5.4 mph NNE8.7 kmh NNE 17.4 mph28.0 kmh 29.00 in982.1 mb 0.00 in0.0 mm 0.00 in/hr0.0 mm/hr 0.00 in0.0 mm
01:59 PM 81.3°F27.4°C 55.4°F13.0°C 41% 10.7 mph NNE17.2 kmh NNE 17.4 mph28.0 kmh 29.00 in982.1 mb 0.00 in0.0 mm 0.00 in/hr0.0 mm/hr 0.00 in0.0 mm
01:58 PM 81.3°F27.4°C 56.0°F13.3°C 42% 13.4 mph NNE21.6 kmh NNE 17.4 mph28.0 kmh 29.00 in982.1 mb 0.00 in0.0 mm 0.00 in/hr0.0 mm/hr 0.00 in0.0 mm
01:57 PM 81.3°F27.4°C 56.0°F13.3°C 42% 3.4 mph NNE5.5 kmh NNE 17.4 mph28.0 kmh 29.00 in982.1 mb 0.00 in0.0 mm 0.00 in/hr0.0 mm/hr 0.00 in0.0 mm
01:56 PM 81.3°F27.4°C 56.0°F13.3°C 42% 6.3 mph NNE10.1 kmh NNE 17.4 mph28.0 kmh 29.00 in982.1 mb 0.00 in0.0 mm 0.00 in/hr0.0 mm/hr 0.00 in0.0 mm
01:55 PM 81.3°F27.4°C 56.0°F13.3°C 42% 6.3 mph NNE10.1 kmh NNE 17.4 mph28.0 kmh 29.00 in982.1 mb 0.00 in0.0 mm 0.00 in/hr0.0 mm/hr 0.00 in0.0 mm
01:54 PM 81.3°F27.4°C 56.0°F13.3°C 42% 8.9 mph N14.3 kmh N 17.4 mph28.0 kmh 29.00 in982.1 mb 0.00 in0.0 mm 0.00 in/hr0.0 mm/hr 0.00 in0.0 mm
01:53 PM 81.3°F27.4°C 55.4°F13.0°C 41% 11.2 mph N18.0 kmh N 17.4 mph28.0 kmh 29.00 in982.1 mb 0.00 in0.0 mm 0.00 in/hr0.0 mm/hr 0.00 in0.0 mm
01:52 PM 81.3°F27.4°C 55.4°F13.0°C 41% 13.9 mph N22.4 kmh N 17.4 mph28.0 kmh 29.00 in982.1 mb 0.00 in0.0 mm 0.00 in/hr0.0 mm/hr 0.00 in0.0 mm
01:51 PM 81.3°F27.4°C 55.4°F13.0°C 41% 15.4 mph N24.8 kmh N 16.8 mph27.0 kmh 29.00 in982.1 mb 0.00 in0.0 mm 0.00 in/hr0.0 mm/hr 0.00 in0.0 mm
01:50 PM 81.3°F27.4°C 55.4°F13.0°C 41% 7.2 mph N11.6 kmh N 16.8 mph27.0 kmh 29.00 in982.1 mb 0.00 in0.0 mm 0.00 in/hr0.0 mm/hr 0.00 in0.0 mm
01:49 PM 81.3°F27.4°C 55.4°F13.0°C 41% 16.6 mph N26.7 kmh N 16.6 mph26.7 kmh 29.00 in982.1 mb 0.00 in0.0 mm 0.00 in/hr0.0 mm/hr 0.00 in0.0 mm
01:48 PM 81.1°F27.3°C 55.2°F12.9°C 41% 8.9 mph NNE14.3 kmh NNE 16.3 mph26.2 kmh 29.00 in982.1 mb 0.00 in0.0 mm 0.00 in/hr0.0 mm/hr 0.00 in0.0 mm
01:47 PM 81.1°F27.3°C 55.2°F12.9°C 41% 5.8 mph NNE9.3 kmh NNE 16.3 mph26.2 kmh 29.00 in982.1 mb 0.00 in0.0 mm 0.00 in/hr0.0 mm/hr 0.00 in0.0 mm
01:46 PM 81.1°F27.3°C 55.2°F12.9°C 41% 10.5 mph NNE16.9 kmh NNE 16.3 mph26.2 kmh 29.00 in982.1 mb 0.00 in0.0 mm 0.00 in/hr0.0 mm/hr 0.00 in0.0 mm
01:45 PM 81.1°F27.3°C 55.2°F12.9°C 41% 12.8 mph NNE20.6 kmh NNE 15.9 mph25.6 kmh 29.00 in982.1 mb 0.00 in0.0 mm 0.00 in/hr0.0 mm/hr 0.00 in0.0 mm
01:44 PM 81.1°F27.3°C 55.2°F12.9°C 41% 11.4 mph NNE18.3 kmh NNE 15.9 mph25.6 kmh 29.00 in982.1 mb 0.00 in0.0 mm 0.00 in/hr0.0 mm/hr 0.00 in0.0 mm
01:43 PM 81.1°F27.3°C 55.8°F13.2°C 42% 14.1 mph NNE22.7 kmh NNE 15.9 mph25.6 kmh 29.00 in982.1 mb 0.00 in0.0 mm 0.00 in/hr0.0 mm/hr 0.00 in0.0 mm
01:42 PM 81.1°F27.3°C 55.8°F13.2°C 42% 15.4 mph NNE24.8 kmh NNE 15.7 mph25.3 kmh 29.00 in982.1 mb 0.00 in0.0 mm 0.00 in/hr0.0 mm/hr 0.00 in0.0 mm
01:41 PM 81.1°F27.3°C 55.8°F13.2°C 42% 6.7 mph NNE10.8 kmh NNE 15.7 mph25.3 kmh 29.00 in982.1 mb 0.00 in0.0 mm 0.00 in/hr0.0 mm/hr 0.00 in0.0 mm
01:40 PM 81.1°F27.3°C 55.8°F13.2°C 42% 7.4 mph NNE11.9 kmh NNE 15.7 mph25.3 kmh 29.00 in982.1 mb 0.00 in0.0 mm 0.00 in/hr0.0 mm/hr 0.00 in0.0 mm
01:39 PM 81.1°F27.3°C 55.7°F13.2°C 42% 5.4 mph NNE8.7 kmh NNE 15.7 mph25.3 kmh 29.00 in982.1 mb 0.00 in0.0 mm 0.00 in/hr0.0 mm/hr 0.00 in0.0 mm
01:38 PM 81.0°F27.2°C 55.7°F13.2°C 42% 11.9 mph NNE19.2 kmh NNE 15.7 mph25.3 kmh 29.00 in982.1 mb 0.00 in0.0 mm 0.00 in/hr0.0 mm/hr 0.00 in0.0 mm
01:37 PM 81.0°F27.2°C 55.1°F12.8°C 41% 12.3 mph NNE19.8 kmh NNE 15.7 mph25.3 kmh 29.00 in982.1 mb 0.00 in0.0 mm 0.00 in/hr0.0 mm/hr 0.00 in0.0 mm
01:36 PM 81.0°F27.2°C 55.7°F13.2°C 42% 12.5 mph NNE20.1 kmh NNE 15.0 mph24.1 kmh 29.00 in982.1 mb 0.00 in0.0 mm 0.00 in/hr0.0 mm/hr 0.00 in0.0 mm
01:35 PM 80.8°F27.1°C 55.5°F13.1°C 42% 11.4 mph NNE18.3 kmh NNE 15.0 mph24.1 kmh 29.00 in982.1 mb 0.00 in0.0 mm 0.00 in/hr0.0 mm/hr 0.00 in0.0 mm
01:34 PM 80.8°F27.1°C 55.5°F13.1°C 42% 12.8 mph NNE20.6 kmh NNE 15.0 mph24.1 kmh 29.00 in982.1 mb 0.00 in0.0 mm 0.00 in/hr0.0 mm/hr 0.00 in0.0 mm
01:33 PM 80.8°F27.1°C 55.5°F13.1°C 42% 1.6 mph NNE2.6 kmh NNE 14.5 mph23.3 kmh 29.00 in982.1 mb 0.00 in0.0 mm 0.00 in/hr0.0 mm/hr 0.00 in0.0 mm
01:32 PM 80.8°F27.1°C 55.5°F13.1°C 42% 4.9 mph NNE7.9 kmh NNE 14.5 mph23.3 kmh 29.00 in982.1 mb 0.00 in0.0 mm 0.00 in/hr0.0 mm/hr 0.00 in0.0 mm
01:31 PM 80.8°F27.1°C 55.5°F13.1°C 42% 9.2 mph NNE14.8 kmh NNE 15.0 mph24.1 kmh 29.01 in982.4 mb 0.00 in0.0 mm 0.00 in/hr0.0 mm/hr 0.00 in0.0 mm
01:30 PM 80.8°F27.1°C 55.5°F13.1°C 42% 7.2 mph NNE11.6 kmh NNE 15.0 mph24.1 kmh 29.00 in982.1 mb 0.00 in0.0 mm 0.00 in/hr0.0 mm/hr 0.00 in0.0 mm
01:29 PM 80.8°F27.1°C 55.5°F13.1°C 42% 6.0 mph NNE9.7 kmh NNE 15.0 mph24.1 kmh 29.01 in982.4 mb 0.00 in0.0 mm 0.00 in/hr0.0 mm/hr 0.00 in0.0 mm
01:28 PM 80.8°F27.1°C 55.5°F13.1°C 42% 7.4 mph NNE11.9 kmh NNE 15.0 mph24.1 kmh 29.01 in982.4 mb 0.00 in0.0 mm 0.00 in/hr0.0 mm/hr 0.00 in0.0 mm
01:27 PM 80.6°F27.0°C 55.4°F13.0°C 42% 11.4 mph NNE18.3 kmh NNE 15.4 mph24.8 kmh 29.01 in982.4 mb 0.00 in0.0 mm 0.00 in/hr0.0 mm/hr 0.00 in0.0 mm
01:26 PM 80.8°F27.1°C 55.5°F13.1°C 42% 11.9 mph NE19.2 kmh NE 15.4 mph24.8 kmh 29.01 in982.4 mb 0.00 in0.0 mm 0.00 in/hr0.0 mm/hr 0.00 in0.0 mm
01:25 PM 80.6°F27.0°C 55.4°F13.0°C 42% 14.5 mph NNE23.3 kmh NNE 15.4 mph24.8 kmh 29.01 in982.4 mb 0.00 in0.0 mm 0.00 in/hr0.0 mm/hr 0.00 in0.0 mm
01:24 PM 80.6°F27.0°C 55.4°F13.0°C 42% 13.4 mph NNE21.6 kmh NNE 15.4 mph24.8 kmh 29.00 in982.1 mb 0.00 in0.0 mm 0.00 in/hr0.0 mm/hr 0.00 in0.0 mm
01:23 PM 80.6°F27.0°C 55.4°F13.0°C 42% 13.9 mph NNE22.4 kmh NNE 15.4 mph24.8 kmh 29.00 in982.1 mb 0.00 in0.0 mm 0.00 in/hr0.0 mm/hr 0.00 in0.0 mm
01:22 PM 80.4°F26.9°C 55.8°F13.2°C 43% 12.1 mph NNE19.5 kmh NNE 15.4 mph24.8 kmh 29.01 in982.4 mb 0.00 in0.0 mm 0.00 in/hr0.0 mm/hr 0.00 in0.0 mm
01:21 PM 80.4°F26.9°C 55.8°F13.2°C 43% 10.5 mph NE16.9 kmh NE 15.4 mph24.8 kmh 29.00 in982.1 mb 0.00 in0.0 mm 0.00 in/hr0.0 mm/hr 0.00 in0.0 mm
01:20 PM 80.4°F26.9°C 55.8°F13.2°C 43% 8.5 mph NE13.7 kmh NE 15.4 mph24.8 kmh 29.01 in982.4 mb 0.00 in0.0 mm 0.00 in/hr0.0 mm/hr 0.00 in0.0 mm
01:19 PM 80.4°F26.9°C 55.8°F13.2°C 43% 11.9 mph NE19.2 kmh NE 15.4 mph24.8 kmh 29.01 in982.4 mb 0.00 in0.0 mm 0.00 in/hr0.0 mm/hr 0.00 in0.0 mm
01:18 PM 80.4°F26.9°C 55.2°F12.9°C 42% 6.3 mph NNE10.1 kmh NNE 15.4 mph24.8 kmh 29.01 in982.4 mb 0.00 in0.0 mm 0.00 in/hr0.0 mm/hr 0.00 in0.0 mm
01:17 PM 80.4°F26.9°C 55.2°F12.9°C 42% 6.0 mph NNE9.7 kmh NNE 14.3 mph23.0 kmh 29.01 in982.4 mb 0.00 in0.0 mm 0.00 in/hr0.0 mm/hr 0.00 in0.0 mm
01:16 PM 80.4°F26.9°C 55.2°F12.9°C 42% 8.3 mph NNE13.4 kmh NNE 14.3 mph23.0 kmh 29.01 in982.4 mb 0.00 in0.0 mm 0.00 in/hr0.0 mm/hr 0.00 in0.0 mm
01:15 PM 80.4°F26.9°C 55.2°F12.9°C 42% 6.5 mph NNE10.5 kmh NNE 14.3 mph23.0 kmh 29.01 in982.4 mb 0.00 in0.0 mm 0.00 in/hr0.0 mm/hr 0.00 in0.0 mm
01:14 PM 80.4°F26.9°C 55.8°F13.2°C 43% 10.3 mph NNE16.6 kmh NNE 14.3 mph23.0 kmh 29.01 in982.4 mb 0.00 in0.0 mm 0.00 in/hr0.0 mm/hr 0.00 in0.0 mm
01:13 PM 80.2°F26.8°C 55.7°F13.2°C 42% 7.4 mph NNE11.9 kmh NNE 14.3 mph23.0 kmh 29.01 in982.4 mb 0.00 in0.0 mm 0.00 in/hr0.0 mm/hr 0.00 in0.0 mm
01:12 PM 80.2°F26.8°C 55.0°F12.8°C 42% 3.4 mph NNE5.5 kmh NNE 14.3 mph23.0 kmh 29.01 in982.4 mb 0.00 in0.0 mm 0.00 in/hr0.0 mm/hr 0.00 in0.0 mm
01:11 PM 80.2°F26.8°C 55.7°F13.2°C 43% 6.0 mph NNE9.7 kmh NNE 14.3 mph23.0 kmh 29.01 in982.4 mb 0.00 in0.0 mm 0.00 in/hr0.0 mm/hr 0.00 in0.0 mm
01:10 PM 80.2°F26.8°C 55.0°F12.8°C 42% 8.5 mph NNE13.7 kmh NNE 16.8 mph27.0 kmh 29.01 in982.4 mb 0.00 in0.0 mm 0.00 in/hr0.0 mm/hr 0.00 in0.0 mm
01:09 PM 80.2°F26.8°C 55.7°F13.2°C 43% 11.9 mph NNE19.2 kmh NNE 16.8 mph27.0 kmh 29.01 in982.4 mb 0.00 in0.0 mm 0.00 in/hr0.0 mm/hr 0.00 in0.0 mm
01:08 PM 80.2°F26.8°C 55.7°F13.2°C 43% 7.6 mph NNE12.2 kmh NNE 16.8 mph27.0 kmh 29.01 in982.4 mb 0.00 in0.0 mm 0.00 in/hr0.0 mm/hr 0.00 in0.0 mm
01:07 PM 80.2°F26.8°C 55.7°F13.2°C 43% 5.8 mph NNE9.3 kmh NNE 16.8 mph27.0 kmh 29.01 in982.4 mb 0.00 in0.0 mm 0.00 in/hr0.0 mm/hr 0.00 in0.0 mm
01:06 PM 80.2°F26.8°C 55.7°F13.2°C 43% 4.3 mph NNE6.9 kmh NNE 16.8 mph27.0 kmh 29.01 in982.4 mb 0.00 in0.0 mm 0.00 in/hr0.0 mm/hr 0.00 in0.0 mm
01:05 PM 80.2°F26.8°C 55.7°F13.2°C 43% 8.5 mph NNE13.7 kmh NNE 16.8 mph27.0 kmh 29.02 in982.7 mb 0.00 in0.0 mm 0.00 in/hr0.0 mm/hr 0.00 in0.0 mm
01:04 PM 80.2°F26.8°C 55.7°F13.2°C 43% 7.2 mph NNE11.6 kmh NNE 16.8 mph27.0 kmh 29.01 in982.4 mb 0.00 in0.0 mm 0.00 in/hr0.0 mm/hr 0.00 in0.0 mm
01:03 PM 80.2°F26.8°C 55.7°F13.2°C 43% 6.9 mph NNE11.1 kmh NNE 16.8 mph27.0 kmh 29.01 in982.4 mb 0.00 in0.0 mm 0.00 in/hr0.0 mm/hr 0.00 in0.0 mm
01:02 PM 80.2°F26.8°C 55.0°F12.8°C 42% 9.8 mph NNE15.8 kmh NNE 16.8 mph27.0 kmh 29.01 in982.4 mb 0.00 in0.0 mm 0.00 in/hr0.0 mm/hr 0.00 in0.0 mm
01:01 PM 80.2°F26.8°C 55.0°F12.8°C 42% 11.4 mph NNE18.3 kmh NNE 16.8 mph27.0 kmh 29.01 in982.4 mb 0.00 in0.0 mm 0.00 in/hr0.0 mm/hr 0.00 in0.0 mm
01:00 PM 80.2°F26.8°C 55.0°F12.8°C 42% 9.4 mph NNE15.1 kmh NNE 16.3 mph26.2 kmh 29.01 in982.4 mb 0.00 in0.0 mm 0.00 in/hr0.0 mm/hr 0.00 in0.0 mm
12:59 PM 80.2°F26.8°C 55.7°F13.2°C 43% 11.9 mph NNE19.2 kmh NNE 16.3 mph26.2 kmh 29.01 in982.4 mb 0.00 in0.0 mm 0.00 in/hr0.0 mm/hr 0.00 in0.0 mm
12:58 PM 80.2°F26.8°C 55.7°F13.2°C 43% 12.8 mph NNE20.6 kmh NNE 16.3 mph26.2 kmh 29.01 in982.4 mb 0.00 in0.0 mm 0.00 in/hr0.0 mm/hr 0.00 in0.0 mm
12:57 PM 80.2°F26.8°C 55.0°F12.8°C 42% 12.5 mph NE20.1 kmh NE 16.3 mph26.2 kmh 29.01 in982.4 mb 0.00 in0.0 mm 0.00 in/hr0.0 mm/hr 0.00 in0.0 mm
12:56 PM 80.2°F26.8°C 55.0°F12.8°C 42% 11.0 mph NNE17.7 kmh NNE 16.3 mph26.2 kmh 29.01 in982.4 mb 0.00 in0.0 mm 0.00 in/hr0.0 mm/hr 0.00 in0.0 mm
12:55 PM 80.2°F26.8°C 55.7°F13.2°C 43% 13.6 mph NNE21.9 kmh NNE 15.2 mph24.5 kmh 29.01 in982.4 mb 0.00 in0.0 mm 0.00 in/hr0.0 mm/hr 0.00 in0.0 mm
12:54 PM 80.2°F26.8°C 55.7°F13.2°C 43% 10.1 mph NNE16.3 kmh NNE 15.9 mph25.6 kmh 29.01 in982.4 mb 0.00 in0.0 mm 0.00 in/hr0.0 mm/hr 0.00 in0.0 mm
12:53 PM 80.2°F26.8°C 55.7°F13.2°C 43% 9.6 mph NNE15.4 kmh NNE 16.1 mph25.9 kmh 29.01 in982.4 mb 0.00 in0.0 mm 0.00 in/hr0.0 mm/hr 0.00 in0.0 mm
12:52 PM 80.1°F26.7°C 55.5°F13.1°C 43% 11.0 mph NNE17.7 kmh NNE 16.1 mph25.9 kmh 29.02 in982.7 mb 0.00 in0.0 mm 0.00 in/hr0.0 mm/hr 0.00 in0.0 mm
12:51 PM 80.1°F26.7°C 55.5°F13.1°C 43% 10.1 mph NNE16.3 kmh NNE 16.1 mph25.9 kmh 29.01 in982.4 mb 0.00 in0.0 mm 0.00 in/hr0.0 mm/hr 0.00 in0.0 mm
12:50 PM 80.1°F26.7°C 55.5°F13.1°C 43% 7.6 mph NNE12.2 kmh NNE 16.1 mph25.9 kmh 29.01 in982.4 mb 0.00 in0.0 mm 0.00 in/hr0.0 mm/hr 0.00 in0.0 mm
12:49 PM 79.9°F26.6°C 55.3°F12.9°C 43% 15.2 mph NNE24.5 kmh NNE 16.1 mph25.9 kmh 29.02 in982.7 mb 0.00 in0.0 mm 0.00 in/hr0.0 mm/hr 0.00 in0.0 mm
12:48 PM 79.9°F26.6°C 55.3°F12.9°C 43% 5.8 mph NNE9.3 kmh NNE 16.1 mph25.9 kmh 29.02 in982.7 mb 0.00 in0.0 mm 0.00 in/hr0.0 mm/hr 0.00 in0.0 mm
12:47 PM 79.9°F26.6°C 54.7°F12.6°C 42% 10.5 mph NNE16.9 kmh NNE 16.1 mph25.9 kmh 29.02 in982.7 mb 0.00 in0.0 mm 0.00 in/hr0.0 mm/hr 0.00 in0.0 mm
12:46 PM 79.9°F26.6°C 55.3°F12.9°C 43% 10.3 mph NNE16.6 kmh NNE 16.1 mph25.9 kmh 29.02 in982.7 mb 0.00 in0.0 mm 0.00 in/hr0.0 mm/hr 0.00 in0.0 mm
12:45 PM 79.9°F26.6°C 55.3°F12.9°C 43% 10.3 mph NNE16.6 kmh NNE 16.1 mph25.9 kmh 29.02 in982.7 mb 0.00 in0.0 mm 0.00 in/hr0.0 mm/hr 0.00 in0.0 mm
12:44 PM 79.9°F26.6°C 55.3°F12.9°C 43% 12.8 mph NNE20.6 kmh NNE 16.1 mph25.9 kmh 29.02 in982.7 mb 0.00 in0.0 mm 0.00 in/hr0.0 mm/hr 0.00 in0.0 mm
12:43 PM 79.9°F26.6°C 55.3°F12.9°C 43% 7.8 mph NNE12.6 kmh NNE 12.8 mph20.6 kmh 29.02 in982.7 mb 0.00 in0.0 mm 0.00 in/hr0.0 mm/hr 0.00 in0.0 mm
12:42 PM 79.7°F26.5°C 55.2°F12.9°C 43% 9.8 mph NNE15.8 kmh NNE 13.0 mph20.9 kmh 29.02 in982.7 mb 0.00 in0.0 mm 0.00 in/hr0.0 mm/hr 0.00 in0.0 mm
12:41 PM 79.7°F26.5°C 55.2°F12.9°C 43% 4.9 mph NNE7.9 kmh NNE 13.0 mph20.9 kmh 29.02 in982.7 mb 0.00 in0.0 mm 0.00 in/hr0.0 mm/hr 0.00 in0.0 mm
12:40 PM 79.7°F26.5°C 55.2°F12.9°C 43% 7.2 mph NNE11.6 kmh NNE 13.0 mph20.9 kmh 29.02 in982.7 mb 0.00 in0.0 mm 0.00 in/hr0.0 mm/hr 0.00 in0.0 mm
12:39 PM 79.7°F26.5°C 55.2°F12.9°C 43% 5.8 mph NNE9.3 kmh NNE 13.4 mph21.6 kmh 29.02 in982.7 mb 0.00 in0.0 mm 0.00 in/hr0.0 mm/hr 0.00 in0.0 mm
12:38 PM 79.7°F26.5°C 55.2°F12.9°C 43% 9.2 mph NNE14.8 kmh NNE 13.4 mph21.6 kmh 29.02 in982.7 mb 0.00 in0.0 mm 0.00 in/hr0.0 mm/hr 0.00 in0.0 mm
12:37 PM 79.7°F26.5°C 54.6°F12.6°C 42% 4.7 mph NNE7.6 kmh NNE 13.4 mph21.6 kmh 29.02 in982.7 mb 0.00 in0.0 mm 0.00 in/hr0.0 mm/hr 0.00 in0.0 mm
12:36 PM 79.5°F26.4°C 54.4°F12.4°C 42% 8.1 mph NNE13.0 kmh NNE 13.4 mph21.6 kmh 29.02 in982.7 mb 0.00 in0.0 mm 0.00 in/hr0.0 mm/hr 0.00 in0.0 mm
12:35 PM 79.5°F26.4°C 55.0°F12.8°C 43% 9.8 mph NNE15.8 kmh NNE 13.4 mph21.6 kmh 29.02 in982.7 mb 0.00 in0.0 mm 0.00 in/hr0.0 mm/hr 0.00 in0.0 mm
12:34 PM 79.5°F26.4°C 54.4°F12.4°C 42% 8.9 mph NNE14.3 kmh NNE 13.4 mph21.6 kmh 29.02 in982.7 mb 0.00 in0.0 mm 0.00 in/hr0.0 mm/hr 0.00 in0.0 mm
12:33 PM 79.5°F26.4°C 55.0°F12.8°C 43% 11.0 mph NNE17.7 kmh NNE 16.3 mph26.2 kmh 29.02 in982.7 mb 0.00 in0.0 mm 0.00 in/hr0.0 mm/hr 0.00 in0.0 mm
12:32 PM 79.5°F26.4°C 55.0°F12.8°C 43% 6.3 mph NNE10.1 kmh NNE 16.3 mph26.2 kmh 29.02 in982.7 mb 0.00 in0.0 mm 0.00 in/hr0.0 mm/hr 0.00 in0.0 mm
12:31 PM 79.5°F26.4°C 55.0°F12.8°C 43% 11.0 mph NNE17.7 kmh NNE 16.3 mph26.2 kmh 29.02 in982.7 mb 0.00 in0.0 mm 0.00 in/hr0.0 mm/hr 0.00 in0.0 mm
12:30 PM 79.5°F26.4°C 55.0°F12.8°C 43% 7.8 mph NNE12.6 kmh NNE 16.3 mph26.2 kmh 29.02 in982.7 mb 0.00 in0.0 mm 0.00 in/hr0.0 mm/hr 0.00 in0.0 mm
12:29 PM 79.5°F26.4°C 55.0°F12.8°C 43% 3.6 mph NNE5.8 kmh NNE 16.3 mph26.2 kmh 29.02 in982.7 mb 0.00 in0.0 mm 0.00 in/hr0.0 mm/hr 0.00 in0.0 mm
12:28 PM 79.5°F26.4°C 55.0°F12.8°C 43% 9.4 mph NNE15.1 kmh NNE 16.3 mph26.2 kmh 29.02 in982.7 mb 0.00 in0.0 mm 0.00 in/hr0.0 mm/hr 0.00 in0.0 mm
12:27 PM 79.5°F26.4°C 55.0°F12.8°C 43% 9.4 mph NNE15.1 kmh NNE 16.3 mph26.2 kmh 29.02 in982.7 mb 0.00 in0.0 mm 0.00 in/hr0.0 mm/hr 0.00 in0.0 mm
12:26 PM 79.5°F26.4°C 55.0°F12.8°C 43% 5.6 mph NNE9.0 kmh NNE 16.3 mph26.2 kmh 29.02 in982.7 mb 0.00 in0.0 mm 0.00 in/hr0.0 mm/hr 0.00 in0.0 mm
12:25 PM 79.5°F26.4°C 54.4°F12.4°C 42% 7.2 mph NNE11.6 kmh NNE 16.3 mph26.2 kmh 29.02 in982.7 mb 0.00 in0.0 mm 0.00 in/hr0.0 mm/hr 0.00 in0.0 mm
12:24 PM 79.5°F26.4°C 54.4°F12.4°C 42% 11.0 mph NNE17.7 kmh NNE 16.3 mph26.2 kmh 29.02 in982.7 mb 0.00 in0.0 mm 0.00 in/hr0.0 mm/hr 0.00 in0.0 mm
12:23 PM 79.5°F26.4°C 54.4°F12.4°C 42% 12.5 mph NNE20.1 kmh NNE 14.1 mph22.7 kmh 29.02 in982.7 mb 0.00 in0.0 mm 0.00 in/hr0.0 mm/hr 0.00 in0.0 mm
12:22 PM 79.5°F26.4°C 54.4°F12.4°C 42% 9.4 mph NNE15.1 kmh NNE 16.6 mph26.7 kmh 29.02 in982.7 mb 0.00 in0.0 mm 0.00 in/hr0.0 mm/hr 0.00 in0.0 mm
12:21 PM 79.5°F26.4°C 54.4°F12.4°C 42% 4.7 mph NNE7.6 kmh NNE 16.6 mph26.7 kmh 29.02 in982.7 mb 0.00 in0.0 mm 0.00 in/hr0.0 mm/hr 0.00 in0.0 mm
12:20 PM 79.5°F26.4°C 54.4°F12.4°C 42% 10.5 mph NNE16.9 kmh NNE 16.6 mph26.7 kmh 29.02 in982.7 mb 0.00 in0.0 mm 0.00 in/hr0.0 mm/hr 0.00 in0.0 mm
12:19 PM 79.7°F26.5°C 54.6°F12.6°C 42% 7.4 mph NNE11.9 kmh NNE 16.6 mph26.7 kmh 29.02 in982.7 mb 0.00 in0.0 mm 0.00 in/hr0.0 mm/hr 0.00 in0.0 mm
12:18 PM 79.7°F26.5°C 54.6°F12.6°C 42% 9.8 mph NNE15.8 kmh NNE 16.6 mph26.7 kmh 29.02 in982.7 mb 0.00 in0.0 mm 0.00 in/hr0.0 mm/hr 0.00 in0.0 mm
12:17 PM 79.7°F26.5°C 54.6°F12.6°C 42% 7.6 mph NNE12.2 kmh NNE 16.6 mph26.7 kmh 29.02 in982.7 mb 0.00 in0.0 mm 0.00 in/hr0.0 mm/hr 0.00 in0.0 mm
12:16 PM 79.7°F26.5°C 54.6°F12.6°C 42% 12.5 mph NNE20.1 kmh NNE 16.6 mph26.7 kmh 29.02 in982.7 mb 0.00 in0.0 mm 0.00 in/hr0.0 mm/hr 0.00 in0.0 mm
12:15 PM 79.7°F26.5°C 54.6°F12.6°C 42% 10.3 mph NNE16.6 kmh NNE 16.6 mph26.7 kmh 29.02 in982.7 mb 0.00 in0.0 mm 0.00 in/hr0.0 mm/hr 0.00 in0.0 mm
12:14 PM 79.7°F26.5°C 54.6°F12.6°C 42% 6.3 mph NNE10.1 kmh NNE 16.6 mph26.7 kmh 29.02 in982.7 mb 0.00 in0.0 mm 0.00 in/hr0.0 mm/hr 0.00 in0.0 mm
12:13 PM 79.9°F26.6°C 54.7°F12.6°C 42% 9.8 mph NNE15.8 kmh NNE 16.6 mph26.7 kmh 29.02 in982.7 mb 0.00 in0.0 mm 0.00 in/hr0.0 mm/hr 0.00 in0.0 mm
12:12 PM 79.9°F26.6°C 54.7°F12.6°C 42% 13.2 mph NNE21.2 kmh NNE 14.5 mph23.3 kmh 29.02 in982.7 mb 0.00 in0.0 mm 0.00 in/hr0.0 mm/hr 0.00 in0.0 mm
12:11 PM 79.9°F26.6°C 54.7°F12.6°C 42% 12.1 mph NNE19.5 kmh NNE 14.5 mph23.3 kmh 29.02 in982.7 mb 0.00 in0.0 mm 0.00 in/hr0.0 mm/hr 0.00 in0.0 mm
12:10 PM 79.9°F26.6°C 54.7°F12.6°C 42% 13.9 mph NNE22.4 kmh NNE 14.5 mph23.3 kmh 29.02 in982.7 mb 0.00 in0.0 mm 0.00 in/hr0.0 mm/hr 0.00 in0.0 mm
12:09 PM 79.9°F26.6°C 54.7°F12.6°C 42% 11.2 mph NE18.0 kmh NE 13.9 mph22.4 kmh 29.02 in982.7 mb 0.00 in0.0 mm 0.00 in/hr0.0 mm/hr 0.00 in0.0 mm
12:08 PM 79.9°F26.6°C 55.3°F12.9°C 43% 11.6 mph NE18.7 kmh NE 13.9 mph22.4 kmh 29.02 in982.7 mb 0.00 in0.0 mm 0.00 in/hr0.0 mm/hr 0.00 in0.0 mm
12:07 PM 79.9°F26.6°C 55.3°F12.9°C 43% 11.2 mph NE18.0 kmh NE 13.9 mph22.4 kmh 29.02 in982.7 mb 0.00 in0.0 mm 0.00 in/hr0.0 mm/hr 0.00 in0.0 mm
12:06 PM 79.9°F26.6°C 55.3°F12.9°C 43% 10.7 mph NE17.2 kmh NE 13.9 mph22.4 kmh 29.02 in982.7 mb 0.00 in0.0 mm 0.00 in/hr0.0 mm/hr 0.00 in0.0 mm
12:05 PM 79.9°F26.6°C 55.3°F12.9°C 43% 10.3 mph NNE16.6 kmh NNE 10.5 mph16.9 kmh 29.02 in982.7 mb 0.00 in0.0 mm 0.00 in/hr0.0 mm/hr 0.00 in0.0 mm
12:04 PM 79.9°F26.6°C 55.3°F12.9°C 43% 3.6 mph NNE5.8 kmh NNE 10.5 mph16.9 kmh 29.02 in982.7 mb 0.00 in0.0 mm 0.00 in/hr0.0 mm/hr 0.00 in0.0 mm
12:03 PM 79.9°F26.6°C 55.3°F12.9°C 43% 3.8 mph NNE6.1 kmh NNE 10.5 mph16.9 kmh 29.02 in982.7 mb 0.00 in0.0 mm 0.00 in/hr0.0 mm/hr 0.00 in0.0 mm
12:02 PM 79.9°F26.6°C 55.3°F12.9°C 43% 9.4 mph NNE15.1 kmh NNE 10.5 mph16.9 kmh 29.02 in982.7 mb 0.00 in0.0 mm 0.00 in/hr0.0 mm/hr 0.00 in0.0 mm
12:01 PM 79.9°F26.6°C 55.3°F12.9°C 43% 5.1 mph NNE8.2 kmh NNE 10.1 mph16.3 kmh 29.02 in982.7 mb 0.00 in0.0 mm 0.00 in/hr0.0 mm/hr 0.00 in0.0 mm
12:00 PM 79.9°F26.6°C 55.3°F12.9°C 43% 9.8 mph NNE15.8 kmh NNE 9.8 mph15.8 kmh 29.02 in982.7 mb 0.00 in0.0 mm 0.00 in/hr0.0 mm/hr 0.00 in0.0 mm
11:59 AM 79.7°F26.5°C 55.2°F12.9°C 43% 6.3 mph NNE10.1 kmh NNE 9.6 mph15.4 kmh 29.02 in982.7 mb 0.00 in0.0 mm 0.00 in/hr0.0 mm/hr 0.00 in0.0 mm
11:58 AM 79.7°F26.5°C 55.8°F13.2°C 44% 7.4 mph NNE11.9 kmh NNE 9.6 mph15.4 kmh 29.02 in982.7 mb 0.00 in0.0 mm 0.00 in/hr0.0 mm/hr 0.00 in0.0 mm
11:57 AM 79.7°F26.5°C 55.8°F13.2°C 44% 6.7 mph NNE10.8 kmh NNE 9.6 mph15.4 kmh 29.02 in982.7 mb 0.00 in0.0 mm 0.00 in/hr0.0 mm/hr 0.00 in0.0 mm
11:56 AM 79.7°F26.5°C 55.8°F13.2°C 44% 4.7 mph NNE7.6 kmh NNE 9.6 mph15.4 kmh 29.02 in982.7 mb 0.00 in0.0 mm 0.00 in/hr0.0 mm/hr 0.00 in0.0 mm
11:55 AM 79.5°F26.4°C 55.6°F13.1°C 44% 5.1 mph NNE8.2 kmh NNE 9.6 mph15.4 kmh 29.03 in983.1 mb 0.00 in0.0 mm 0.00 in/hr0.0 mm/hr 0.00 in0.0 mm
11:54 AM 79.5°F26.4°C 55.0°F12.8°C 43% 8.7 mph NNE14.0 kmh NNE 9.6 mph15.4 kmh 29.03 in983.1 mb 0.00 in0.0 mm 0.00 in/hr0.0 mm/hr 0.00 in0.0 mm
11:53 AM 79.5°F26.4°C 55.0°F12.8°C 43% 5.8 mph NNE9.3 kmh NNE 9.6 mph15.4 kmh 29.02 in982.7 mb 0.00 in0.0 mm 0.00 in/hr0.0 mm/hr 0.00 in0.0 mm
11:52 AM 79.5°F26.4°C 55.0°F12.8°C 43% 4.0 mph NNE6.4 kmh NNE 9.6 mph15.4 kmh 29.02 in982.7 mb 0.00 in0.0 mm 0.00 in/hr0.0 mm/hr 0.00 in0.0 mm
11:51 AM 79.5°F26.4°C 55.6°F13.1°C 44% 5.8 mph NNE9.3 kmh NNE 9.6 mph15.4 kmh 29.02 in982.7 mb 0.00 in0.0 mm 0.00 in/hr0.0 mm/hr 0.00 in0.0 mm
11:50 AM 79.3°F26.3°C 55.5°F13.1°C 44% 7.4 mph NNE11.9 kmh NNE 9.6 mph15.4 kmh 29.02 in982.7 mb 0.00 in0.0 mm 0.00 in/hr0.0 mm/hr 0.00 in0.0 mm
11:49 AM 79.3°F26.3°C 55.5°F13.1°C 44% 4.3 mph NNE6.9 kmh NNE 11.0 mph17.7 kmh 29.03 in983.1 mb 0.00 in0.0 mm 0.00 in/hr0.0 mm/hr 0.00 in0.0 mm
11:48 AM 79.3°F26.3°C 55.5°F13.1°C 44% 3.6 mph N5.8 kmh N 11.0 mph17.7 kmh 29.02 in982.7 mb 0.00 in0.0 mm 0.00 in/hr0.0 mm/hr 0.00 in0.0 mm
11:47 AM 79.3°F26.3°C 55.5°F13.1°C 44% 3.8 mph N6.1 kmh N 11.0 mph17.7 kmh 29.02 in982.7 mb 0.00 in0.0 mm 0.00 in/hr0.0 mm/hr 0.00 in0.0 mm
11:46 AM 79.3°F26.3°C 54.8°F12.7°C 43% 4.3 mph N6.9 kmh N 11.0 mph17.7 kmh 29.02 in982.7 mb 0.00 in0.0 mm 0.00 in/hr0.0 mm/hr 0.00 in0.0 mm
11:45 AM 79.2°F26.2°C 55.3°F12.9°C 44% 3.4 mph N5.5 kmh N 11.0 mph17.7 kmh 29.02 in982.7 mb 0.00 in0.0 mm 0.00 in/hr0.0 mm/hr 0.00 in0.0 mm
11:44 AM 79.2°F26.2°C 54.7°F12.6°C 43% 7.4 mph N11.9 kmh N 11.0 mph17.7 kmh 29.02 in982.7 mb 0.00 in0.0 mm 0.00 in/hr0.0 mm/hr 0.00 in0.0 mm
11:43 AM 79.2°F26.2°C 54.7°F12.6°C 43% 4.0 mph N6.4 kmh N 11.0 mph17.7 kmh 29.02 in982.7 mb 0.00 in0.0 mm 0.00 in/hr0.0 mm/hr 0.00 in0.0 mm
11:42 AM 79.0°F26.1°C 54.5°F12.5°C 43% 9.2 mph N14.8 kmh N 11.0 mph17.7 kmh 29.02 in982.7 mb 0.00 in0.0 mm 0.00 in/hr0.0 mm/hr 0.00 in0.0 mm
11:41 AM 79.0°F26.1°C 54.5°F12.5°C 43% 7.2 mph N11.6 kmh N 11.0 mph17.7 kmh 29.02 in982.7 mb 0.00 in0.0 mm 0.00 in/hr0.0 mm/hr 0.00 in0.0 mm
11:40 AM 79.0°F26.1°C 54.5°F12.5°C 43% 6.0 mph N9.7 kmh N 11.0 mph17.7 kmh 29.02 in982.7 mb 0.00 in0.0 mm 0.00 in/hr0.0 mm/hr 0.00 in0.0 mm
11:39 AM 79.0°F26.1°C 54.5°F12.5°C 43% 8.5 mph N13.7 kmh N 10.5 mph16.9 kmh 29.02 in982.7 mb 0.00 in0.0 mm 0.00 in/hr0.0 mm/hr 0.00 in0.0 mm
11:38 AM 78.8°F26.0°C 54.4°F12.4°C 43% 7.6 mph N12.2 kmh N 10.5 mph16.9 kmh 29.02 in982.7 mb 0.00 in0.0 mm 0.00 in/hr0.0 mm/hr 0.00 in0.0 mm
11:37 AM 78.6°F25.9°C 54.2°F12.3°C 43% 8.3 mph N13.4 kmh N 10.5 mph16.9 kmh 29.02 in982.7 mb 0.00 in0.0 mm 0.00 in/hr0.0 mm/hr 0.00 in0.0 mm
11:36 AM 78.6°F25.9°C 54.2°F12.3°C 43% 6.7 mph N10.8 kmh N 10.5 mph16.9 kmh 29.02 in982.7 mb 0.00 in0.0 mm 0.00 in/hr0.0 mm/hr 0.00 in0.0 mm
11:35 AM 78.6°F25.9°C 54.2°F12.3°C 43% 4.0 mph NNE6.4 kmh NNE 10.5 mph16.9 kmh 29.03 in983.1 mb 0.00 in0.0 mm 0.00 in/hr0.0 mm/hr 0.00 in0.0 mm
11:34 AM 78.6°F25.9°C 54.2°F12.3°C 43% 6.3 mph NNE10.1 kmh NNE 12.5 mph20.1 kmh 29.02 in982.7 mb 0.00 in0.0 mm 0.00 in/hr0.0 mm/hr 0.00 in0.0 mm
11:33 AM 78.6°F25.9°C 54.2°F12.3°C 43% 8.1 mph NNE13.0 kmh NNE 12.8 mph20.6 kmh 29.02 in982.7 mb 0.00 in0.0 mm 0.00 in/hr0.0 mm/hr 0.00 in0.0 mm
11:32 AM 78.6°F25.9°C 54.2°F12.3°C 43% 6.7 mph NNE10.8 kmh NNE 12.8 mph20.6 kmh 29.02 in982.7 mb 0.00 in0.0 mm 0.00 in/hr0.0 mm/hr 0.00 in0.0 mm
11:31 AM 78.6°F25.9°C 54.2°F12.3°C 43% 1.8 mph NNE2.9 kmh NNE 12.8 mph20.6 kmh 29.02 in982.7 mb 0.00 in0.0 mm 0.00 in/hr0.0 mm/hr 0.00 in0.0 mm
11:30 AM 78.6°F25.9°C 54.2°F12.3°C 43% 2.9 mph NNE4.7 kmh NNE 12.8 mph20.6 kmh 29.02 in982.7 mb 0.00 in0.0 mm 0.00 in/hr0.0 mm/hr 0.00 in0.0 mm
11:29 AM 78.6°F25.9°C 54.2°F12.3°C 43% 4.5 mph NNE7.2 kmh NNE 12.8 mph20.6 kmh 29.03 in983.1 mb 0.00 in0.0 mm 0.00 in/hr0.0 mm/hr 0.00 in0.0 mm
11:28 AM 78.6°F25.9°C 54.2°F12.3°C 43% 6.3 mph NNE10.1 kmh NNE 12.8 mph20.6 kmh 29.03 in983.1 mb 0.00 in0.0 mm 0.00 in/hr0.0 mm/hr 0.00 in0.0 mm
11:27 AM 78.6°F25.9°C 54.2°F12.3°C 43% 8.7 mph NNE14.0 kmh NNE 12.8 mph20.6 kmh 29.03 in983.1 mb 0.00 in0.0 mm 0.00 in/hr0.0 mm/hr 0.00 in0.0 mm
11:26 AM 78.6°F25.9°C 54.2°F12.3°C 43% 8.7 mph NNE14.0 kmh NNE 12.8 mph20.6 kmh 29.03 in983.1 mb 0.00 in0.0 mm 0.00 in/hr0.0 mm/hr 0.00 in0.0 mm
11:25 AM 78.6°F25.9°C 54.2°F12.3°C 43% 10.1 mph NNE16.3 kmh NNE 12.8 mph20.6 kmh 29.03 in983.1 mb 0.00 in0.0 mm 0.00 in/hr0.0 mm/hr 0.00 in0.0 mm
11:24 AM 78.6°F25.9°C 54.2°F12.3°C 43% 11.9 mph NNE19.2 kmh NNE 12.8 mph20.6 kmh 29.03 in983.1 mb 0.00 in0.0 mm 0.00 in/hr0.0 mm/hr 0.00 in0.0 mm
11:23 AM 78.6°F25.9°C 54.2°F12.3°C 43% 9.2 mph NNE14.8 kmh NNE 12.1 mph19.5 kmh 29.03 in983.1 mb 0.00 in0.0 mm 0.00 in/hr0.0 mm/hr 0.00 in0.0 mm
11:22 AM 78.6°F25.9°C 54.2°F12.3°C 43% 6.5 mph NNE10.5 kmh NNE 12.1 mph19.5 kmh 29.03 in983.1 mb 0.00 in0.0 mm 0.00 in/hr0.0 mm/hr 0.00 in0.0 mm
11:21 AM 78.6°F25.9°C 54.2°F12.3°C 43% 6.7 mph NNE10.8 kmh NNE 12.1 mph19.5 kmh 29.03 in983.1 mb 0.00 in0.0 mm 0.00 in/hr0.0 mm/hr 0.00 in0.0 mm
11:20 AM 78.6°F25.9°C 54.2°F12.3°C 43% 11.9 mph NNE19.2 kmh NNE 12.1 mph19.5 kmh 29.03 in983.1 mb 0.00 in0.0 mm 0.00 in/hr0.0 mm/hr 0.00 in0.0 mm
11:19 AM 78.6°F25.9°C 54.2°F12.3°C 43% 7.6 mph NNE12.2 kmh NNE 12.1 mph19.5 kmh 29.02 in982.7 mb 0.00 in0.0 mm 0.00 in/hr0.0 mm/hr 0.00 in0.0 mm
11:18 AM 78.6°F25.9°C 54.2°F12.3°C 43% 10.5 mph NNE16.9 kmh NNE 12.1 mph19.5 kmh 29.02 in982.7 mb 0.00 in0.0 mm 0.00 in/hr0.0 mm/hr 0.00 in0.0 mm
11:17 AM 78.6°F25.9°C 54.2°F12.3°C 43% 4.7 mph NNE7.6 kmh NNE 12.1 mph19.5 kmh 29.02 in982.7 mb 0.00 in0.0 mm 0.00 in/hr0.0 mm/hr 0.00 in0.0 mm
11:16 AM 78.6°F25.9°C 54.2°F12.3°C 43% 5.8 mph NNE9.3 kmh NNE 12.1 mph19.5 kmh 29.02 in982.7 mb 0.00 in0.0 mm 0.00 in/hr0.0 mm/hr 0.00 in0.0 mm
11:15 AM 78.6°F25.9°C 54.2°F12.3°C 43% 8.3 mph NNE13.4 kmh NNE 11.9 mph19.2 kmh 29.02 in982.7 mb 0.00 in0.0 mm 0.00 in/hr0.0 mm/hr 0.00 in0.0 mm
11:14 AM 78.6°F25.9°C 54.2°F12.3°C 43% 6.3 mph NNE10.1 kmh NNE 11.9 mph19.2 kmh 29.02 in982.7 mb 0.00 in0.0 mm 0.00 in/hr0.0 mm/hr 0.00 in0.0 mm
11:13 AM 78.6°F25.9°C 54.2°F12.3°C 43% 8.5 mph NNE13.7 kmh NNE 11.9 mph19.2 kmh 29.02 in982.7 mb 0.00 in0.0 mm 0.00 in/hr0.0 mm/hr 0.00 in0.0 mm
11:12 AM 78.6°F25.9°C 54.2°F12.3°C 43% 6.3 mph NNE10.1 kmh NNE 11.9 mph19.2 kmh 29.02 in982.7 mb 0.00 in0.0 mm 0.00 in/hr0.0 mm/hr 0.00 in0.0 mm
11:11 AM 78.6°F25.9°C 54.2°F12.3°C 43% 8.7 mph NNE14.0 kmh NNE 11.9 mph19.2 kmh 29.02 in982.7 mb 0.00 in0.0 mm 0.00 in/hr0.0 mm/hr 0.00 in0.0 mm
11:10 AM 78.6°F25.9°C 54.2°F12.3°C 43% 10.5 mph N16.9 kmh N 11.9 mph19.2 kmh 29.02 in982.7 mb 0.00 in0.0 mm 0.00 in/hr0.0 mm/hr 0.00 in0.0 mm
11:09 AM 78.6°F25.9°C 54.2°F12.3°C 43% 8.1 mph N13.0 kmh N 11.2 mph18.0 kmh 29.02 in982.7 mb 0.00 in0.0 mm 0.00 in/hr0.0 mm/hr 0.00 in0.0 mm
11:08 AM 78.6°F25.9°C 54.2°F12.3°C 43% 4.0 mph N6.4 kmh N 11.2 mph18.0 kmh 29.02 in982.7 mb 0.00 in0.0 mm 0.00 in/hr0.0 mm/hr 0.00 in0.0 mm
11:07 AM 78.6°F25.9°C 54.2°F12.3°C 43% 6.9 mph N11.1 kmh N 11.2 mph18.0 kmh 29.02 in982.7 mb 0.00 in0.0 mm 0.00 in/hr0.0 mm/hr 0.00 in0.0 mm
11:06 AM 78.6°F25.9°C 54.2°F12.3°C 43% 8.3 mph N13.4 kmh N 11.2 mph18.0 kmh 29.02 in982.7 mb 0.00 in0.0 mm 0.00 in/hr0.0 mm/hr 0.00 in0.0 mm
11:05 AM 78.6°F25.9°C 54.2°F12.3°C 43% 7.8 mph N12.6 kmh N 11.2 mph18.0 kmh 29.02 in982.7 mb 0.00 in0.0 mm 0.00 in/hr0.0 mm/hr 0.00 in0.0 mm
11:04 AM 78.6°F25.9°C 54.2°F12.3°C 43% 6.3 mph N10.1 kmh N 10.5 mph16.9 kmh 29.02 in982.7 mb 0.00 in0.0 mm 0.00 in/hr0.0 mm/hr 0.00 in0.0 mm
11:03 AM 78.6°F25.9°C 54.2°F12.3°C 43% 5.4 mph N8.7 kmh N 10.5 mph16.9 kmh 29.02 in982.7 mb 0.00 in0.0 mm 0.00 in/hr0.0 mm/hr 0.00 in0.0 mm
11:02 AM 78.6°F25.9°C 54.2°F12.3°C 43% 3.4 mph NNE5.5 kmh NNE 12.1 mph19.5 kmh 29.02 in982.7 mb 0.00 in0.0 mm 0.00 in/hr0.0 mm/hr 0.00 in0.0 mm
11:01 AM 78.6°F25.9°C 54.2°F12.3°C 43% 5.4 mph NNE8.7 kmh NNE 13.9 mph22.4 kmh 29.02 in982.7 mb 0.00 in0.0 mm 0.00 in/hr0.0 mm/hr 0.00 in0.0 mm
11:00 AM 78.6°F25.9°C 54.2°F12.3°C 43% 1.6 mph NNE2.6 kmh NNE 13.9 mph22.4 kmh 29.02 in982.7 mb 0.00 in0.0 mm 0.00 in/hr0.0 mm/hr 0.00 in0.0 mm
10:59 AM 78.6°F25.9°C 54.2°F12.3°C 43% 8.1 mph NNE13.0 kmh NNE 13.9 mph22.4 kmh 29.02 in982.7 mb 0.00 in0.0 mm 0.00 in/hr0.0 mm/hr 0.00 in0.0 mm
10:58 AM 78.6°F25.9°C 54.2°F12.3°C 43% 5.4 mph NNE8.7 kmh NNE 13.9 mph22.4 kmh 29.03 in983.1 mb 0.00 in0.0 mm 0.00 in/hr0.0 mm/hr 0.00 in0.0 mm
10:57 AM 78.6°F25.9°C 53.6°F12.0°C 42% 9.4 mph NNE15.1 kmh NNE 13.9 mph22.4 kmh 29.02 in982.7 mb 0.00 in0.0 mm 0.00 in/hr0.0 mm/hr 0.00 in0.0 mm
10:56 AM 79.0°F26.1°C 53.9°F12.2°C 42% 5.6 mph NNE9.0 kmh NNE 13.9 mph22.4 kmh 29.03 in983.1 mb 0.00 in0.0 mm 0.00 in/hr0.0 mm/hr 0.00 in0.0 mm
10:55 AM 79.0°F26.1°C 53.9°F12.2°C 42% 6.9 mph NNE11.1 kmh NNE 13.9 mph22.4 kmh 29.03 in983.1 mb 0.00 in0.0 mm 0.00 in/hr0.0 mm/hr 0.00 in0.0 mm
10:54 AM 79.0°F26.1°C 53.9°F12.2°C 42% 6.3 mph NNE10.1 kmh NNE 13.9 mph22.4 kmh 29.03 in983.1 mb 0.00 in0.0 mm 0.00 in/hr0.0 mm/hr 0.00 in0.0 mm
10:53 AM 79.2°F26.2°C 54.1°F12.3°C 42% 10.5 mph NNE16.9 kmh NNE 13.9 mph22.4 kmh 29.03 in983.1 mb 0.00 in0.0 mm 0.00 in/hr0.0 mm/hr 0.00 in0.0 mm
10:52 AM 79.2°F26.2°C 54.1°F12.3°C 42% 8.7 mph N14.0 kmh N 13.9 mph22.4 kmh 29.02 in982.7 mb 0.00 in0.0 mm 0.00 in/hr0.0 mm/hr 0.00 in0.0 mm
10:51 AM 79.2°F26.2°C 54.1°F12.3°C 42% 9.2 mph N14.8 kmh N 13.2 mph21.2 kmh 29.02 in982.7 mb 0.00 in0.0 mm 0.00 in/hr0.0 mm/hr 0.00 in0.0 mm
10:50 AM 79.0°F26.1°C 53.9°F12.2°C 42% 9.8 mph N15.8 kmh N 13.2 mph21.2 kmh 29.02 in982.7 mb 0.00 in0.0 mm 0.00 in/hr0.0 mm/hr 0.00 in0.0 mm
10:49 AM 79.0°F26.1°C 53.9°F12.2°C 42% 10.5 mph N16.9 kmh N 12.3 mph19.8 kmh 29.02 in982.7 mb 0.00 in0.0 mm 0.00 in/hr0.0 mm/hr 0.00 in0.0 mm
10:48 AM 79.0°F26.1°C 53.9°F12.2°C 42% 6.3 mph N10.1 kmh N 11.6 mph18.7 kmh 29.02 in982.7 mb 0.00 in0.0 mm 0.00 in/hr0.0 mm/hr 0.00 in0.0 mm
10:47 AM 79.0°F26.1°C 53.9°F12.2°C 42% 2.0 mph N3.2 kmh N 11.6 mph18.7 kmh 29.02 in982.7 mb 0.00 in0.0 mm 0.00 in/hr0.0 mm/hr 0.00 in0.0 mm
10:46 AM 79.0°F26.1°C 53.9°F12.2°C 42% 3.6 mph N5.8 kmh N 11.6 mph18.7 kmh 29.02 in982.7 mb 0.00 in0.0 mm 0.00 in/hr0.0 mm/hr 0.00 in0.0 mm
10:45 AM 78.8°F26.0°C 54.4°F12.4°C 43% 8.3 mph N13.4 kmh N 11.6 mph18.7 kmh 29.02 in982.7 mb 0.00 in0.0 mm 0.00 in/hr0.0 mm/hr 0.00 in0.0 mm
10:44 AM 78.6°F25.9°C 53.6°F12.0°C 42% 9.6 mph N15.4 kmh N 11.6 mph18.7 kmh 29.03 in983.1 mb 0.00 in0.0 mm 0.00 in/hr0.0 mm/hr 0.00 in0.0 mm
10:43 AM 78.6°F25.9°C 53.6°F12.0°C 42% 5.4 mph N8.7 kmh N 11.6 mph18.7 kmh 29.03 in983.1 mb 0.00 in0.0 mm 0.00 in/hr0.0 mm/hr 0.00 in0.0 mm
10:42 AM 78.6°F25.9°C 54.2°F12.3°C 43% 5.8 mph N9.3 kmh N 11.6 mph18.7 kmh 29.02 in982.7 mb 0.00 in0.0 mm 0.00 in/hr0.0 mm/hr 0.00 in0.0 mm
10:41 AM 78.6°F25.9°C 54.2°F12.3°C 43% 6.5 mph N10.5 kmh N 11.6 mph18.7 kmh 29.02 in982.7 mb 0.00 in0.0 mm 0.00 in/hr0.0 mm/hr 0.00 in0.0 mm
10:40 AM 78.6°F25.9°C 54.2°F12.3°C 43% 7.6 mph N12.2 kmh N 10.7 mph17.2 kmh 29.02 in982.7 mb 0.00 in0.0 mm 0.00 in/hr0.0 mm/hr 0.00 in0.0 mm
10:39 AM 78.6°F25.9°C 54.2°F12.3°C 43% 1.1 mph N1.8 kmh N 10.7 mph17.2 kmh 29.02 in982.7 mb 0.00 in0.0 mm 0.00 in/hr0.0 mm/hr 0.00 in0.0 mm
10:38 AM 78.6°F25.9°C 54.2°F12.3°C 43% Calm Calm 13.9 mph22.4 kmh 29.02 in982.7 mb 0.00 in0.0 mm 0.00 in/hr0.0 mm/hr 0.00 in0.0 mm
10:37 AM 78.6°F25.9°C 54.2°F12.3°C 43% 1.6 mph N2.6 kmh N 13.9 mph22.4 kmh 29.02 in982.7 mb 0.00 in0.0 mm 0.00 in/hr0.0 mm/hr 0.00 in0.0 mm
10:36 AM 78.6°F25.9°C 54.2°F12.3°C 43% 5.1 mph N8.2 kmh N 13.9 mph22.4 kmh 29.02 in982.7 mb 0.00 in0.0 mm 0.00 in/hr0.0 mm/hr 0.00 in0.0 mm
10:35 AM 78.6°F25.9°C 54.2°F12.3°C 43% 8.7 mph N14.0 kmh N 13.9 mph22.4 kmh 29.02 in982.7 mb 0.00 in0.0 mm 0.00 in/hr0.0 mm/hr 0.00 in0.0 mm
10:34 AM 78.6°F25.9°C 54.2°F12.3°C 43% 9.2 mph N14.8 kmh N 13.9 mph22.4 kmh 29.03 in983.1 mb 0.00 in0.0 mm 0.00 in/hr0.0 mm/hr 0.00 in0.0 mm
10:33 AM 78.6°F25.9°C 54.2°F12.3°C 43% 7.6 mph N12.2 kmh N 13.9 mph22.4 kmh 29.02 in982.7 mb 0.00 in0.0 mm 0.00 in/hr0.0 mm/hr 0.00 in0.0 mm
10:32 AM 78.6°F25.9°C 54.2°F12.3°C 43% 5.8 mph NNW9.3 kmh NNW 13.9 mph22.4 kmh 29.03 in983.1 mb 0.00 in0.0 mm 0.00 in/hr0.0 mm/hr 0.00 in0.0 mm
10:31 AM 78.8°F26.0°C 54.4°F12.4°C 43% 8.3 mph NNW13.4 kmh NNW 13.9 mph22.4 kmh 29.03 in983.1 mb 0.00 in0.0 mm 0.00 in/hr0.0 mm/hr 0.00 in0.0 mm
10:30 AM 79.0°F26.1°C 54.5°F12.5°C 43% 8.3 mph NNW13.4 kmh NNW 13.9 mph22.4 kmh 29.02 in982.7 mb 0.00 in0.0 mm 0.00 in/hr0.0 mm/hr 0.00 in0.0 mm
10:29 AM 79.0°F26.1°C 53.9°F12.2°C 42% 7.6 mph NNW12.2 kmh NNW 13.9 mph22.4 kmh 29.02 in982.7 mb 0.00 in0.0 mm 0.00 in/hr0.0 mm/hr 0.00 in0.0 mm
10:28 AM 79.0°F26.1°C 54.5°F12.5°C 43% 13.9 mph NNW22.4 kmh NNW 13.9 mph22.4 kmh 29.02 in982.7 mb 0.00 in0.0 mm 0.00 in/hr0.0 mm/hr 0.00 in0.0 mm
10:27 AM 79.0°F26.1°C 54.5°F12.5°C 43% 8.3 mph NNW13.4 kmh NNW 13.4 mph21.6 kmh 29.02 in982.7 mb 0.00 in0.0 mm 0.00 in/hr0.0 mm/hr 0.00 in0.0 mm
10:26 AM 79.0°F26.1°C 54.5°F12.5°C 43% 0.9 mph NNW1.4 kmh NNW 13.4 mph21.6 kmh 29.02 in982.7 mb 0.00 in0.0 mm 0.00 in/hr0.0 mm/hr 0.00 in0.0 mm
10:25 AM 79.0°F26.1°C 54.5°F12.5°C 43% 4.7 mph NNW7.6 kmh NNW 13.4 mph21.6 kmh 29.02 in982.7 mb 0.00 in0.0 mm 0.00 in/hr0.0 mm/hr 0.00 in0.0 mm
10:24 AM 79.0°F26.1°C 54.5°F12.5°C 43% 2.2 mph NNW3.5 kmh NNW 13.4 mph21.6 kmh 29.02 in982.7 mb 0.00 in0.0 mm 0.00 in/hr0.0 mm/hr 0.00 in0.0 mm
10:23 AM 79.0°F26.1°C 54.5°F12.5°C 43% 6.3 mph NNW10.1 kmh NNW 13.4 mph21.6 kmh 29.02 in982.7 mb 0.00 in0.0 mm 0.00 in/hr0.0 mm/hr 0.00 in0.0 mm
10:22 AM 79.0°F26.1°C 53.9°F12.2°C 42% 6.0 mph NNW9.7 kmh NNW 13.4 mph21.6 kmh 29.02 in982.7 mb 0.00 in0.0 mm 0.00 in/hr0.0 mm/hr 0.00 in0.0 mm
10:21 AM 79.0°F26.1°C 53.9°F12.2°C 42% 8.3 mph NNW13.4 kmh NNW 13.4 mph21.6 kmh 29.02 in982.7 mb 0.00 in0.0 mm 0.00 in/hr0.0 mm/hr 0.00 in0.0 mm
10:20 AM 79.0°F26.1°C 53.9°F12.2°C 42% 6.3 mph NNW10.1 kmh NNW 8.7 mph14.0 kmh 29.02 in982.7 mb 0.00 in0.0 mm 0.00 in/hr0.0 mm/hr 0.00 in0.0 mm
10:19 AM 79.0°F26.1°C 53.9°F12.2°C 42% 4.5 mph NNW7.2 kmh NNW 8.7 mph14.0 kmh 29.02 in982.7 mb 0.00 in0.0 mm 0.00 in/hr0.0 mm/hr 0.00 in0.0 mm
10:18 AM 79.0°F26.1°C 53.9°F12.2°C 42% 4.5 mph NNW7.2 kmh NNW 8.7 mph14.0 kmh 29.02 in982.7 mb 0.00 in0.0 mm 0.00 in/hr0.0 mm/hr 0.00 in0.0 mm
10:17 AM 79.0°F26.1°C 53.9°F12.2°C 42% 5.6 mph NNW9.0 kmh NNW 8.7 mph14.0 kmh 29.02 in982.7 mb 0.00 in0.0 mm 0.00 in/hr0.0 mm/hr 0.00 in0.0 mm
10:16 AM 79.0°F26.1°C 54.5°F12.5°C 43% 6.7 mph NNW10.8 kmh NNW 8.7 mph14.0 kmh 29.02 in982.7 mb 0.00 in0.0 mm 0.00 in/hr0.0 mm/hr 0.00 in0.0 mm
10:15 AM 78.8°F26.0°C 54.4°F12.4°C 43% 6.0 mph NNW9.7 kmh NNW 8.5 mph13.7 kmh 29.02 in982.7 mb 0.00 in0.0 mm 0.00 in/hr0.0 mm/hr 0.00 in0.0 mm
10:14 AM 78.6°F25.9°C 54.2°F12.3°C 43% 3.6 mph NW5.8 kmh NW 8.5 mph13.7 kmh 29.02 in982.7 mb 0.00 in0.0 mm 0.00 in/hr0.0 mm/hr 0.00 in0.0 mm
10:13 AM 78.6°F25.9°C 53.6°F12.0°C 42% 2.5 mph NNW4.0 kmh NNW 8.7 mph14.0 kmh 29.02 in982.7 mb 0.00 in0.0 mm 0.00 in/hr0.0 mm/hr 0.00 in0.0 mm
10:12 AM 78.6°F25.9°C 53.6°F12.0°C 42% 5.4 mph NNW8.7 kmh NNW 8.7 mph14.0 kmh 29.02 in982.7 mb 0.00 in0.0 mm 0.00 in/hr0.0 mm/hr 0.00 in0.0 mm
10:11 AM 78.6°F25.9°C 53.6°F12.0°C 42% 7.4 mph NNW11.9 kmh NNW 8.7 mph14.0 kmh 29.02 in982.7 mb 0.00 in0.0 mm 0.00 in/hr0.0 mm/hr 0.00 in0.0 mm
10:10 AM 78.6°F25.9°C 53.6°F12.0°C 42% 4.5 mph NNW7.2 kmh NNW 11.0 mph17.7 kmh 29.02 in982.7 mb 0.00 in0.0 mm 0.00 in/hr0.0 mm/hr 0.00 in0.0 mm
10:09 AM 78.6°F25.9°C 53.6°F12.0°C 42% 4.5 mph NNW7.2 kmh NNW 11.0 mph17.7 kmh 29.02 in982.7 mb 0.00 in0.0 mm 0.00 in/hr0.0 mm/hr 0.00 in0.0 mm
10:08 AM 78.6°F25.9°C 53.6°F12.0°C 42% 1.3 mph NNW2.1 kmh NNW 11.0 mph17.7 kmh 29.02 in982.7 mb 0.00 in0.0 mm 0.00 in/hr0.0 mm/hr 0.00 in0.0 mm
10:07 AM 78.6°F25.9°C 53.6°F12.0°C 42% 6.7 mph NNW10.8 kmh NNW 11.0 mph17.7 kmh 29.02 in982.7 mb 0.00 in0.0 mm 0.00 in/hr0.0 mm/hr 0.00 in0.0 mm
10:06 AM 78.6°F25.9°C 53.6°F12.0°C 42% 2.2 mph NNW3.5 kmh NNW 11.0 mph17.7 kmh 29.02 in982.7 mb 0.00 in0.0 mm 0.00 in/hr0.0 mm/hr 0.00 in0.0 mm
10:05 AM 79.0°F26.1°C 53.9°F12.2°C 42% 4.9 mph NNW7.9 kmh NNW 11.0 mph17.7 kmh 29.02 in982.7 mb 0.00 in0.0 mm 0.00 in/hr0.0 mm/hr 0.00 in0.0 mm
10:04 AM 79.0°F26.1°C 53.9°F12.2°C 42% 4.5 mph NNW7.2 kmh NNW 11.0 mph17.7 kmh 29.02 in982.7 mb 0.00 in0.0 mm 0.00 in/hr0.0 mm/hr 0.00 in0.0 mm
10:03 AM 78.8°F26.0°C 53.7°F12.1°C 42% 2.5 mph NNW4.0 kmh NNW 11.0 mph17.7 kmh 29.02 in982.7 mb 0.00 in0.0 mm 0.00 in/hr0.0 mm/hr 0.00 in0.0 mm
10:02 AM 79.0°F26.1°C 53.9°F12.2°C 42% 3.8 mph NNW6.1 kmh NNW 11.0 mph17.7 kmh 29.02 in982.7 mb 0.00 in0.0 mm 0.00 in/hr0.0 mm/hr 0.00 in0.0 mm
10:01 AM 79.0°F26.1°C 53.9°F12.2°C 42% 5.6 mph NNW9.0 kmh NNW 11.0 mph17.7 kmh 29.02 in982.7 mb 0.00 in0.0 mm 0.00 in/hr0.0 mm/hr 0.00 in0.0 mm
10:00 AM 79.0°F26.1°C 53.9°F12.2°C 42% 4.5 mph NNW7.2 kmh NNW 10.7 mph17.2 kmh 29.02 in982.7 mb 0.00 in0.0 mm 0.00 in/hr0.0 mm/hr 0.00 in0.0 mm
09:59 AM 78.8°F26.0°C 53.7°F12.1°C 42% 6.9 mph NNW11.1 kmh NNW 10.7 mph17.2 kmh 29.02 in982.7 mb 0.00 in0.0 mm 0.00 in/hr0.0 mm/hr 0.00 in0.0 mm
09:58 AM 78.6°F25.9°C 53.6°F12.0°C 42% 7.4 mph NNW11.9 kmh NNW 10.7 mph17.2 kmh 29.02 in982.7 mb 0.00 in0.0 mm 0.00 in/hr0.0 mm/hr 0.00 in0.0 mm
09:57 AM 78.6°F25.9°C 53.6°F12.0°C 42% 6.9 mph N11.1 kmh N 8.9 mph14.3 kmh 29.02 in982.7 mb 0.00 in0.0 mm 0.00 in/hr0.0 mm/hr 0.00 in0.0 mm
09:56 AM 78.6°F25.9°C 53.6°F12.0°C 42% 8.1 mph N13.0 kmh N 8.1 mph13.0 kmh 29.02 in982.7 mb 0.00 in0.0 mm 0.00 in/hr0.0 mm/hr 0.00 in0.0 mm
09:55 AM 78.6°F25.9°C 53.6°F12.0°C 42% 6.3 mph N10.1 kmh N 6.9 mph11.1 kmh 29.02 in982.7 mb 0.00 in0.0 mm 0.00 in/hr0.0 mm/hr 0.00 in0.0 mm
09:54 AM 78.6°F25.9°C 53.6°F12.0°C 42% Calm Calm 6.3 mph10.1 kmh 29.02 in982.7 mb 0.00 in0.0 mm 0.00 in/hr0.0 mm/hr 0.00 in0.0 mm
09:53 AM 78.6°F25.9°C 53.6°F12.0°C 42% Calm Calm 6.3 mph10.1 kmh 29.02 in982.7 mb 0.00 in0.0 mm 0.00 in/hr0.0 mm/hr 0.00 in0.0 mm
09:52 AM 78.4°F25.8°C 53.4°F11.9°C 42% 2.0 mph N3.2 kmh N 6.3 mph10.1 kmh 29.02 in982.7 mb 0.00 in0.0 mm 0.00 in/hr0.0 mm/hr 0.00 in0.0 mm
09:51 AM 78.4°F25.8°C 53.4°F11.9°C 42% 4.5 mph N7.2 kmh N 6.3 mph10.1 kmh 29.03 in983.1 mb 0.00 in0.0 mm 0.00 in/hr0.0 mm/hr 0.00 in0.0 mm
09:50 AM 78.4°F25.8°C 53.4°F11.9°C 42% 0.2 mph N0.3 kmh N 6.3 mph10.1 kmh 29.02 in982.7 mb 0.00 in0.0 mm 0.00 in/hr0.0 mm/hr 0.00 in0.0 mm
09:49 AM 78.3°F25.7°C 53.3°F11.8°C 42% 5.8 mph NNW9.3 kmh NNW 6.3 mph10.1 kmh 29.02 in982.7 mb 0.00 in0.0 mm 0.00 in/hr0.0 mm/hr 0.00 in0.0 mm
09:48 AM 78.3°F25.7°C 53.3°F11.8°C 42% 1.1 mph NW1.8 kmh NW 5.1 mph8.2 kmh 29.02 in982.7 mb 0.00 in0.0 mm 0.00 in/hr0.0 mm/hr 0.00 in0.0 mm
09:47 AM 78.1°F25.6°C 52.5°F11.4°C 41% Calm Calm 5.1 mph8.2 kmh 29.02 in982.7 mb 0.00 in0.0 mm 0.00 in/hr0.0 mm/hr 0.00 in0.0 mm
09:46 AM 78.1°F25.6°C 52.5°F11.4°C 41% Calm Calm 6.3 mph10.1 kmh 29.02 in982.7 mb 0.00 in0.0 mm 0.00 in/hr0.0 mm/hr 0.00 in0.0 mm
09:45 AM 78.1°F25.6°C 52.5°F11.4°C 41% 4.9 mph NW7.9 kmh NW 6.3 mph10.1 kmh 29.02 in982.7 mb 0.00 in0.0 mm 0.00 in/hr0.0 mm/hr 0.00 in0.0 mm
09:44 AM 77.9°F25.5°C 52.3°F11.3°C 41% 2.5 mph NW4.0 kmh NW 6.5 mph10.5 kmh 29.02 in982.7 mb 0.00 in0.0 mm 0.00 in/hr0.0 mm/hr 0.00 in0.0 mm
09:43 AM 77.9°F25.5°C 52.3°F11.3°C 41% 1.8 mph NW2.9 kmh NW 6.5 mph10.5 kmh 29.02 in982.7 mb 0.00 in0.0 mm 0.00 in/hr0.0 mm/hr 0.00 in0.0 mm
09:42 AM 77.9°F25.5°C 52.3°F11.3°C 41% Calm Calm 6.5 mph10.5 kmh 29.02 in982.7 mb 0.00 in0.0 mm 0.00 in/hr0.0 mm/hr 0.00 in0.0 mm
09:41 AM 77.7°F25.4°C 52.2°F11.2°C 41% Calm Calm 6.5 mph10.5 kmh 29.02 in982.7 mb 0.00 in0.0 mm 0.00 in/hr0.0 mm/hr 0.00 in0.0 mm
09:40 AM 77.7°F25.4°C 52.2°F11.2°C 41% 1.1 mph NW1.8 kmh NW 6.5 mph10.5 kmh 29.02 in982.7 mb 0.00 in0.0 mm 0.00 in/hr0.0 mm/hr 0.00 in0.0 mm
09:39 AM 77.7°F25.4°C 52.2°F11.2°C 41% Calm Calm 6.5 mph10.5 kmh 29.02 in982.7 mb 0.00 in0.0 mm 0.00 in/hr0.0 mm/hr 0.00 in0.0 mm
09:38 AM 77.7°F25.4°C 52.2°F11.2°C 41% 0.2 mph NW0.3 kmh NW 6.5 mph10.5 kmh 29.02 in982.7 mb 0.00 in0.0 mm 0.00 in/hr0.0 mm/hr 0.00 in0.0 mm
09:37 AM 77.7°F25.4°C 52.2°F11.2°C 41% 4.5 mph NW7.2 kmh NW 6.5 mph10.5 kmh 29.02 in982.7 mb 0.00 in0.0 mm 0.00 in/hr0.0 mm/hr 0.00 in0.0 mm
09:36 AM 77.5°F25.3°C 52.0°F11.1°C 41% 2.2 mph NW3.5 kmh NW 6.5 mph10.5 kmh 29.02 in982.7 mb 0.00 in0.0 mm 0.00 in/hr0.0 mm/hr 0.00 in0.0 mm
09:35 AM 77.5°F25.3°C 52.6°F11.4°C 42% 3.6 mph NW5.8 kmh NW 6.5 mph10.5 kmh 29.02 in982.7 mb 0.00 in0.0 mm 0.00 in/hr0.0 mm/hr 0.00 in0.0 mm
09:34 AM 77.5°F25.3°C 52.0°F11.1°C 41% 3.6 mph NW5.8 kmh NW 4.9 mph7.9 kmh 29.02 in982.7 mb 0.00 in0.0 mm 0.00 in/hr0.0 mm/hr 0.00 in0.0 mm
09:33 AM 77.4°F25.2°C 52.4°F11.3°C 42% Calm Calm 4.9 mph7.9 kmh 29.02 in982.7 mb 0.00 in0.0 mm 0.00 in/hr0.0 mm/hr 0.00 in0.0 mm
09:32 AM 77.2°F25.1°C 52.3°F11.3°C 42% 2.7 mph WNW4.3 kmh WNW 6.3 mph10.1 kmh 29.02 in982.7 mb 0.00 in0.0 mm 0.00 in/hr0.0 mm/hr 0.00 in0.0 mm
09:31 AM 77.0°F25.0°C 52.1°F11.2°C 42% 3.1 mph WNW5.0 kmh WNW 6.3 mph10.1 kmh 29.01 in982.4 mb 0.00 in0.0 mm 0.00 in/hr0.0 mm/hr 0.00 in0.0 mm
09:30 AM 76.8°F24.9°C 52.0°F11.1°C 42% 4.3 mph WNW6.9 kmh WNW 6.3 mph10.1 kmh 29.02 in982.7 mb 0.00 in0.0 mm 0.00 in/hr0.0 mm/hr 0.00 in0.0 mm
09:29 AM 76.8°F24.9°C 52.0°F11.1°C 42% Calm Calm 6.3 mph10.1 kmh 29.02 in982.7 mb 0.00 in0.0 mm 0.00 in/hr0.0 mm/hr 0.00 in0.0 mm
09:28 AM 76.6°F24.8°C 51.8°F11.0°C 42% 2.9 mph WNW4.7 kmh WNW 6.3 mph10.1 kmh 29.02 in982.7 mb 0.00 in0.0 mm 0.00 in/hr0.0 mm/hr 0.00 in0.0 mm
09:27 AM 76.6°F24.8°C 51.8°F11.0°C 42% Calm Calm 6.3 mph10.1 kmh 29.02 in982.7 mb 0.00 in0.0 mm 0.00 in/hr0.0 mm/hr 0.00 in0.0 mm
09:26 AM 76.3°F24.6°C 52.1°F11.2°C 43% 0.7 mph WNW1.1 kmh WNW 6.3 mph10.1 kmh 29.01 in982.4 mb 0.00 in0.0 mm 0.00 in/hr0.0 mm/hr 0.00 in0.0 mm
09:25 AM 76.1°F24.5°C 51.9°F11.1°C 43% 1.1 mph WNW1.8 kmh WNW 6.3 mph10.1 kmh 29.01 in982.4 mb 0.00 in0.0 mm 0.00 in/hr0.0 mm/hr 0.00 in0.0 mm
09:24 AM 75.9°F24.4°C 51.8°F11.0°C 43% Calm Calm 6.3 mph10.1 kmh 29.02 in982.7 mb 0.00 in0.0 mm 0.00 in/hr0.0 mm/hr 0.00 in0.0 mm
09:23 AM 75.7°F24.3°C 51.6°F10.9°C 43% 2.9 mph WNW4.7 kmh WNW 6.3 mph10.1 kmh 29.02 in982.7 mb 0.00 in0.0 mm 0.00 in/hr0.0 mm/hr 0.00 in0.0 mm
09:22 AM 75.7°F24.3°C 51.6°F10.9°C 43% 3.1 mph WNW5.0 kmh WNW 4.3 mph6.9 kmh 29.02 in982.7 mb 0.00 in0.0 mm 0.00 in/hr0.0 mm/hr 0.00 in0.0 mm
09:21 AM 75.6°F24.2°C 51.4°F10.8°C 43% Calm Calm 3.4 mph5.5 kmh 29.02 in982.7 mb 0.00 in0.0 mm 0.00 in/hr0.0 mm/hr 0.00 in0.0 mm
09:20 AM 75.4°F24.1°C 51.3°F10.7°C 43% Calm Calm 3.4 mph5.5 kmh 29.02 in982.7 mb 0.00 in0.0 mm 0.00 in/hr0.0 mm/hr 0.00 in0.0 mm
09:19 AM 75.0°F23.9°C 51.5°F10.8°C 44% Calm Calm 3.4 mph5.5 kmh 29.02 in982.7 mb 0.00 in0.0 mm 0.00 in/hr0.0 mm/hr 0.00 in0.0 mm
09:18 AM 75.0°F23.9°C 51.5°F10.8°C 44% Calm Calm 3.4 mph5.5 kmh 29.02 in982.7 mb 0.00 in0.0 mm 0.00 in/hr0.0 mm/hr 0.00 in0.0 mm
09:17 AM 74.8°F23.8°C 51.4°F10.8°C 44% Calm Calm 3.4 mph5.5 kmh 29.01 in982.4 mb 0.00 in0.0 mm 0.00 in/hr0.0 mm/hr 0.00 in0.0 mm
09:16 AM 74.5°F23.6°C 51.0°F10.6°C 44% 3.4 mph W5.5 kmh W 3.4 mph5.5 kmh 29.01 in982.4 mb 0.00 in0.0 mm 0.00 in/hr0.0 mm/hr 0.00 in0.0 mm
09:15 AM 74.5°F23.6°C 51.0°F10.6°C 44% 1.3 mph WSW2.1 kmh WSW 1.3 mph2.1 kmh 29.01 in982.4 mb 0.00 in0.0 mm 0.00 in/hr0.0 mm/hr 0.00 in0.0 mm
09:14 AM 74.1°F23.4°C 50.7°F10.4°C 44% Calm Calm 2.9 mph4.7 kmh 29.01 in982.4 mb 0.00 in0.0 mm 0.00 in/hr0.0 mm/hr 0.00 in0.0 mm
09:13 AM 73.9°F23.3°C 51.1°F10.6°C 45% Calm Calm 2.9 mph4.7 kmh 29.01 in982.4 mb 0.00 in0.0 mm 0.00 in/hr0.0 mm/hr 0.00 in0.0 mm
09:12 AM 73.6°F23.1°C 50.8°F10.4°C 45% Calm Calm 2.9 mph4.7 kmh 29.01 in982.4 mb 0.00 in0.0 mm 0.00 in/hr0.0 mm/hr 0.00 in0.0 mm
09:11 AM 73.4°F23.0°C 50.6°F10.3°C 45% Calm Calm 2.9 mph4.7 kmh 29.02 in982.7 mb 0.00 in0.0 mm 0.00 in/hr0.0 mm/hr 0.00 in0.0 mm
09:10 AM 73.2°F22.9°C 50.5°F10.3°C 45% Calm Calm 2.9 mph4.7 kmh 29.01 in982.4 mb 0.00 in0.0 mm 0.00 in/hr0.0 mm/hr 0.00 in0.0 mm
09:09 AM 72.9°F22.7°C 50.7°F10.4°C 46% Calm Calm 2.9 mph4.7 kmh 29.02 in982.7 mb 0.00 in0.0 mm 0.00 in/hr0.0 mm/hr 0.00 in0.0 mm
09:08 AM 72.7°F22.6°C 50.6°F10.3°C 46% Calm Calm 2.9 mph4.7 kmh 29.01 in982.4 mb 0.00 in0.0 mm 0.00 in/hr0.0 mm/hr 0.00 in0.0 mm
09:07 AM 72.3°F22.4°C 50.3°F10.2°C 46% Calm Calm 2.9 mph4.7 kmh 29.01 in982.4 mb 0.00 in0.0 mm 0.00 in/hr0.0 mm/hr 0.00 in0.0 mm
09:06 AM 72.1°F22.3°C 50.1°F10.1°C 46% Calm Calm 2.9 mph4.7 kmh 29.01 in982.4 mb 0.00 in0.0 mm 0.00 in/hr0.0 mm/hr 0.00 in0.0 mm
09:05 AM 72.0°F22.2°C 49.9°F9.9°C 46% Calm Calm 2.9 mph4.7 kmh 29.01 in982.4 mb 0.00 in0.0 mm 0.00 in/hr0.0 mm/hr 0.00 in0.0 mm
09:04 AM 71.8°F22.1°C 49.8°F9.9°C 46% Calm Calm 2.0 mph3.2 kmh 29.01 in982.4 mb 0.00 in0.0 mm 0.00 in/hr0.0 mm/hr 0.00 in0.0 mm
09:03 AM 71.4°F21.9°C 50.0°F10.0°C 47% Calm Calm 3.6 mph5.8 kmh 29.01 in982.4 mb 0.00 in0.0 mm 0.00 in/hr0.0 mm/hr 0.00 in0.0 mm
09:02 AM 71.2°F21.8°C 49.9°F9.9°C 47% Calm Calm 3.6 mph5.8 kmh 29.01 in982.4 mb 0.00 in0.0 mm 0.00 in/hr0.0 mm/hr 0.00 in0.0 mm
09:01 AM 71.2°F21.8°C 49.9°F9.9°C 47% Calm Calm 3.6 mph5.8 kmh 29.01 in982.4 mb 0.00 in0.0 mm 0.00 in/hr0.0 mm/hr 0.00 in0.0 mm
09:00 AM 70.9°F21.6°C 49.5°F9.7°C 47% Calm Calm 3.6 mph5.8 kmh 29.01 in982.4 mb 0.00 in0.0 mm 0.00 in/hr0.0 mm/hr 0.00 in0.0 mm
08:59 AM 70.7°F21.5°C 50.0°F10.0°C 48% Calm Calm 3.6 mph5.8 kmh 29.01 in982.4 mb 0.00 in0.0 mm 0.00 in/hr0.0 mm/hr 0.00 in0.0 mm
08:58 AM 70.3°F21.3°C 49.7°F9.8°C 48% Calm Calm 3.6 mph5.8 kmh 29.01 in982.4 mb 0.00 in0.0 mm 0.00 in/hr0.0 mm/hr 0.00 in0.0 mm
08:57 AM 70.0°F21.1°C 49.3°F9.6°C 48% Calm Calm 3.6 mph5.8 kmh 29.01 in982.4 mb 0.00 in0.0 mm 0.00 in/hr0.0 mm/hr 0.00 in0.0 mm
08:56 AM 69.6°F20.9°C 49.0°F9.4°C 48% Calm Calm 3.6 mph5.8 kmh 29.01 in982.4 mb 0.00 in0.0 mm 0.00 in/hr0.0 mm/hr 0.00 in0.0 mm
08:55 AM 69.6°F20.9°C 49.6°F9.8°C 49% Calm Calm 3.6 mph5.8 kmh 29.01 in982.4 mb 0.00 in0.0 mm 0.00 in/hr0.0 mm/hr 0.00 in0.0 mm
08:54 AM 69.1°F20.6°C 49.1°F9.5°C 49% Calm Calm 3.6 mph5.8 kmh 29.01 in982.4 mb 0.00 in0.0 mm 0.00 in/hr0.0 mm/hr 0.00 in0.0 mm
08:53 AM 68.9°F20.5°C 49.0°F9.4°C 49% Calm Calm 1.6 mph2.6 kmh 29.01 in982.4 mb 0.00 in0.0 mm 0.00 in/hr0.0 mm/hr 0.00 in0.0 mm
08:52 AM 68.5°F20.3°C 48.6°F9.2°C 49% Calm Calm 1.6 mph2.6 kmh 29.01 in982.4 mb 0.00 in0.0 mm 0.00 in/hr0.0 mm/hr 0.00 in0.0 mm
08:51 AM 68.2°F20.1°C 48.3°F9.1°C 49% Calm Calm 1.6 mph2.6 kmh 29.01 in982.4 mb 0.00 in0.0 mm 0.00 in/hr0.0 mm/hr 0.00 in0.0 mm
08:50 AM 67.8°F19.9°C 48.6°F9.2°C 50% Calm Calm 1.6 mph2.6 kmh 29.01 in982.4 mb 0.00 in0.0 mm 0.00 in/hr0.0 mm/hr 0.00 in0.0 mm
08:49 AM 67.8°F19.9°C 48.4°F9.1°C 50% Calm Calm 1.6 mph2.6 kmh 29.01 in982.4 mb 0.00 in0.0 mm 0.00 in/hr0.0 mm/hr 0.00 in0.0 mm
08:48 AM 67.5°F19.7°C 48.3°F9.1°C 50% Calm Calm -- 29.01 in982.4 mb 0.00 in0.0 mm 0.00 in/hr0.0 mm/hr 0.00 in0.0 mm
08:47 AM 67.1°F19.5°C 47.9°F8.8°C 50% Calm Calm 2.0 mph3.2 kmh 29.01 in982.4 mb 0.00 in0.0 mm 0.00 in/hr0.0 mm/hr 0.00 in0.0 mm
08:46 AM 66.7°F19.3°C 48.1°F8.9°C 51% Calm Calm 2.0 mph3.2 kmh 29.01 in982.4 mb 0.00 in0.0 mm 0.00 in/hr0.0 mm/hr 0.00 in0.0 mm
08:45 AM 66.4°F19.1°C 47.8°F8.8°C 51% Calm Calm 2.0 mph3.2 kmh 29.01 in982.4 mb 0.00 in0.0 mm 0.00 in/hr0.0 mm/hr 0.00 in0.0 mm
08:44 AM 66.0°F18.9°C 47.4°F8.6°C 51% Calm Calm 2.0 mph3.2 kmh 29.01 in982.4 mb 0.00 in0.0 mm 0.00 in/hr0.0 mm/hr 0.00 in0.0 mm
08:43 AM 65.8°F18.8°C 47.7°F8.7°C 52% Calm Calm 2.0 mph3.2 kmh 29.01 in982.4 mb 0.00 in0.0 mm 0.00 in/hr0.0 mm/hr 0.00 in0.0 mm
08:42 AM 65.7°F18.7°C 47.6°F8.7°C 52% Calm Calm 2.0 mph3.2 kmh 29.00 in982.1 mb 0.00 in0.0 mm 0.00 in/hr0.0 mm/hr 0.00 in0.0 mm
08:41 AM 65.1°F18.4°C 47.0°F8.3°C 52% Calm Calm 2.0 mph3.2 kmh 29.00 in982.1 mb 0.00 in0.0 mm 0.00 in/hr0.0 mm/hr 0.00 in0.0 mm
08:40 AM 64.9°F18.3°C 47.3°F8.5°C 53% Calm Calm 2.9 mph4.7 kmh 29.01 in982.4 mb 0.00 in0.0 mm 0.00 in/hr0.0 mm/hr 0.00 in0.0 mm
08:39 AM 64.6°F18.1°C 47.0°F8.3°C 53% Calm Calm 2.9 mph4.7 kmh 29.01 in982.4 mb 0.00 in0.0 mm 0.00 in/hr0.0 mm/hr 0.00 in0.0 mm
08:38 AM 64.2°F17.9°C 46.6°F8.1°C 53% Calm Calm 2.9 mph4.7 kmh 29.00 in982.1 mb 0.00 in0.0 mm 0.00 in/hr0.0 mm/hr 0.00 in0.0 mm
08:37 AM 63.7°F17.6°C 46.6°F8.1°C 54% 2.0 mph WNW3.2 kmh WNW 2.9 mph4.7 kmh 29.00 in982.1 mb 0.00 in0.0 mm 0.00 in/hr0.0 mm/hr 0.00 in0.0 mm
08:36 AM 63.5°F17.5°C 46.5°F8.1°C 54% Calm Calm 2.9 mph4.7 kmh 29.00 in982.1 mb 0.00 in0.0 mm 0.00 in/hr0.0 mm/hr 0.00 in0.0 mm
08:35 AM 63.3°F17.4°C 46.8°F8.2°C 55% Calm Calm 2.9 mph4.7 kmh 29.00 in982.1 mb 0.00 in0.0 mm 0.00 in/hr0.0 mm/hr 0.00 in0.0 mm
08:34 AM 63.0°F17.2°C 46.0°F7.8°C 54% Calm Calm 2.9 mph4.7 kmh 29.00 in982.1 mb 0.00 in0.0 mm 0.00 in/hr0.0 mm/hr 0.00 in0.0 mm
08:33 AM 62.6°F17.0°C 46.1°F7.8°C 55% Calm Calm 2.9 mph4.7 kmh 29.01 in982.4 mb 0.00 in0.0 mm 0.00 in/hr0.0 mm/hr 0.00 in0.0 mm
08:32 AM 62.2°F16.8°C 45.8°F7.7°C 55% Calm Calm 2.9 mph4.7 kmh 29.01 in982.4 mb 0.00 in0.0 mm 0.00 in/hr0.0 mm/hr 0.00 in0.0 mm
08:31 AM 61.9°F16.6°C 46.0°F7.8°C 56% Calm Calm 2.9 mph4.7 kmh 29.01 in982.4 mb 0.00 in0.0 mm 0.00 in/hr0.0 mm/hr 0.00 in0.0 mm
08:30 AM 61.5°F16.4°C 45.6°F7.6°C 56% Calm Calm 1.6 mph2.6 kmh 29.00 in982.1 mb 0.00 in0.0 mm 0.00 in/hr0.0 mm/hr 0.00 in0.0 mm
08:29 AM 61.3°F16.3°C 45.5°F7.5°C 56% Calm Calm 1.6 mph2.6 kmh 29.00 in982.1 mb 0.00 in0.0 mm 0.00 in/hr0.0 mm/hr 0.00 in0.0 mm
08:28 AM 61.0°F16.1°C 45.6°F7.6°C 57% Calm Calm 1.6 mph2.6 kmh 29.00 in982.1 mb 0.00 in0.0 mm 0.00 in/hr0.0 mm/hr 0.00 in0.0 mm
08:27 AM 60.6°F15.9°C 45.3°F7.4°C 57% Calm Calm 1.6 mph2.6 kmh 29.00 in982.1 mb 0.00 in0.0 mm 0.00 in/hr0.0 mm/hr 0.00 in0.0 mm
08:26 AM 60.3°F15.7°C 45.4°F7.4°C 58% Calm Calm 1.6 mph2.6 kmh 29.00 in982.1 mb 0.00 in0.0 mm 0.00 in/hr0.0 mm/hr 0.00 in0.0 mm
08:25 AM 59.9°F15.5°C 45.1°F7.3°C 58% Calm Calm 1.6 mph2.6 kmh 29.01 in982.4 mb 0.00 in0.0 mm 0.00 in/hr0.0 mm/hr 0.00 in0.0 mm
08:24 AM 59.5°F15.3°C 45.2°F7.3°C 59% Calm Calm 1.6 mph2.6 kmh 29.01 in982.4 mb 0.00 in0.0 mm 0.00 in/hr0.0 mm/hr 0.00 in0.0 mm
08:23 AM 59.0°F15.0°C 44.7°F7.1°C 59% Calm Calm 1.6 mph2.6 kmh 29.01 in982.4 mb 0.00 in0.0 mm 0.00 in/hr0.0 mm/hr 0.00 in0.0 mm
08:22 AM 58.8°F14.9°C 44.5°F6.9°C 59% Calm Calm 1.6 mph2.6 kmh 29.01 in982.4 mb 0.00 in0.0 mm 0.00 in/hr0.0 mm/hr 0.00 in0.0 mm
08:21 AM 58.8°F14.9°C 45.0°F7.2°C 60% Calm Calm -- 29.00 in982.1 mb 0.00 in0.0 mm 0.00 in/hr0.0 mm/hr 0.00 in0.0 mm
08:20 AM 58.3°F14.6°C 44.5°F6.9°C 60% Calm Calm -- 29.01 in982.4 mb 0.00 in0.0 mm 0.00 in/hr0.0 mm/hr 0.00 in0.0 mm
08:19 AM 57.9°F14.4°C 44.6°F7.0°C 61% Calm Calm -- 29.01 in982.4 mb 0.00 in0.0 mm 0.00 in/hr0.0 mm/hr 0.00 in0.0 mm
08:18 AM 57.6°F14.2°C 44.2°F6.8°C 61% Calm Calm -- 29.00 in982.1 mb 0.00 in0.0 mm 0.00 in/hr0.0 mm/hr 0.00 in0.0 mm
08:17 AM 57.0°F13.9°C 44.1°F6.7°C 62% Calm Calm -- 29.00 in982.1 mb 0.00 in0.0 mm 0.00 in/hr0.0 mm/hr 0.00 in0.0 mm
08:16 AM 57.0°F13.9°C 44.1°F6.7°C 62% Calm Calm -- 29.01 in982.4 mb 0.00 in0.0 mm 0.00 in/hr0.0 mm/hr 0.00 in0.0 mm
08:15 AM 56.5°F13.6°C 43.6°F6.4°C 62% Calm Calm -- 29.01 in982.4 mb 0.00 in0.0 mm 0.00 in/hr0.0 mm/hr 0.00 in0.0 mm
08:14 AM 56.3°F13.5°C 43.8°F6.6°C 63% Calm Calm -- 29.01 in982.4 mb 0.00 in0.0 mm 0.00 in/hr0.0 mm/hr 0.00 in0.0 mm
08:13 AM 55.9°F13.3°C 43.5°F6.4°C 63% Calm Calm -- 29.01 in982.4 mb 0.00 in0.0 mm 0.00 in/hr0.0 mm/hr 0.00 in0.0 mm
08:12 AM 55.6°F13.1°C 43.5°F6.4°C 64% Calm Calm -- 29.00 in982.1 mb 0.00 in0.0 mm 0.00 in/hr0.0 mm/hr 0.00 in0.0 mm
08:11 AM 55.2°F12.9°C 43.2°F6.2°C 64% Calm Calm -- 29.01 in982.4 mb 0.00 in0.0 mm 0.00 in/hr0.0 mm/hr 0.00 in0.0 mm
08:10 AM 55.2°F12.9°C 43.2°F6.2°C 64% Calm Calm -- 29.00 in982.1 mb 0.00 in0.0 mm 0.00 in/hr0.0 mm/hr 0.00 in0.0 mm
08:09 AM 54.9°F12.7°C 43.3°F6.3°C 65% Calm Calm -- 29.00 in982.1 mb 0.00 in0.0 mm 0.00 in/hr0.0 mm/hr 0.00 in0.0 mm
08:08 AM 54.5°F12.5°C 42.9°F6.1°C 65% Calm Calm -- 29.00 in982.1 mb 0.00 in0.0 mm 0.00 in/hr0.0 mm/hr 0.00 in0.0 mm
08:07 AM 54.3°F12.4°C 42.8°F6.0°C 65% Calm Calm -- 29.00 in982.1 mb 0.00 in0.0 mm 0.00 in/hr0.0 mm/hr 0.00 in0.0 mm
08:06 AM 54.0°F12.2°C 42.4°F5.8°C 65% Calm Calm -- 29.00 in982.1 mb 0.00 in0.0 mm 0.00 in/hr0.0 mm/hr 0.00 in0.0 mm
08:05 AM 53.8°F12.1°C 42.2°F5.7°C 65% Calm Calm -- 29.00 in982.1 mb 0.00 in0.0 mm 0.00 in/hr0.0 mm/hr 0.00 in0.0 mm
08:04 AM 53.4°F11.9°C 41.9°F5.5°C 65% Calm Calm -- 29.00 in982.1 mb 0.00 in0.0 mm 0.00 in/hr0.0 mm/hr 0.00 in0.0 mm
08:03 AM 53.4°F11.9°C 41.9°F5.5°C 65% Calm Calm -- 29.00 in982.1 mb 0.00 in0.0 mm 0.00 in/hr0.0 mm/hr 0.00 in0.0 mm
08:02 AM 53.2°F11.8°C 41.7°F5.4°C 65% Calm Calm -- 28.99 in981.7 mb 0.00 in0.0 mm 0.00 in/hr0.0 mm/hr 0.00 in0.0 mm
08:01 AM 53.2°F11.8°C 41.7°F5.4°C 65% Calm Calm -- 29.00 in982.1 mb 0.00 in0.0 mm 0.00 in/hr0.0 mm/hr 0.00 in0.0 mm
08:00 AM 52.9°F11.6°C 41.4°F5.2°C 65% Calm Calm -- 28.99 in981.7 mb 0.00 in0.0 mm 0.00 in/hr0.0 mm/hr 0.00 in0.0 mm
07:59 AM 52.9°F11.6°C 41.4°F5.2°C 65% Calm Calm -- 28.99 in981.7 mb 0.00 in0.0 mm 0.00 in/hr0.0 mm/hr 0.00 in0.0 mm
07:58 AM 52.7°F11.5°C 41.2°F5.1°C 65% Calm Calm -- 29.00 in982.1 mb 0.00 in0.0 mm 0.00 in/hr0.0 mm/hr 0.00 in0.0 mm
07:57 AM 52.5°F11.4°C 41.1°F5.1°C 65% Calm Calm -- 28.99 in981.7 mb 0.00 in0.0 mm 0.00 in/hr0.0 mm/hr 0.00 in0.0 mm
07:56 AM 52.5°F11.4°C 41.1°F5.1°C 65% Calm Calm -- 28.99 in981.7 mb 0.00 in0.0 mm 0.00 in/hr0.0 mm/hr 0.00 in0.0 mm
07:55 AM 52.5°F11.4°C 40.6°F4.8°C 64% Calm Calm -- 28.99 in981.7 mb 0.00 in0.0 mm 0.00 in/hr0.0 mm/hr 0.00 in0.0 mm
07:54 AM 52.5°F11.4°C 40.6°F4.8°C 64% Calm Calm -- 28.99 in981.7 mb 0.00 in0.0 mm 0.00 in/hr0.0 mm/hr 0.00 in0.0 mm
07:53 AM 52.3°F11.3°C 40.5°F4.7°C 64% Calm Calm -- 28.99 in981.7 mb 0.00 in0.0 mm 0.00 in/hr0.0 mm/hr 0.00 in0.0 mm
07:52 AM 52.3°F11.3°C 40.5°F4.7°C 64% Calm Calm -- 28.99 in981.7 mb 0.00 in0.0 mm 0.00 in/hr0.0 mm/hr 0.00 in0.0 mm
07:51 AM 52.3°F11.3°C 40.5°F4.7°C 64% Calm Calm -- 28.99 in981.7 mb 0.00 in0.0 mm 0.00 in/hr0.0 mm/hr 0.00 in0.0 mm
07:50 AM 52.3°F11.3°C 40.5°F4.7°C 64% Calm Calm -- 28.99 in981.7 mb 0.00 in0.0 mm 0.00 in/hr0.0 mm/hr 0.00 in0.0 mm
07:49 AM 52.3°F11.3°C 40.5°F4.7°C 64% Calm Calm -- 28.99 in981.7 mb 0.00 in0.0 mm 0.00 in/hr0.0 mm/hr 0.00 in0.0 mm
07:48 AM 52.3°F11.3°C 40.5°F4.7°C 64% Calm Calm -- 28.99 in981.7 mb 0.00 in0.0 mm 0.00 in/hr0.0 mm/hr 0.00 in0.0 mm
07:47 AM 52.3°F11.3°C 40.5°F4.7°C 64% Calm Calm -- 28.99 in981.7 mb 0.00 in0.0 mm 0.00 in/hr0.0 mm/hr 0.00 in0.0 mm
07:46 AM 52.3°F11.3°C 40.5°F4.7°C 64% Calm Calm 2.5 mph4.0 kmh 28.99 in981.7 mb 0.00 in0.0 mm 0.00 in/hr0.0 mm/hr 0.00 in0.0 mm
07:45 AM 52.3°F11.3°C 40.5°F4.7°C 64% Calm Calm 2.5 mph4.0 kmh 28.99 in981.7 mb 0.00 in0.0 mm 0.00 in/hr0.0 mm/hr 0.00 in0.0 mm
07:44 AM 52.3°F11.3°C 40.5°F4.7°C 64% Calm Calm 2.5 mph4.0 kmh 28.99 in981.7 mb 0.00 in0.0 mm 0.00 in/hr0.0 mm/hr 0.00 in0.0 mm
07:43 AM 52.3°F11.3°C 40.5°F4.7°C 64% Calm Calm 2.5 mph4.0 kmh 28.99 in981.7 mb 0.00 in0.0 mm 0.00 in/hr0.0 mm/hr 0.00 in0.0 mm
07:42 AM 52.3°F11.3°C 40.5°F4.7°C 64% Calm Calm 2.5 mph4.0 kmh 28.99 in981.7 mb 0.00 in0.0 mm 0.00 in/hr0.0 mm/hr 0.00 in0.0 mm
07:41 AM 52.3°F11.3°C 40.5°F4.7°C 64% Calm Calm 2.5 mph4.0 kmh 28.99 in981.7 mb 0.00 in0.0 mm 0.00 in/hr0.0 mm/hr 0.00 in0.0 mm
07:40 AM 52.3°F11.3°C 40.5°F4.7°C 64% Calm Calm 2.5 mph4.0 kmh 28.99 in981.7 mb 0.00 in0.0 mm 0.00 in/hr0.0 mm/hr 0.00 in0.0 mm
07:39 AM 52.3°F11.3°C 40.5°F4.7°C 64% Calm Calm 2.5 mph4.0 kmh 28.99 in981.7 mb 0.00 in0.0 mm 0.00 in/hr0.0 mm/hr 0.00 in0.0 mm
07:38 AM 52.3°F11.3°C 40.5°F4.7°C 64% Calm Calm 2.5 mph4.0 kmh 28.99 in981.7 mb 0.00 in0.0 mm 0.00 in/hr0.0 mm/hr 0.00 in0.0 mm
07:37 AM 52.3°F11.3°C 40.9°F4.9°C 65% Calm Calm 2.5 mph4.0 kmh 28.99 in981.7 mb 0.00 in0.0 mm 0.00 in/hr0.0 mm/hr 0.00 in0.0 mm
07:36 AM 52.3°F11.3°C 40.9°F4.9°C 65% Calm Calm -- 28.99 in981.7 mb 0.00 in0.0 mm 0.00 in/hr0.0 mm/hr 0.00 in0.0 mm
07:35 AM 52.3°F11.3°C 40.9°F4.9°C 65% Calm Calm -- 28.99 in981.7 mb 0.00 in0.0 mm 0.00 in/hr0.0 mm/hr 0.00 in0.0 mm
07:34 AM 52.3°F11.3°C 40.9°F4.9°C 65% Calm Calm 1.8 mph2.9 kmh 28.99 in981.7 mb 0.00 in0.0 mm 0.00 in/hr0.0 mm/hr 0.00 in0.0 mm
07:33 AM 52.3°F11.3°C 40.9°F4.9°C 65% Calm Calm 1.8 mph2.9 kmh 28.99 in981.7 mb 0.00 in0.0 mm 0.00 in/hr0.0 mm/hr 0.00 in0.0 mm
07:32 AM 52.3°F11.3°C 40.9°F4.9°C 65% Calm Calm 1.8 mph2.9 kmh 28.99 in981.7 mb 0.00 in0.0 mm 0.00 in/hr0.0 mm/hr 0.00 in0.0 mm
07:31 AM 52.3°F11.3°C 40.9°F4.9°C 65% Calm Calm 2.2 mph3.5 kmh 28.99 in981.7 mb 0.00 in0.0 mm 0.00 in/hr0.0 mm/hr 0.00 in0.0 mm
07:30 AM 52.3°F11.3°C 40.9°F4.9°C 65% Calm Calm 2.2 mph3.5 kmh 28.99 in981.7 mb 0.00 in0.0 mm 0.00 in/hr0.0 mm/hr 0.00 in0.0 mm
07:29 AM 52.3°F11.3°C 40.9°F4.9°C 65% Calm Calm 2.2 mph3.5 kmh 28.99 in981.7 mb 0.00 in0.0 mm 0.00 in/hr0.0 mm/hr 0.00 in0.0 mm
07:28 AM 52.3°F11.3°C 40.9°F4.9°C 65% Calm Calm 2.2 mph3.5 kmh 28.99 in981.7 mb 0.00 in0.0 mm 0.00 in/hr0.0 mm/hr 0.00 in0.0 mm
07:27 AM 52.3°F11.3°C 40.9°F4.9°C 65% Calm Calm 2.2 mph3.5 kmh 28.99 in981.7 mb 0.00 in0.0 mm 0.00 in/hr0.0 mm/hr 0.00 in0.0 mm
07:26 AM 52.3°F11.3°C 40.9°F4.9°C 65% Calm Calm 2.2 mph3.5 kmh 28.99 in981.7 mb 0.00 in0.0 mm 0.00 in/hr0.0 mm/hr 0.00 in0.0 mm
07:25 AM 52.3°F11.3°C 40.9°F4.9°C 65% Calm Calm 2.2 mph3.5 kmh 28.99 in981.7 mb 0.00 in0.0 mm 0.00 in/hr0.0 mm/hr 0.00 in0.0 mm
07:24 AM 52.3°F11.3°C 40.9°F4.9°C 65% Calm Calm 2.2 mph3.5 kmh 28.99 in981.7 mb 0.00 in0.0 mm 0.00 in/hr0.0 mm/hr 0.00 in0.0 mm
07:23 AM 52.3°F11.3°C 40.9°F4.9°C 65% Calm Calm 2.2 mph3.5 kmh 28.99 in981.7 mb 0.00 in0.0 mm 0.00 in/hr0.0 mm/hr 0.00 in0.0 mm
07:22 AM 52.3°F11.3°C 40.9°F4.9°C 65% 0.7 mph SW1.1 kmh SW 2.2 mph3.5 kmh 28.99 in981.7 mb 0.00 in0.0 mm 0.00 in/hr0.0 mm/hr 0.00 in0.0 mm
07:21 AM 52.5°F11.4°C 41.1°F5.1°C 65% Calm Calm 1.6 mph2.6 kmh 28.99 in981.7 mb 0.00 in0.0 mm 0.00 in/hr0.0 mm/hr 0.00 in0.0 mm
07:20 AM 52.5°F11.4°C 41.1°F5.1°C 65% Calm Calm 1.6 mph2.6 kmh 28.99 in981.7 mb 0.00 in0.0 mm 0.00 in/hr0.0 mm/hr 0.00 in0.0 mm
07:19 AM 52.3°F11.3°C 41.3°F5.2°C 66% Calm Calm 1.6 mph2.6 kmh 28.99 in981.7 mb 0.00 in0.0 mm 0.00 in/hr0.0 mm/hr 0.00 in0.0 mm
07:18 AM 52.3°F11.3°C 41.3°F5.2°C 66% Calm Calm 1.6 mph2.6 kmh 28.99 in981.7 mb 0.00 in0.0 mm 0.00 in/hr0.0 mm/hr 0.00 in0.0 mm
07:17 AM 52.5°F11.4°C 41.5°F5.3°C 66% Calm Calm 1.6 mph2.6 kmh 28.99 in981.7 mb 0.00 in0.0 mm 0.00 in/hr0.0 mm/hr 0.00 in0.0 mm
07:16 AM 52.5°F11.4°C 41.5°F5.3°C 66% Calm Calm 2.5 mph4.0 kmh 28.99 in981.7 mb 0.00 in0.0 mm 0.00 in/hr0.0 mm/hr 0.00 in0.0 mm
07:15 AM 52.5°F11.4°C 41.5°F5.3°C 66% 1.3 mph SW2.1 kmh SW 2.5 mph4.0 kmh 28.99 in981.7 mb 0.00 in0.0 mm 0.00 in/hr0.0 mm/hr 0.00 in0.0 mm
07:14 AM 52.5°F11.4°C 41.5°F5.3°C 66% Calm Calm 2.5 mph4.0 kmh 28.99 in981.7 mb 0.00 in0.0 mm 0.00 in/hr0.0 mm/hr 0.00 in0.0 mm
07:13 AM 52.5°F11.4°C 41.1°F5.1°C 65% Calm Calm 2.5 mph4.0 kmh 28.99 in981.7 mb 0.00 in0.0 mm 0.00 in/hr0.0 mm/hr 0.00 in0.0 mm
07:12 AM 52.5°F11.4°C 41.1°F5.1°C 65% Calm Calm 2.5 mph4.0 kmh 28.99 in981.7 mb 0.00 in0.0 mm 0.00 in/hr0.0 mm/hr 0.00 in0.0 mm
07:11 AM 52.5°F11.4°C 41.5°F5.3°C 66% Calm Calm 2.5 mph4.0 kmh 28.99 in981.7 mb 0.00 in0.0 mm 0.00 in/hr0.0 mm/hr 0.00 in0.0 mm
07:10 AM 52.5°F11.4°C 41.5°F5.3°C 66% Calm Calm 2.5 mph4.0 kmh 28.99 in981.7 mb 0.00 in0.0 mm 0.00 in/hr0.0 mm/hr 0.00 in0.0 mm
07:09 AM 52.5°F11.4°C 41.5°F5.3°C 66% Calm Calm 3.6 mph5.8 kmh 28.99 in981.7 mb 0.00 in0.0 mm 0.00 in/hr0.0 mm/hr 0.00 in0.0 mm
07:08 AM 52.3°F11.3°C 41.3°F5.2°C 66% Calm Calm 3.6 mph5.8 kmh 28.99 in981.7 mb 0.00 in0.0 mm 0.00 in/hr0.0 mm/hr 0.00 in0.0 mm
07:07 AM 52.3°F11.3°C 41.3°F5.2°C 66% 1.3 mph SW2.1 kmh SW 3.6 mph5.8 kmh 28.99 in981.7 mb 0.00 in0.0 mm 0.00 in/hr0.0 mm/hr 0.00 in0.0 mm
07:06 AM 52.5°F11.4°C 41.5°F5.3°C 66% Calm Calm 4.5 mph7.2 kmh 28.99 in981.7 mb 0.00 in0.0 mm 0.00 in/hr0.0 mm/hr 0.00 in0.0 mm
07:05 AM 52.3°F11.3°C 41.3°F5.2°C 66% 2.0 mph SW3.2 kmh SW 4.5 mph7.2 kmh 28.99 in981.7 mb 0.00 in0.0 mm 0.00 in/hr0.0 mm/hr 0.00 in0.0 mm
07:04 AM 52.3°F11.3°C 41.7°F5.4°C 67% Calm Calm 4.5 mph7.2 kmh 28.98 in981.4 mb 0.00 in0.0 mm 0.00 in/hr0.0 mm/hr 0.00 in0.0 mm
07:03 AM 52.3°F11.3°C 41.7°F5.4°C 67% Calm Calm 4.5 mph7.2 kmh 28.99 in981.7 mb 0.00 in0.0 mm 0.00 in/hr0.0 mm/hr 0.00 in0.0 mm
07:02 AM 52.3°F11.3°C 41.7°F5.4°C 67% Calm Calm 4.5 mph7.2 kmh 28.99 in981.7 mb 0.00 in0.0 mm 0.00 in/hr0.0 mm/hr 0.00 in0.0 mm
07:01 AM 52.3°F11.3°C 41.7°F5.4°C 67% 0.9 mph SW1.4 kmh SW 5.6 mph9.0 kmh 28.99 in981.7 mb 0.00 in0.0 mm 0.00 in/hr0.0 mm/hr 0.00 in0.0 mm
07:00 AM 52.3°F11.3°C 41.3°F5.2°C 66% Calm Calm 6.5 mph10.5 kmh 28.99 in981.7 mb 0.00 in0.0 mm 0.00 in/hr0.0 mm/hr 0.00 in0.0 mm
06:59 AM 52.3°F11.3°C 41.7°F5.4°C 67% 2.2 mph SW3.5 kmh SW 6.5 mph10.5 kmh 28.99 in981.7 mb 0.00 in0.0 mm 0.00 in/hr0.0 mm/hr 0.00 in0.0 mm
06:58 AM 52.3°F11.3°C 41.7°F5.4°C 67% 2.9 mph SW4.7 kmh SW 6.5 mph10.5 kmh 28.99 in981.7 mb 0.00 in0.0 mm 0.00 in/hr0.0 mm/hr 0.00 in0.0 mm
06:57 AM 52.3°F11.3°C 41.7°F5.4°C 67% 2.0 mph SW3.2 kmh SW 6.5 mph10.5 kmh 28.99 in981.7 mb 0.00 in0.0 mm 0.00 in/hr0.0 mm/hr 0.00 in0.0 mm
06:56 AM 52.3°F11.3°C 41.7°F5.4°C 67% 2.5 mph SW4.0 kmh SW 6.5 mph10.5 kmh 28.99 in981.7 mb 0.00 in0.0 mm 0.00 in/hr0.0 mm/hr 0.00 in0.0 mm
06:55 AM 52.3°F11.3°C 41.7°F5.4°C 67% 3.6 mph SW5.8 kmh SW 6.5 mph10.5 kmh 28.99 in981.7 mb 0.00 in0.0 mm 0.00 in/hr0.0 mm/hr 0.00 in0.0 mm
06:54 AM 52.3°F11.3°C 41.7°F5.4°C 67% 3.4 mph SW5.5 kmh SW 6.5 mph10.5 kmh 28.99 in981.7 mb 0.00 in0.0 mm 0.00 in/hr0.0 mm/hr 0.00 in0.0 mm
06:53 AM 52.3°F11.3°C 41.7°F5.4°C 67% 3.1 mph SSW5.0 kmh SSW 6.5 mph10.5 kmh 28.98 in981.4 mb 0.00 in0.0 mm 0.00 in/hr0.0 mm/hr 0.00 in0.0 mm
06:52 AM 52.3°F11.3°C 41.7°F5.4°C 67% 4.5 mph SSW7.2 kmh SSW 6.5 mph10.5 kmh 28.99 in981.7 mb 0.00 in0.0 mm 0.00 in/hr0.0 mm/hr 0.00 in0.0 mm
06:51 AM 52.3°F11.3°C 41.7°F5.4°C 67% 2.9 mph SSW4.7 kmh SSW 6.5 mph10.5 kmh 28.99 in981.7 mb 0.00 in0.0 mm 0.00 in/hr0.0 mm/hr 0.00 in0.0 mm
06:50 AM 52.5°F11.4°C 41.9°F5.5°C 67% 3.4 mph SSW5.5 kmh SSW 6.3 mph10.1 kmh 28.99 in981.7 mb 0.00 in0.0 mm 0.00 in/hr0.0 mm/hr 0.00 in0.0 mm
06:49 AM 52.3°F11.3°C 41.3°F5.2°C 66% 2.0 mph SSW3.2 kmh SSW 6.3 mph10.1 kmh 28.99 in981.7 mb 0.00 in0.0 mm 0.00 in/hr0.0 mm/hr 0.00 in0.0 mm
06:48 AM 52.3°F11.3°C 41.3°F5.2°C 66% Calm Calm 6.3 mph10.1 kmh 28.99 in981.7 mb 0.00 in0.0 mm 0.00 in/hr0.0 mm/hr 0.00 in0.0 mm
06:47 AM 52.5°F11.4°C 41.9°F5.5°C 67% 3.4 mph SSW5.5 kmh SSW 6.3 mph10.1 kmh 28.99 in981.7 mb 0.00 in0.0 mm 0.00 in/hr0.0 mm/hr 0.00 in0.0 mm
06:46 AM 52.5°F11.4°C 41.9°F5.5°C 67% 2.9 mph SSW4.7 kmh SSW 6.3 mph10.1 kmh 28.99 in981.7 mb 0.00 in0.0 mm 0.00 in/hr0.0 mm/hr 0.00 in0.0 mm
06:45 AM 52.5°F11.4°C 41.5°F5.3°C 66% 2.0 mph SSW3.2 kmh SSW 6.3 mph10.1 kmh 28.99 in981.7 mb 0.00 in0.0 mm 0.00 in/hr0.0 mm/hr 0.00 in0.0 mm
06:44 AM 52.5°F11.4°C 41.5°F5.3°C 66% 2.5 mph SSW4.0 kmh SSW 6.3 mph10.1 kmh 28.99 in981.7 mb 0.00 in0.0 mm 0.00 in/hr0.0 mm/hr 0.00 in0.0 mm
06:43 AM 52.5°F11.4°C 41.5°F5.3°C 66% 1.6 mph SSW2.6 kmh SSW 6.3 mph10.1 kmh 28.99 in981.7 mb 0.00 in0.0 mm 0.00 in/hr0.0 mm/hr 0.00 in0.0 mm
06:42 AM 52.5°F11.4°C 41.5°F5.3°C 66% 3.1 mph SSW5.0 kmh SSW 4.9 mph7.9 kmh 28.99 in981.7 mb 0.00 in0.0 mm 0.00 in/hr0.0 mm/hr 0.00 in0.0 mm
06:41 AM 52.5°F11.4°C 41.1°F5.1°C 65% 2.9 mph SSW4.7 kmh SSW 4.9 mph7.9 kmh 28.99 in981.7 mb 0.00 in0.0 mm 0.00 in/hr0.0 mm/hr 0.00 in0.0 mm
06:40 AM 52.5°F11.4°C 41.1°F5.1°C 65% Calm Calm 4.9 mph7.9 kmh 28.99 in981.7 mb 0.00 in0.0 mm 0.00 in/hr0.0 mm/hr 0.00 in0.0 mm
06:39 AM 52.5°F11.4°C 41.1°F5.1°C 65% Calm Calm 4.9 mph7.9 kmh 28.99 in981.7 mb 0.00 in0.0 mm 0.00 in/hr0.0 mm/hr 0.00 in0.0 mm
06:38 AM 52.5°F11.4°C 41.1°F5.1°C 65% 0.7 mph S1.1 kmh S 3.6 mph5.8 kmh 28.98 in981.4 mb 0.00 in0.0 mm 0.00 in/hr0.0 mm/hr 0.00 in0.0 mm
06:37 AM 52.5°F11.4°C 41.1°F5.1°C 65% 1.6 mph S2.6 kmh S 3.1 mph5.0 kmh 28.99 in981.7 mb 0.00 in0.0 mm 0.00 in/hr0.0 mm/hr 0.00 in0.0 mm
06:36 AM 52.5°F11.4°C 41.1°F5.1°C 65% 0.7 mph S1.1 kmh S 3.1 mph5.0 kmh 28.99 in981.7 mb 0.00 in0.0 mm 0.00 in/hr0.0 mm/hr 0.00 in0.0 mm
06:35 AM 52.5°F11.4°C 41.1°F5.1°C 65% Calm Calm 3.1 mph5.0 kmh 28.99 in981.7 mb 0.00 in0.0 mm 0.00 in/hr0.0 mm/hr 0.00 in0.0 mm
06:34 AM 52.5°F11.4°C 41.1°F5.1°C 65% 2.5 mph SSW4.0 kmh SSW 2.7 mph4.3 kmh 28.99 in981.7 mb 0.00 in0.0 mm 0.00 in/hr0.0 mm/hr 0.00 in0.0 mm
06:33 AM 52.5°F11.4°C 40.6°F4.8°C 64% Calm Calm 2.0 mph3.2 kmh 28.99 in981.7 mb 0.00 in0.0 mm 0.00 in/hr0.0 mm/hr 0.00 in0.0 mm
06:32 AM 52.5°F11.4°C 40.2°F4.6°C 63% Calm Calm 2.0 mph3.2 kmh 28.99 in981.7 mb 0.00 in0.0 mm 0.00 in/hr0.0 mm/hr 0.00 in0.0 mm
06:31 AM 52.7°F11.5°C 40.4°F4.7°C 63% Calm Calm 2.0 mph3.2 kmh 28.99 in981.7 mb 0.00 in0.0 mm 0.00 in/hr0.0 mm/hr 0.00 in0.0 mm
06:30 AM 52.5°F11.4°C 40.2°F4.6°C 63% Calm Calm 2.0 mph3.2 kmh 28.98 in981.4 mb 0.00 in0.0 mm 0.00 in/hr0.0 mm/hr 0.00 in0.0 mm
06:29 AM 52.7°F11.5°C 40.4°F4.7°C 63% Calm Calm 2.0 mph3.2 kmh 28.99 in981.7 mb 0.00 in0.0 mm 0.00 in/hr0.0 mm/hr 0.00 in0.0 mm
06:28 AM 52.7°F11.5°C 40.4°F4.7°C 63% 2.0 mph SW3.2 kmh SW 2.0 mph3.2 kmh 28.99 in981.7 mb 0.00 in0.0 mm 0.00 in/hr0.0 mm/hr 0.00 in0.0 mm
06:27 AM 52.7°F11.5°C 40.4°F4.7°C 63% Calm Calm -- 28.98 in981.4 mb 0.00 in0.0 mm 0.00 in/hr0.0 mm/hr 0.00 in0.0 mm
06:26 AM 52.7°F11.5°C 40.4°F4.7°C 63% Calm Calm -- 28.98 in981.4 mb 0.00 in0.0 mm 0.00 in/hr0.0 mm/hr 0.00 in0.0 mm
06:25 AM 52.7°F11.5°C 40.4°F4.7°C 63% Calm Calm -- 28.98 in981.4 mb 0.00 in0.0 mm 0.00 in/hr0.0 mm/hr 0.00 in0.0 mm
06:24 AM 52.7°F11.5°C 40.4°F4.7°C 63% Calm Calm -- 28.99 in981.7 mb 0.00 in0.0 mm 0.00 in/hr0.0 mm/hr 0.00 in0.0 mm
06:23 AM 52.7°F11.5°C 40.4°F4.7°C 63% Calm Calm -- 28.99 in981.7 mb 0.00 in0.0 mm 0.00 in/hr0.0 mm/hr 0.00 in0.0 mm
06:22 AM 52.7°F11.5°C 40.4°F4.7°C 63% Calm Calm -- 28.99 in981.7 mb 0.00 in0.0 mm 0.00 in/hr0.0 mm/hr 0.00 in0.0 mm
06:21 AM 52.9°F11.6°C 40.6°F4.8°C 63% Calm Calm -- 28.98 in981.4 mb 0.00 in0.0 mm 0.00 in/hr0.0 mm/hr 0.00 in0.0 mm
06:20 AM 52.9°F11.6°C 40.6°F4.8°C 63% Calm Calm -- 28.98 in981.4 mb 0.00 in0.0 mm 0.00 in/hr0.0 mm/hr 0.00 in0.0 mm
06:19 AM 52.7°F11.5°C 40.4°F4.7°C 63% Calm Calm -- 28.98 in981.4 mb 0.00 in0.0 mm 0.00 in/hr0.0 mm/hr 0.00 in0.0 mm
06:18 AM 52.9°F11.6°C 40.6°F4.8°C 63% Calm Calm -- 28.99 in981.7 mb 0.00 in0.0 mm 0.00 in/hr0.0 mm/hr 0.00 in0.0 mm
06:17 AM 52.9°F11.6°C 40.6°F4.8°C 63% Calm Calm -- 28.99 in981.7 mb 0.00 in0.0 mm 0.00 in/hr0.0 mm/hr 0.00 in0.0 mm
06:16 AM 52.9°F11.6°C 40.6°F4.8°C 63% Calm Calm -- 28.98 in981.4 mb 0.00 in0.0 mm 0.00 in/hr0.0 mm/hr 0.00 in0.0 mm
06:15 AM 52.9°F11.6°C 40.6°F4.8°C 63% Calm Calm -- 28.99 in981.7 mb 0.00 in0.0 mm 0.00 in/hr0.0 mm/hr 0.00 in0.0 mm
06:14 AM 52.9°F11.6°C 40.6°F4.8°C 63% Calm Calm -- 28.98 in981.4 mb 0.00 in0.0 mm 0.00 in/hr0.0 mm/hr 0.00 in0.0 mm
06:13 AM 52.9°F11.6°C 40.6°F4.8°C 63% Calm Calm -- 28.99 in981.7 mb 0.00 in0.0 mm 0.00 in/hr0.0 mm/hr 0.00 in0.0 mm
06:12 AM 52.9°F11.6°C 40.6°F4.8°C 63% Calm Calm -- 28.99 in981.7 mb 0.00 in0.0 mm 0.00 in/hr0.0 mm/hr 0.00 in0.0 mm
06:11 AM 52.9°F11.6°C 40.6°F4.8°C 63% Calm Calm -- 28.98 in981.4 mb 0.00 in0.0 mm 0.00 in/hr0.0 mm/hr 0.00 in0.0 mm
06:10 AM 52.9°F11.6°C 40.6°F4.8°C 63% Calm Calm -- 28.98 in981.4 mb 0.00 in0.0 mm 0.00 in/hr0.0 mm/hr 0.00 in0.0 mm
06:09 AM 52.9°F11.6°C 40.6°F4.8°C 63% Calm Calm -- 28.98 in981.4 mb 0.00 in0.0 mm 0.00 in/hr0.0 mm/hr 0.00 in0.0 mm
06:08 AM 52.9°F11.6°C 40.6°F4.8°C 63% Calm Calm -- 28.99 in981.7 mb 0.00 in0.0 mm 0.00 in/hr0.0 mm/hr 0.00 in0.0 mm
06:07 AM 52.9°F11.6°C 40.6°F4.8°C 63% Calm Calm -- 28.98 in981.4 mb 0.00 in0.0 mm 0.00 in/hr0.0 mm/hr 0.00 in0.0 mm
06:06 AM 52.9°F11.6°C 40.6°F4.8°C 63% Calm Calm -- 28.98 in981.4 mb 0.00 in0.0 mm 0.00 in/hr0.0 mm/hr 0.00 in0.0 mm
06:05 AM 52.9°F11.6°C 40.6°F4.8°C 63% Calm Calm -- 28.98 in981.4 mb 0.00 in0.0 mm 0.00 in/hr0.0 mm/hr 0.00 in0.0 mm
06:04 AM 52.9°F11.6°C 40.6°F4.8°C 63% Calm Calm -- 28.98 in981.4 mb 0.00 in0.0 mm 0.00 in/hr0.0 mm/hr 0.00 in0.0 mm
06:03 AM 52.9°F11.6°C 40.6°F4.8°C 63% Calm Calm -- 28.98 in981.4 mb 0.00 in0.0 mm 0.00 in/hr0.0 mm/hr 0.00 in0.0 mm
06:02 AM 52.9°F11.6°C 40.6°F4.8°C 63% Calm Calm -- 28.98 in981.4 mb 0.00 in0.0 mm 0.00 in/hr0.0 mm/hr 0.00 in0.0 mm
06:01 AM 52.9°F11.6°C 40.6°F4.8°C 63% Calm Calm -- 28.98 in981.4 mb 0.00 in0.0 mm 0.00 in/hr0.0 mm/hr 0.00 in0.0 mm
06:00 AM 52.9°F11.6°C 40.6°F4.8°C 63% Calm Calm -- 28.98 in981.4 mb 0.00 in0.0 mm 0.00 in/hr0.0 mm/hr 0.00 in0.0 mm
05:59 AM 52.9°F11.6°C 40.6°F4.8°C 63% Calm Calm -- 28.98 in981.4 mb 0.00 in0.0 mm 0.00 in/hr0.0 mm/hr 0.00 in0.0 mm
05:58 AM 53.1°F11.7°C 40.7°F4.8°C 63% Calm Calm -- 28.98 in981.4 mb 0.00 in0.0 mm 0.00 in/hr0.0 mm/hr 0.00 in0.0 mm
05:57 AM 53.1°F11.7°C 40.7°F4.8°C 63% Calm Calm -- 28.98 in981.4 mb 0.00 in0.0 mm 0.00 in/hr0.0 mm/hr 0.00 in0.0 mm
05:56 AM 53.2°F11.8°C 40.9°F4.9°C 63% Calm Calm -- 28.98 in981.4 mb 0.00 in0.0 mm 0.00 in/hr0.0 mm/hr 0.00 in0.0 mm
05:55 AM 53.2°F11.8°C 40.9°F4.9°C 63% Calm Calm -- 28.98 in981.4 mb 0.00 in0.0 mm 0.00 in/hr0.0 mm/hr 0.00 in0.0 mm
05:54 AM 53.2°F11.8°C 40.9°F4.9°C 63% Calm Calm -- 28.98 in981.4 mb 0.00 in0.0 mm 0.00 in/hr0.0 mm/hr 0.00 in0.0 mm
05:53 AM 53.2°F11.8°C 40.9°F4.9°C 63% Calm Calm -- 28.98 in981.4 mb 0.00 in0.0 mm 0.00 in/hr0.0 mm/hr 0.00 in0.0 mm
05:52 AM 53.2°F11.8°C 40.9°F4.9°C 63% Calm Calm -- 28.98 in981.4 mb 0.00 in0.0 mm 0.00 in/hr0.0 mm/hr 0.00 in0.0 mm
05:51 AM 53.2°F11.8°C 41.3°F5.2°C 64% Calm Calm -- 28.98 in981.4 mb 0.00 in0.0 mm 0.00 in/hr0.0 mm/hr 0.00 in0.0 mm
05:50 AM 53.2°F11.8°C 41.3°F5.2°C 64% Calm Calm -- 28.98 in981.4 mb 0.00 in0.0 mm 0.00 in/hr0.0 mm/hr 0.00 in0.0 mm
05:49 AM 53.2°F11.8°C 40.9°F4.9°C 63% Calm Calm -- 28.98 in981.4 mb 0.00 in0.0 mm 0.00 in/hr0.0 mm/hr 0.00 in0.0 mm
05:48 AM 53.2°F11.8°C 41.3°F5.2°C 64% Calm Calm -- 28.98 in981.4 mb 0.00 in0.0 mm 0.00 in/hr0.0 mm/hr 0.00 in0.0 mm
05:47 AM 53.2°F11.8°C 41.3°F5.2°C 64% Calm Calm -- 28.99 in981.7 mb 0.00 in0.0 mm 0.00 in/hr0.0 mm/hr 0.00 in0.0 mm
05:46 AM 53.2°F11.8°C 41.3°F5.2°C 64% Calm Calm -- 28.98 in981.4 mb 0.00 in0.0 mm 0.00 in/hr0.0 mm/hr 0.00 in0.0 mm
05:45 AM 53.2°F11.8°C 41.3°F5.2°C 64% Calm Calm -- 28.98 in981.4 mb 0.00 in0.0 mm 0.00 in/hr0.0 mm/hr 0.00 in0.0 mm
05:44 AM 53.2°F11.8°C 41.3°F5.2°C 64% Calm Calm -- 28.98 in981.4 mb 0.00 in0.0 mm 0.00 in/hr0.0 mm/hr 0.00 in0.0 mm
05:43 AM 53.2°F11.8°C 41.3°F5.2°C 64% Calm Calm -- 28.99 in981.7 mb 0.00 in0.0 mm 0.00 in/hr0.0 mm/hr 0.00 in0.0 mm
05:42 AM 53.2°F11.8°C 41.3°F5.2°C 64% Calm Calm -- 28.98 in981.4 mb 0.00 in0.0 mm 0.00 in/hr0.0 mm/hr 0.00 in0.0 mm
05:41 AM 53.2°F11.8°C 41.3°F5.2°C 64% Calm Calm -- 28.98 in981.4 mb 0.00 in0.0 mm 0.00 in/hr0.0 mm/hr 0.00 in0.0 mm
05:40 AM 53.4°F11.9°C 41.5°F5.3°C 64% Calm Calm -- 28.99 in981.7 mb 0.00 in0.0 mm 0.00 in/hr0.0 mm/hr 0.00 in0.0 mm
05:39 AM 53.4°F11.9°C 41.5°F5.3°C 64% Calm Calm -- 28.98 in981.4 mb 0.00 in0.0 mm 0.00 in/hr0.0 mm/hr 0.00 in0.0 mm
05:38 AM 53.4°F11.9°C 41.5°F5.3°C 64% Calm Calm -- 28.98 in981.4 mb 0.00 in0.0 mm 0.00 in/hr0.0 mm/hr 0.00 in0.0 mm
05:37 AM 53.4°F11.9°C 41.5°F5.3°C 64% Calm Calm -- 28.98 in981.4 mb 0.00 in0.0 mm 0.00 in/hr0.0 mm/hr 0.00 in0.0 mm
05:36 AM 53.4°F11.9°C 41.5°F5.3°C 64% Calm Calm -- 28.98 in981.4 mb 0.00 in0.0 mm 0.00 in/hr0.0 mm/hr 0.00 in0.0 mm
05:35 AM 53.4°F11.9°C 41.5°F5.3°C 64% Calm Calm -- 28.98 in981.4 mb 0.00 in0.0 mm 0.00 in/hr0.0 mm/hr 0.00 in0.0 mm
05:34 AM 53.4°F11.9°C 41.5°F5.3°C 64% Calm Calm -- 28.98 in981.4 mb 0.00 in0.0 mm 0.00 in/hr0.0 mm/hr 0.00 in0.0 mm
05:33 AM 53.4°F11.9°C 41.5°F5.3°C 64% Calm Calm -- 28.98 in981.4 mb 0.00 in0.0 mm 0.00 in/hr0.0 mm/hr 0.00 in0.0 mm
05:32 AM 53.4°F11.9°C 41.5°F5.3°C 64% Calm Calm -- 28.98 in981.4 mb 0.00 in0.0 mm 0.00 in/hr0.0 mm/hr 0.00 in0.0 mm
05:31 AM 53.4°F11.9°C 41.5°F5.3°C 64% Calm Calm -- 28.98 in981.4 mb 0.00 in0.0 mm 0.00 in/hr0.0 mm/hr 0.00 in0.0 mm
05:30 AM 53.4°F11.9°C 41.5°F5.3°C 64% Calm Calm -- 28.98 in981.4 mb 0.00 in0.0 mm 0.00 in/hr0.0 mm/hr 0.00 in0.0 mm
05:29 AM 53.4°F11.9°C 41.5°F5.3°C 64% Calm Calm -- 28.98 in981.4 mb 0.00 in0.0 mm 0.00 in/hr0.0 mm/hr 0.00 in0.0 mm
05:28 AM 53.4°F11.9°C 41.5°F5.3°C 64% Calm Calm -- 28.98 in981.4 mb 0.00 in0.0 mm 0.00 in/hr0.0 mm/hr 0.00 in0.0 mm
05:27 AM 53.4°F11.9°C 41.5°F5.3°C 64% Calm Calm -- 28.98 in981.4 mb 0.00 in0.0 mm 0.00 in/hr0.0 mm/hr 0.00 in0.0 mm
05:26 AM 53.4°F11.9°C 41.5°F5.3°C 64% Calm Calm -- 28.98 in981.4 mb 0.00 in0.0 mm 0.00 in/hr0.0 mm/hr 0.00 in0.0 mm
05:25 AM 53.4°F11.9°C 41.5°F5.3°C 64% Calm Calm -- 28.98 in981.4 mb 0.00 in0.0 mm 0.00 in/hr0.0 mm/hr 0.00 in0.0 mm
05:24 AM 53.4°F11.9°C 41.9°F5.5°C 65% Calm Calm -- 28.98 in981.4 mb 0.00 in0.0 mm 0.00 in/hr0.0 mm/hr 0.00 in0.0 mm
05:23 AM 53.8°F12.1°C 42.2°F5.7°C 65% Calm Calm -- 28.98 in981.4 mb 0.00 in0.0 mm 0.00 in/hr0.0 mm/hr 0.00 in0.0 mm
05:22 AM 53.8°F12.1°C 42.2°F5.7°C 65% Calm Calm -- 28.98 in981.4 mb 0.00 in0.0 mm 0.00 in/hr0.0 mm/hr 0.00 in0.0 mm
05:21 AM 53.8°F12.1°C 42.2°F5.7°C 65% Calm Calm -- 28.98 in981.4 mb 0.00 in0.0 mm 0.00 in/hr0.0 mm/hr 0.00 in0.0 mm
05:20 AM 53.8°F12.1°C 42.6°F5.9°C 66% Calm Calm -- 28.98 in981.4 mb 0.00 in0.0 mm 0.00 in/hr0.0 mm/hr 0.00 in0.0 mm
05:19 AM 53.8°F12.1°C 42.6°F5.9°C 66% Calm Calm -- 28.98 in981.4 mb 0.00 in0.0 mm 0.00 in/hr0.0 mm/hr 0.00 in0.0 mm
05:18 AM 53.8°F12.1°C 42.6°F5.9°C 66% Calm Calm -- 28.98 in981.4 mb 0.00 in0.0 mm 0.00 in/hr0.0 mm/hr 0.00 in0.0 mm
05:17 AM 53.8°F12.1°C 42.6°F5.9°C 66% Calm Calm -- 28.98 in981.4 mb 0.00 in0.0 mm 0.00 in/hr0.0 mm/hr 0.00 in0.0 mm
05:16 AM 54.0°F12.2°C 42.8°F6.0°C 66% Calm Calm -- 28.98 in981.4 mb 0.00 in0.0 mm 0.00 in/hr0.0 mm/hr 0.00 in0.0 mm
05:15 AM 54.0°F12.2°C 42.8°F6.0°C 66% Calm Calm 0.9 mph1.4 kmh 28.98 in981.4 mb 0.00 in0.0 mm 0.00 in/hr0.0 mm/hr 0.00 in0.0 mm
05:14 AM 54.0°F12.2°C 42.8°F6.0°C 66% Calm Calm 0.9 mph1.4 kmh 28.98 in981.4 mb 0.00 in0.0 mm 0.00 in/hr0.0 mm/hr 0.00 in0.0 mm
05:13 AM 54.0°F12.2°C 42.8°F6.0°C 66% Calm Calm 0.9 mph1.4 kmh 28.98 in981.4 mb 0.00 in0.0 mm 0.00 in/hr0.0 mm/hr 0.00 in0.0 mm
05:12 AM 54.0°F12.2°C 42.4°F5.8°C 65% Calm Calm 0.9 mph1.4 kmh 28.97 in981.0 mb 0.00 in0.0 mm 0.00 in/hr0.0 mm/hr 0.00 in0.0 mm
05:11 AM 54.1°F12.3°C 42.6°F5.9°C 65% Calm Calm 1.3 mph2.1 kmh 28.98 in981.4 mb 0.00 in0.0 mm 0.00 in/hr0.0 mm/hr 0.00 in0.0 mm
05:10 AM 54.1°F12.3°C 42.2°F5.7°C 64% Calm Calm 1.3 mph2.1 kmh 28.98 in981.4 mb 0.00 in0.0 mm 0.00 in/hr0.0 mm/hr 0.00 in0.0 mm
05:09 AM 54.1°F12.3°C 42.2°F5.7°C 64% Calm Calm 1.3 mph2.1 kmh 28.98 in981.4 mb 0.00 in0.0 mm 0.00 in/hr0.0 mm/hr 0.00 in0.0 mm
05:08 AM 54.1°F12.3°C 42.2°F5.7°C 64% Calm Calm 1.3 mph2.1 kmh 28.97 in981.0 mb 0.00 in0.0 mm 0.00 in/hr0.0 mm/hr 0.00 in0.0 mm
05:07 AM 54.1°F12.3°C 42.2°F5.7°C 64% Calm Calm 1.3 mph2.1 kmh 28.97 in981.0 mb 0.00 in0.0 mm 0.00 in/hr0.0 mm/hr 0.00 in0.0 mm
05:06 AM 54.1°F12.3°C 42.2°F5.7°C 64% Calm Calm 1.3 mph2.1 kmh 28.97 in981.0 mb 0.00 in0.0 mm 0.00 in/hr0.0 mm/hr 0.00 in0.0 mm
05:05 AM 54.1°F12.3°C 42.2°F5.7°C 64% Calm Calm 1.3 mph2.1 kmh 28.98 in981.4 mb 0.00 in0.0 mm 0.00 in/hr0.0 mm/hr 0.00 in0.0 mm
05:04 AM 54.1°F12.3°C 42.2°F5.7°C 64% Calm Calm 1.3 mph2.1 kmh 28.97 in981.0 mb 0.00 in0.0 mm 0.00 in/hr0.0 mm/hr 0.00 in0.0 mm
05:03 AM 54.1°F12.3°C 42.2°F5.7°C 64% Calm Calm 1.3 mph2.1 kmh 28.97 in981.0 mb 0.00 in0.0 mm 0.00 in/hr0.0 mm/hr 0.00 in0.0 mm
05:02 AM 54.1°F12.3°C 42.2°F5.7°C 64% 0.9 mph NW1.4 kmh NW 1.3 mph2.1 kmh 28.97 in981.0 mb 0.00 in0.0 mm 0.00 in/hr0.0 mm/hr 0.00 in0.0 mm
05:01 AM 54.1°F12.3°C 42.2°F5.7°C 64% Calm Calm -- 28.97 in981.0 mb 0.00 in0.0 mm 0.00 in/hr0.0 mm/hr 0.00 in0.0 mm
05:00 AM 54.1°F12.3°C 42.2°F5.7°C 64% Calm Calm -- 28.97 in981.0 mb 0.00 in0.0 mm 0.00 in/hr0.0 mm/hr 0.00 in0.0 mm
04:59 AM 54.1°F12.3°C 42.2°F5.7°C 64% Calm Calm -- 28.98 in981.4 mb 0.00 in0.0 mm 0.00 in/hr0.0 mm/hr 0.00 in0.0 mm
04:58 AM 54.1°F12.3°C 42.2°F5.7°C 64% Calm Calm -- 28.98 in981.4 mb 0.00 in0.0 mm 0.00 in/hr0.0 mm/hr 0.00 in0.0 mm
04:57 AM 54.3°F12.4°C 42.3°F5.7°C 64% Calm Calm -- 28.98 in981.4 mb 0.00 in0.0 mm 0.00 in/hr0.0 mm/hr 0.00 in0.0 mm
04:56 AM 54.1°F12.3°C 42.2°F5.7°C 64% Calm Calm -- 28.98 in981.4 mb 0.00 in0.0 mm 0.00 in/hr0.0 mm/hr 0.00 in0.0 mm
04:55 AM 54.3°F12.4°C 42.8°F6.0°C 65% Calm Calm -- 28.98 in981.4 mb 0.00 in0.0 mm 0.00 in/hr0.0 mm/hr 0.00 in0.0 mm
04:54 AM 54.3°F12.4°C 42.8°F6.0°C 65% Calm Calm -- 28.98 in981.4 mb 0.00 in0.0 mm 0.00 in/hr0.0 mm/hr 0.00 in0.0 mm
04:53 AM 54.3°F12.4°C 42.8°F6.0°C 65% Calm Calm -- 28.98 in981.4 mb 0.00 in0.0 mm 0.00 in/hr0.0 mm/hr 0.00 in0.0 mm
04:52 AM 54.3°F12.4°C 42.8°F6.0°C 65% Calm Calm -- 28.98 in981.4 mb 0.00 in0.0 mm 0.00 in/hr0.0 mm/hr 0.00 in0.0 mm
04:51 AM 54.3°F12.4°C 42.8°F6.0°C 65% Calm Calm -- 28.98 in981.4 mb 0.00 in0.0 mm 0.00 in/hr0.0 mm/hr 0.00 in0.0 mm
04:50 AM 54.3°F12.4°C 42.8°F6.0°C 65% Calm Calm -- 28.97 in981.0 mb 0.00 in0.0 mm 0.00 in/hr0.0 mm/hr 0.00 in0.0 mm
04:49 AM 54.5°F12.5°C 43.3°F6.3°C 66% Calm Calm -- 28.97 in981.0 mb 0.00 in0.0 mm 0.00 in/hr0.0 mm/hr 0.00 in0.0 mm
04:48 AM 54.5°F12.5°C 43.3°F6.3°C 66% Calm Calm -- 28.98 in981.4 mb 0.00 in0.0 mm 0.00 in/hr0.0 mm/hr 0.00 in0.0 mm
04:47 AM 54.5°F12.5°C 42.9°F6.1°C 65% Calm Calm -- 28.98 in981.4 mb 0.00 in0.0 mm 0.00 in/hr0.0 mm/hr 0.00 in0.0 mm
04:46 AM 54.5°F12.5°C 42.5°F5.8°C 64% Calm Calm -- 28.97 in981.0 mb 0.00 in0.0 mm 0.00 in/hr0.0 mm/hr 0.00 in0.0 mm
04:45 AM 54.5°F12.5°C 42.1°F5.6°C 63% Calm Calm -- 28.97 in981.0 mb 0.00 in0.0 mm 0.00 in/hr0.0 mm/hr 0.00 in0.0 mm
04:44 AM 54.5°F12.5°C 42.1°F5.6°C 63% Calm Calm -- 28.97 in981.0 mb 0.00 in0.0 mm 0.00 in/hr0.0 mm/hr 0.00 in0.0 mm
04:43 AM 54.5°F12.5°C 42.1°F5.6°C 63% Calm Calm -- 28.97 in981.0 mb 0.00 in0.0 mm 0.00 in/hr0.0 mm/hr 0.00 in0.0 mm
04:42 AM 54.5°F12.5°C 42.1°F5.6°C 63% Calm Calm -- 28.97 in981.0 mb 0.00 in0.0 mm 0.00 in/hr0.0 mm/hr 0.00 in0.0 mm
04:41 AM 54.7°F12.6°C 42.3°F5.7°C 63% Calm Calm -- 28.97 in981.0 mb 0.00 in0.0 mm 0.00 in/hr0.0 mm/hr 0.00 in0.0 mm
04:40 AM 54.5°F12.5°C 42.1°F5.6°C 63% Calm Calm -- 28.97 in981.0 mb 0.00 in0.0 mm 0.00 in/hr0.0 mm/hr 0.00 in0.0 mm
04:39 AM 54.7°F12.6°C 42.3°F5.7°C 63% Calm Calm -- 28.97 in981.0 mb 0.00 in0.0 mm 0.00 in/hr0.0 mm/hr 0.00 in0.0 mm
04:38 AM 54.7°F12.6°C 42.3°F5.7°C 63% Calm Calm -- 28.97 in981.0 mb 0.00 in0.0 mm 0.00 in/hr0.0 mm/hr 0.00 in0.0 mm
04:37 AM 54.7°F12.6°C 42.3°F5.7°C 63% Calm Calm -- 28.97 in981.0 mb 0.00 in0.0 mm 0.00 in/hr0.0 mm/hr 0.00 in0.0 mm
04:36 AM 54.7°F12.6°C 42.3°F5.7°C 63% Calm Calm -- 28.97 in981.0 mb 0.00 in0.0 mm 0.00 in/hr0.0 mm/hr 0.00 in0.0 mm
04:35 AM 54.7°F12.6°C 42.3°F5.7°C 63% Calm Calm -- 28.97 in981.0 mb 0.00 in0.0 mm 0.00 in/hr0.0 mm/hr 0.00 in0.0 mm
04:34 AM 54.7°F12.6°C 42.3°F5.7°C 63% Calm Calm 1.1 mph1.8 kmh 28.97 in981.0 mb 0.00 in0.0 mm 0.00 in/hr0.0 mm/hr 0.00 in0.0 mm
04:33 AM 54.7°F12.6°C 42.3°F5.7°C 63% Calm Calm 2.0 mph3.2 kmh 28.97 in981.0 mb 0.00 in0.0 mm 0.00 in/hr0.0 mm/hr 0.00 in0.0 mm
04:32 AM 54.7°F12.6°C 42.7°F5.9°C 64% Calm Calm 2.0 mph3.2 kmh 28.97 in981.0 mb 0.00 in0.0 mm 0.00 in/hr0.0 mm/hr 0.00 in0.0 mm
04:31 AM 54.7°F12.6°C 42.7°F5.9°C 64% Calm Calm 2.0 mph3.2 kmh 28.97 in981.0 mb 0.00 in0.0 mm 0.00 in/hr0.0 mm/hr 0.00 in0.0 mm
04:30 AM 54.7°F12.6°C 42.7°F5.9°C 64% Calm Calm 2.0 mph3.2 kmh 28.97 in981.0 mb 0.00 in0.0 mm 0.00 in/hr0.0 mm/hr 0.00 in0.0 mm
04:29 AM 54.7°F12.6°C 42.7°F5.9°C 64% Calm Calm 2.0 mph3.2 kmh 28.97 in981.0 mb 0.00 in0.0 mm 0.00 in/hr0.0 mm/hr 0.00 in0.0 mm
04:28 AM 54.7°F12.6°C 42.7°F5.9°C 64% Calm Calm 2.0 mph3.2 kmh 28.97 in981.0 mb 0.00 in0.0 mm 0.00 in/hr0.0 mm/hr 0.00 in0.0 mm
04:27 AM 54.7°F12.6°C 42.7°F5.9°C 64% Calm Calm 2.0 mph3.2 kmh 28.97 in981.0 mb 0.00 in0.0 mm 0.00 in/hr0.0 mm/hr 0.00 in0.0 mm
04:26 AM 54.7°F12.6°C 43.1°F6.2°C 65% Calm Calm 2.0 mph3.2 kmh 28.97 in981.0 mb 0.00 in0.0 mm 0.00 in/hr0.0 mm/hr 0.00 in0.0 mm
04:25 AM 54.7°F12.6°C 43.1°F6.2°C 65% Calm Calm 2.0 mph3.2 kmh 28.97 in981.0 mb 0.00 in0.0 mm 0.00 in/hr0.0 mm/hr 0.00 in0.0 mm
04:24 AM 54.7°F12.6°C 42.7°F5.9°C 64% 2.0 mph SW3.2 kmh SW 2.0 mph3.2 kmh 28.97 in981.0 mb 0.00 in0.0 mm 0.00 in/hr0.0 mm/hr 0.00 in0.0 mm
04:23 AM 54.7°F12.6°C 42.7°F5.9°C 64% Calm Calm 1.8 mph2.9 kmh 28.97 in981.0 mb 0.00 in0.0 mm 0.00 in/hr0.0 mm/hr 0.00 in0.0 mm
04:22 AM 54.9°F12.7°C 42.9°F6.1°C 64% 0.9 mph SW1.4 kmh SW 1.8 mph2.9 kmh 28.97 in981.0 mb 0.00 in0.0 mm 0.00 in/hr0.0 mm/hr 0.00 in0.0 mm
04:21 AM 54.7°F12.6°C 42.7°F5.9°C 64% Calm Calm 1.8 mph2.9 kmh 28.97 in981.0 mb 0.00 in0.0 mm 0.00 in/hr0.0 mm/hr 0.00 in0.0 mm
04:20 AM 54.9°F12.7°C 42.9°F6.1°C 64% 0.9 mph SSW1.4 kmh SSW 1.8 mph2.9 kmh 28.97 in981.0 mb 0.00 in0.0 mm 0.00 in/hr0.0 mm/hr 0.00 in0.0 mm
04:19 AM 54.9°F12.7°C 42.9°F6.1°C 64% Calm Calm 1.8 mph2.9 kmh 28.97 in981.0 mb 0.00 in0.0 mm 0.00 in/hr0.0 mm/hr 0.00 in0.0 mm
04:18 AM 54.9°F12.7°C 42.9°F6.1°C 64% 1.1 mph SSW1.8 kmh SSW 1.8 mph2.9 kmh 28.97 in981.0 mb 0.00 in0.0 mm 0.00 in/hr0.0 mm/hr 0.00 in0.0 mm
04:17 AM 55.0°F12.8°C 43.0°F6.1°C 64% Calm Calm 0.7 mph1.1 kmh 28.97 in981.0 mb 0.00 in0.0 mm 0.00 in/hr0.0 mm/hr 0.00 in0.0 mm
04:16 AM 54.9°F12.7°C 42.9°F6.1°C 64% 0.7 mph SSW1.1 kmh SSW 0.7 mph1.1 kmh 28.97 in981.0 mb 0.00 in0.0 mm 0.00 in/hr0.0 mm/hr 0.00 in0.0 mm
04:15 AM 55.0°F12.8°C 43.4°F6.3°C 65% Calm Calm -- 28.97 in981.0 mb 0.00 in0.0 mm 0.00 in/hr0.0 mm/hr 0.00 in0.0 mm
04:14 AM 54.9°F12.7°C 43.3°F6.3°C 65% Calm Calm -- 28.97 in981.0 mb 0.00 in0.0 mm 0.00 in/hr0.0 mm/hr 0.00 in0.0 mm
04:13 AM 54.9°F12.7°C 43.3°F6.3°C 65% Calm Calm -- 28.97 in981.0 mb 0.00 in0.0 mm 0.00 in/hr0.0 mm/hr 0.00 in0.0 mm
04:12 AM 55.0°F12.8°C 43.4°F6.3°C 65% Calm Calm -- 28.97 in981.0 mb 0.00 in0.0 mm 0.00 in/hr0.0 mm/hr 0.00 in0.0 mm
04:11 AM 55.0°F12.8°C 43.0°F6.1°C 64% Calm Calm -- 28.97 in981.0 mb 0.00 in0.0 mm 0.00 in/hr0.0 mm/hr 0.00 in0.0 mm
04:10 AM 55.0°F12.8°C 43.0°F6.1°C 64% Calm Calm -- 28.97 in981.0 mb 0.00 in0.0 mm 0.00 in/hr0.0 mm/hr 0.00 in0.0 mm
04:09 AM 55.0°F12.8°C 43.0°F6.1°C 64% Calm Calm -- 28.97 in981.0 mb 0.00 in0.0 mm 0.00 in/hr0.0 mm/hr 0.00 in0.0 mm
04:08 AM 55.0°F12.8°C 43.0°F6.1°C 64% Calm Calm -- 28.97 in981.0 mb 0.00 in0.0 mm 0.00 in/hr0.0 mm/hr 0.00 in0.0 mm
04:07 AM 55.0°F12.8°C 43.0°F6.1°C 64% Calm Calm -- 28.97 in981.0 mb 0.00 in0.0 mm 0.00 in/hr0.0 mm/hr 0.00 in0.0 mm
04:06 AM 55.0°F12.8°C 43.0°F6.1°C 64% Calm Calm -- 28.97 in981.0 mb 0.00 in0.0 mm 0.00 in/hr0.0 mm/hr 0.00 in0.0 mm
04:05 AM 55.0°F12.8°C 43.0°F6.1°C 64% Calm Calm -- 28.97 in981.0 mb 0.00 in0.0 mm 0.00 in/hr0.0 mm/hr 0.00 in0.0 mm
04:04 AM 55.0°F12.8°C 43.0°F6.1°C 64% Calm Calm -- 28.97 in981.0 mb 0.00 in0.0 mm 0.00 in/hr0.0 mm/hr 0.00 in0.0 mm
04:03 AM 55.0°F12.8°C 43.4°F6.3°C 65% Calm Calm -- 28.97 in981.0 mb 0.00 in0.0 mm 0.00 in/hr0.0 mm/hr 0.00 in0.0 mm
04:02 AM 55.0°F12.8°C 43.4°F6.3°C 65% Calm Calm -- 28.97 in981.0 mb 0.00 in0.0 mm 0.00 in/hr0.0 mm/hr 0.00 in0.0 mm
04:01 AM 55.0°F12.8°C 43.4°F6.3°C 65% Calm Calm -- 28.97 in981.0 mb 0.00 in0.0 mm 0.00 in/hr0.0 mm/hr 0.00 in0.0 mm
04:00 AM 55.0°F12.8°C 43.4°F6.3°C 65% Calm Calm -- 28.97 in981.0 mb 0.00 in0.0 mm 0.00 in/hr0.0 mm/hr 0.00 in0.0 mm
03:59 AM 55.0°F12.8°C 43.4°F6.3°C 65% Calm Calm 1.6 mph2.6 kmh 28.97 in981.0 mb 0.00 in0.0 mm 0.00 in/hr0.0 mm/hr 0.00 in0.0 mm
03:58 AM 55.0°F12.8°C 43.4°F6.3°C 65% Calm Calm 1.6 mph2.6 kmh 28.97 in981.0 mb 0.00 in0.0 mm 0.00 in/hr0.0 mm/hr 0.00 in0.0 mm
03:57 AM 55.0°F12.8°C 43.4°F6.3°C 65% Calm Calm 1.6 mph2.6 kmh 28.97 in981.0 mb 0.00 in0.0 mm 0.00 in/hr0.0 mm/hr 0.00 in0.0 mm
03:56 AM 55.0°F12.8°C 43.4°F6.3°C 65% Calm Calm 1.6 mph2.6 kmh 28.97 in981.0 mb 0.00 in0.0 mm 0.00 in/hr0.0 mm/hr 0.00 in0.0 mm
03:55 AM 55.2°F12.9°C 43.2°F6.2°C 64% Calm Calm 1.6 mph2.6 kmh 28.97 in981.0 mb 0.00 in0.0 mm 0.00 in/hr0.0 mm/hr 0.00 in0.0 mm
03:54 AM 55.2°F12.9°C 43.6°F6.4°C 65% Calm Calm 1.6 mph2.6 kmh 28.97 in981.0 mb 0.00 in0.0 mm 0.00 in/hr0.0 mm/hr 0.00 in0.0 mm
03:53 AM 55.2°F12.9°C 43.6°F6.4°C 65% Calm Calm 1.6 mph2.6 kmh 28.97 in981.0 mb 0.00 in0.0 mm 0.00 in/hr0.0 mm/hr 0.00 in0.0 mm
03:52 AM 55.2°F12.9°C 43.6°F6.4°C 65% Calm Calm 1.6 mph2.6 kmh 28.97 in981.0 mb 0.00 in0.0 mm 0.00 in/hr0.0 mm/hr 0.00 in0.0 mm
03:51 AM 55.2°F12.9°C 43.6°F6.4°C 65% Calm Calm 1.6 mph2.6 kmh 28.97 in981.0 mb 0.00 in0.0 mm 0.00 in/hr0.0 mm/hr 0.00 in0.0 mm
03:50 AM 55.2°F12.9°C 43.6°F6.4°C 65% Calm Calm 2.2 mph3.5 kmh 28.97 in981.0 mb 0.00 in0.0 mm 0.00 in/hr0.0 mm/hr 0.00 in0.0 mm
03:49 AM 55.2°F12.9°C 43.6°F6.4°C 65% Calm Calm 2.2 mph3.5 kmh 28.97 in981.0 mb 0.00 in0.0 mm 0.00 in/hr0.0 mm/hr 0.00 in0.0 mm
03:48 AM 55.2°F12.9°C 43.6°F6.4°C 65% Calm Calm 2.2 mph3.5 kmh 28.97 in981.0 mb 0.00 in0.0 mm 0.00 in/hr0.0 mm/hr 0.00 in0.0 mm
03:47 AM 55.2°F12.9°C 43.6°F6.4°C 65% Calm Calm 2.2 mph3.5 kmh 28.97 in981.0 mb 0.00 in0.0 mm 0.00 in/hr0.0 mm/hr 0.00 in0.0 mm
03:46 AM 55.2°F12.9°C 43.6°F6.4°C 65% Calm Calm 2.2 mph3.5 kmh 28.97 in981.0 mb 0.00 in0.0 mm 0.00 in/hr0.0 mm/hr 0.00 in0.0 mm
03:45 AM 55.2°F12.9°C 43.6°F6.4°C 65% Calm Calm 2.2 mph3.5 kmh 28.97 in981.0 mb 0.00 in0.0 mm 0.00 in/hr0.0 mm/hr 0.00 in0.0 mm
03:44 AM 55.2°F12.9°C 43.6°F6.4°C 65% Calm Calm 2.2 mph3.5 kmh 28.97 in981.0 mb 0.00 in0.0 mm 0.00 in/hr0.0 mm/hr 0.00 in0.0 mm
03:43 AM 55.2°F12.9°C 43.6°F6.4°C 65% Calm Calm 2.2 mph3.5 kmh 28.97 in981.0 mb 0.00 in0.0 mm 0.00 in/hr0.0 mm/hr 0.00 in0.0 mm
03:42 AM 55.2°F12.9°C 43.6°F6.4°C 65% Calm Calm 2.2 mph3.5 kmh 28.97 in981.0 mb 0.00 in0.0 mm 0.00 in/hr0.0 mm/hr 0.00 in0.0 mm
03:41 AM 55.2°F12.9°C 43.6°F6.4°C 65% Calm Calm 2.2 mph3.5 kmh 28.97 in981.0 mb 0.00 in0.0 mm 0.00 in/hr0.0 mm/hr 0.00 in0.0 mm
03:40 AM 55.2°F12.9°C 43.6°F6.4°C 65% 1.3 mph SW2.1 kmh SW 1.8 mph2.9 kmh 28.97 in981.0 mb 0.00 in0.0 mm 0.00 in/hr0.0 mm/hr 0.00 in0.0 mm
03:39 AM 55.4°F13.0°C 43.4°F6.3°C 64% Calm Calm 1.8 mph2.9 kmh 28.97 in981.0 mb 0.00 in0.0 mm 0.00 in/hr0.0 mm/hr 0.00 in0.0 mm
03:38 AM 55.4°F13.0°C 43.4°F6.3°C 64% Calm Calm -- 28.97 in981.0 mb 0.00 in0.0 mm 0.00 in/hr0.0 mm/hr 0.00 in0.0 mm
03:37 AM 55.4°F13.0°C 43.4°F6.3°C 64% Calm Calm -- 28.97 in981.0 mb 0.00 in0.0 mm 0.00 in/hr0.0 mm/hr 0.00 in0.0 mm
03:36 AM 55.4°F13.0°C 43.4°F6.3°C 64% Calm Calm -- 28.97 in981.0 mb 0.00 in0.0 mm 0.00 in/hr0.0 mm/hr 0.00 in0.0 mm
03:35 AM 55.4°F13.0°C 43.4°F6.3°C 64% Calm Calm -- 28.97 in981.0 mb 0.00 in0.0 mm 0.00 in/hr0.0 mm/hr 0.00 in0.0 mm
03:34 AM 55.6°F13.1°C 43.5°F6.4°C 64% Calm Calm -- 28.97 in981.0 mb 0.00 in0.0 mm 0.00 in/hr0.0 mm/hr 0.00 in0.0 mm
03:33 AM 55.6°F13.1°C 43.5°F6.4°C 64% Calm Calm -- 28.97 in981.0 mb 0.00 in0.0 mm 0.00 in/hr0.0 mm/hr 0.00 in0.0 mm
03:32 AM 55.6°F13.1°C 43.1°F6.2°C 63% Calm Calm -- 28.97 in981.0 mb 0.00 in0.0 mm 0.00 in/hr0.0 mm/hr 0.00 in0.0 mm
03:31 AM 55.6°F13.1°C 42.7°F5.9°C 62% Calm Calm -- 28.97 in981.0 mb 0.00 in0.0 mm 0.00 in/hr0.0 mm/hr 0.00 in0.0 mm
03:30 AM 55.6°F13.1°C 42.7°F5.9°C 62% Calm Calm -- 28.97 in981.0 mb 0.00 in0.0 mm 0.00 in/hr0.0 mm/hr 0.00 in0.0 mm
03:29 AM 55.6°F13.1°C 42.7°F5.9°C 62% Calm Calm -- 28.97 in981.0 mb 0.00 in0.0 mm 0.00 in/hr0.0 mm/hr 0.00 in0.0 mm
03:28 AM 55.6°F13.1°C 43.1°F6.2°C 63% Calm Calm -- 28.97 in981.0 mb 0.00 in0.0 mm 0.00 in/hr0.0 mm/hr 0.00 in0.0 mm
03:27 AM 55.6°F13.1°C 43.1°F6.2°C 63% Calm Calm -- 28.97 in981.0 mb 0.00 in0.0 mm 0.00 in/hr0.0 mm/hr 0.00 in0.0 mm
03:26 AM 55.6°F13.1°C 43.1°F6.2°C 63% Calm Calm -- 28.97 in981.0 mb 0.00 in0.0 mm 0.00 in/hr0.0 mm/hr 0.00 in0.0 mm
03:25 AM 55.6°F13.1°C 43.1°F6.2°C 63% Calm Calm -- 28.97 in981.0 mb 0.00 in0.0 mm 0.00 in/hr0.0 mm/hr 0.00 in0.0 mm
03:24 AM 55.6°F13.1°C 43.1°F6.2°C 63% Calm Calm -- 28.97 in981.0 mb 0.00 in0.0 mm 0.00 in/hr0.0 mm/hr 0.00 in0.0 mm
03:23 AM 55.8°F13.2°C 43.3°F6.3°C 63% Calm Calm -- 28.97 in981.0 mb 0.00 in0.0 mm 0.00 in/hr0.0 mm/hr 0.00 in0.0 mm
03:22 AM 55.8°F13.2°C 43.3°F6.3°C 63% Calm Calm -- 28.97 in981.0 mb 0.00 in0.0 mm 0.00 in/hr0.0 mm/hr 0.00 in0.0 mm
03:21 AM 55.8°F13.2°C 43.3°F6.3°C 63% Calm Calm -- 28.97 in981.0 mb 0.00 in0.0 mm 0.00 in/hr0.0 mm/hr 0.00 in0.0 mm
03:20 AM 55.8°F13.2°C 43.3°F6.3°C 63% Calm Calm 0.4 mph0.6 kmh 28.97 in981.0 mb 0.00 in0.0 mm 0.00 in/hr0.0 mm/hr 0.00 in0.0 mm
03:19 AM 55.8°F13.2°C 43.3°F6.3°C 63% Calm Calm 0.4 mph0.6 kmh 28.97 in981.0 mb 0.00 in0.0 mm 0.00 in/hr0.0 mm/hr 0.00 in0.0 mm
03:18 AM 55.8°F13.2°C 43.3°F6.3°C 63% Calm Calm 2.2 mph3.5 kmh 28.97 in981.0 mb 0.00 in0.0 mm 0.00 in/hr0.0 mm/hr 0.00 in0.0 mm
03:17 AM 55.8°F13.2°C 43.3°F6.3°C 63% Calm Calm 2.2 mph3.5 kmh 28.97 in981.0 mb 0.00 in0.0 mm 0.00 in/hr0.0 mm/hr 0.00 in0.0 mm
03:16 AM 55.8°F13.2°C 43.3°F6.3°C 63% Calm Calm 2.2 mph3.5 kmh 28.97 in981.0 mb 0.00 in0.0 mm 0.00 in/hr0.0 mm/hr 0.00 in0.0 mm
03:15 AM 55.8°F13.2°C 43.3°F6.3°C 63% Calm Calm 2.2 mph3.5 kmh 28.98 in981.4 mb 0.00 in0.0 mm 0.00 in/hr0.0 mm/hr 0.00 in0.0 mm
03:14 AM 55.8°F13.2°C 43.3°F6.3°C 63% Calm Calm 2.2 mph3.5 kmh 28.98 in981.4 mb 0.00 in0.0 mm 0.00 in/hr0.0 mm/hr 0.00 in0.0 mm
03:13 AM 55.8°F13.2°C 43.3°F6.3°C 63% Calm Calm 2.2 mph3.5 kmh 28.98 in981.4 mb 0.00 in0.0 mm 0.00 in/hr0.0 mm/hr 0.00 in0.0 mm
03:12 AM 55.9°F13.3°C 43.9°F6.6°C 64% Calm Calm 2.2 mph3.5 kmh 28.98 in981.4 mb 0.00 in0.0 mm 0.00 in/hr0.0 mm/hr 0.00 in0.0 mm
03:11 AM 55.9°F13.3°C 43.9°F6.6°C 64% Calm Calm 2.2 mph3.5 kmh 28.98 in981.4 mb 0.00 in0.0 mm 0.00 in/hr0.0 mm/hr 0.00 in0.0 mm
03:10 AM 55.9°F13.3°C 43.9°F6.6°C 64% Calm Calm 2.2 mph3.5 kmh 28.98 in981.4 mb 0.00 in0.0 mm 0.00 in/hr0.0 mm/hr 0.00 in0.0 mm
03:09 AM 55.9°F13.3°C 43.9°F6.6°C 64% 1.1 mph SW1.8 kmh SW 2.2 mph3.5 kmh 28.98 in981.4 mb 0.00 in0.0 mm 0.00 in/hr0.0 mm/hr 0.00 in0.0 mm
03:08 AM 55.9°F13.3°C 43.9°F6.6°C 64% Calm Calm 1.8 mph2.9 kmh 28.98 in981.4 mb 0.00 in0.0 mm 0.00 in/hr0.0 mm/hr 0.00 in0.0 mm
03:07 AM 55.9°F13.3°C 43.9°F6.6°C 64% Calm Calm 1.8 mph2.9 kmh 28.98 in981.4 mb 0.00 in0.0 mm 0.00 in/hr0.0 mm/hr 0.00 in0.0 mm
03:06 AM 55.9°F13.3°C 43.9°F6.6°C 64% Calm Calm 1.8 mph2.9 kmh 28.98 in981.4 mb 0.00 in0.0 mm 0.00 in/hr0.0 mm/hr 0.00 in0.0 mm
03:05 AM 55.9°F13.3°C 44.3°F6.8°C 65% Calm Calm 1.8 mph2.9 kmh 28.98 in981.4 mb 0.00 in0.0 mm 0.00 in/hr0.0 mm/hr 0.00 in0.0 mm
03:04 AM 55.9°F13.3°C 44.3°F6.8°C 65% Calm Calm 3.4 mph5.5 kmh 28.98 in981.4 mb 0.00 in0.0 mm 0.00 in/hr0.0 mm/hr 0.00 in0.0 mm
03:03 AM 55.9°F13.3°C 43.9°F6.6°C 64% Calm Calm 3.4 mph5.5 kmh 28.98 in981.4 mb 0.00 in0.0 mm 0.00 in/hr0.0 mm/hr 0.00 in0.0 mm
03:02 AM 55.9°F13.3°C 43.9°F6.6°C 64% Calm Calm 3.4 mph5.5 kmh 28.98 in981.4 mb 0.00 in0.0 mm 0.00 in/hr0.0 mm/hr 0.00 in0.0 mm
03:01 AM 55.9°F13.3°C 43.9°F6.6°C 64% Calm Calm 3.4 mph5.5 kmh 28.98 in981.4 mb 0.00 in0.0 mm 0.00 in/hr0.0 mm/hr 0.00 in0.0 mm
03:00 AM 55.9°F13.3°C 43.9°F6.6°C 64% 1.8 mph SW2.9 kmh SW 3.4 mph5.5 kmh 28.98 in981.4 mb 0.00 in0.0 mm 0.00 in/hr0.0 mm/hr 0.00 in0.0 mm
02:59 AM 55.9°F13.3°C 43.9°F6.6°C 64% Calm Calm 3.4 mph5.5 kmh 28.98 in981.4 mb 0.00 in0.0 mm 0.00 in/hr0.0 mm/hr 0.00 in0.0 mm
02:58 AM 56.1°F13.4°C 44.1°F6.7°C 64% Calm Calm 3.4 mph5.5 kmh 28.98 in981.4 mb 0.00 in0.0 mm 0.00 in/hr0.0 mm/hr 0.00 in0.0 mm
02:57 AM 56.1°F13.4°C 44.1°F6.7°C 64% Calm Calm 3.4 mph5.5 kmh 28.98 in981.4 mb 0.00 in0.0 mm 0.00 in/hr0.0 mm/hr 0.00 in0.0 mm
02:56 AM 56.1°F13.4°C 44.1°F6.7°C 64% Calm Calm 3.4 mph5.5 kmh 28.98 in981.4 mb 0.00 in0.0 mm 0.00 in/hr0.0 mm/hr 0.00 in0.0 mm
02:55 AM 56.1°F13.4°C 44.5°F6.9°C 65% 0.7 mph SW1.1 kmh SW 3.4 mph5.5 kmh 28.98 in981.4 mb 0.00 in0.0 mm 0.00 in/hr0.0 mm/hr 0.00 in0.0 mm
02:54 AM 56.1°F13.4°C 44.5°F6.9°C 65% Calm Calm 2.7 mph4.3 kmh 28.98 in981.4 mb 0.00 in0.0 mm 0.00 in/hr0.0 mm/hr 0.00 in0.0 mm
02:53 AM 56.1°F13.4°C 44.1°F6.7°C 64% 2.7 mph SW4.3 kmh SW 2.7 mph4.3 kmh 28.98 in981.4 mb 0.00 in0.0 mm 0.00 in/hr0.0 mm/hr 0.00 in0.0 mm
02:52 AM 56.1°F13.4°C 44.1°F6.7°C 64% Calm Calm 2.2 mph3.5 kmh 28.98 in981.4 mb 0.00 in0.0 mm 0.00 in/hr0.0 mm/hr 0.00 in0.0 mm
02:51 AM 56.1°F13.4°C 44.1°F6.7°C 64% Calm Calm 2.2 mph3.5 kmh 28.98 in981.4 mb 0.00 in0.0 mm 0.00 in/hr0.0 mm/hr 0.00 in0.0 mm
02:50 AM 56.1°F13.4°C 44.1°F6.7°C 64% Calm Calm 2.2 mph3.5 kmh 28.98 in981.4 mb 0.00 in0.0 mm 0.00 in/hr0.0 mm/hr 0.00 in0.0 mm
02:49 AM 56.1°F13.4°C 44.1°F6.7°C 64% 1.3 mph SW2.1 kmh SW 2.9 mph4.7 kmh 28.98 in981.4 mb 0.00 in0.0 mm 0.00 in/hr0.0 mm/hr 0.00 in0.0 mm
02:48 AM 56.1°F13.4°C 44.1°F6.7°C 64% Calm Calm 4.9 mph7.9 kmh 28.98 in981.4 mb 0.00 in0.0 mm 0.00 in/hr0.0 mm/hr 0.00 in0.0 mm
02:47 AM 56.1°F13.4°C 44.1°F6.7°C 64% Calm Calm 4.9 mph7.9 kmh 28.98 in981.4 mb 0.00 in0.0 mm 0.00 in/hr0.0 mm/hr 0.00 in0.0 mm
02:46 AM 56.1°F13.4°C 44.1°F6.7°C 64% Calm Calm 4.9 mph7.9 kmh 28.98 in981.4 mb 0.00 in0.0 mm 0.00 in/hr0.0 mm/hr 0.00 in0.0 mm
02:45 AM 56.1°F13.4°C 44.1°F6.7°C 64% Calm Calm 4.9 mph7.9 kmh 28.98 in981.4 mb 0.00 in0.0 mm 0.00 in/hr0.0 mm/hr 0.00 in0.0 mm
02:44 AM 56.1°F13.4°C 44.1°F6.7°C 64% Calm Calm 4.9 mph7.9 kmh 28.98 in981.4 mb 0.00 in0.0 mm 0.00 in/hr0.0 mm/hr 0.00 in0.0 mm
02:43 AM 56.1°F13.4°C 44.1°F6.7°C 64% Calm Calm 4.9 mph7.9 kmh 28.98 in981.4 mb 0.00 in0.0 mm 0.00 in/hr0.0 mm/hr 0.00 in0.0 mm
02:42 AM 56.3°F13.5°C 44.2°F6.8°C 64% Calm Calm 4.9 mph7.9 kmh 28.98 in981.4 mb 0.00 in0.0 mm 0.00 in/hr0.0 mm/hr 0.00 in0.0 mm
02:41 AM 56.3°F13.5°C 44.2°F6.8°C 64% 0.9 mph SW1.4 kmh SW 4.9 mph7.9 kmh 28.98 in981.4 mb 0.00 in0.0 mm 0.00 in/hr0.0 mm/hr 0.00 in0.0 mm
02:40 AM 56.3°F13.5°C 44.2°F6.8°C 64% 0.9 mph SW1.4 kmh SW 4.9 mph7.9 kmh 28.98 in981.4 mb 0.00 in0.0 mm 0.00 in/hr0.0 mm/hr 0.00 in0.0 mm
02:39 AM 56.3°F13.5°C 44.2°F6.8°C 64% 1.6 mph SW2.6 kmh SW 4.9 mph7.9 kmh 28.98 in981.4 mb 0.00 in0.0 mm 0.00 in/hr0.0 mm/hr 0.00 in0.0 mm
02:38 AM 56.3°F13.5°C 44.2°F6.8°C 64% 1.8 mph SW2.9 kmh SW 4.5 mph7.2 kmh 28.98 in981.4 mb 0.00 in0.0 mm 0.00 in/hr0.0 mm/hr 0.00 in0.0 mm
02:37 AM 56.3°F13.5°C 44.2°F6.8°C 64% 1.3 mph SW2.1 kmh SW 3.6 mph5.8 kmh 28.98 in981.4 mb 0.00 in0.0 mm 0.00 in/hr0.0 mm/hr 0.00 in0.0 mm
02:36 AM 56.3°F13.5°C 44.2°F6.8°C 64% Calm Calm 3.6 mph5.8 kmh 28.98 in981.4 mb 0.00 in0.0 mm 0.00 in/hr0.0 mm/hr 0.00 in0.0 mm
02:35 AM 56.3°F13.5°C 44.2°F6.8°C 64% 2.9 mph SSW4.7 kmh SSW 3.6 mph5.8 kmh 28.98 in981.4 mb 0.00 in0.0 mm 0.00 in/hr0.0 mm/hr 0.00 in0.0 mm
02:34 AM 56.3°F13.5°C 44.2°F6.8°C 64% Calm Calm 3.6 mph5.8 kmh 28.98 in981.4 mb 0.00 in0.0 mm 0.00 in/hr0.0 mm/hr 0.00 in0.0 mm
02:33 AM 56.3°F13.5°C 44.2°F6.8°C 64% Calm Calm 3.6 mph5.8 kmh 28.98 in981.4 mb 0.00 in0.0 mm 0.00 in/hr0.0 mm/hr 0.00 in0.0 mm
02:32 AM 56.3°F13.5°C 44.2°F6.8°C 64% 1.6 mph SSW2.6 kmh SSW 3.6 mph5.8 kmh 28.98 in981.4 mb 0.00 in0.0 mm 0.00 in/hr0.0 mm/hr 0.00 in0.0 mm
02:31 AM 56.3°F13.5°C 44.2°F6.8°C 64% 0.7 mph SSW1.1 kmh SSW 5.4 mph8.7 kmh 28.98 in981.4 mb 0.00 in0.0 mm 0.00 in/hr0.0 mm/hr 0.00 in0.0 mm
02:30 AM 56.5°F13.6°C 44.4°F6.9°C 64% 0.7 mph SW1.1 kmh SW 5.4 mph8.7 kmh 28.98 in981.4 mb 0.00 in0.0 mm 0.00 in/hr0.0 mm/hr 0.00 in0.0 mm
02:29 AM 56.3°F13.5°C 44.2°F6.8°C 64% Calm Calm 5.4 mph8.7 kmh 28.98 in981.4 mb 0.00 in0.0 mm 0.00 in/hr0.0 mm/hr 0.00 in0.0 mm
02:28 AM 56.3°F13.5°C 44.2°F6.8°C 64% 3.6 mph SW5.8 kmh SW 5.4 mph8.7 kmh 28.98 in981.4 mb 0.00 in0.0 mm 0.00 in/hr0.0 mm/hr 0.00 in0.0 mm
02:27 AM 56.5°F13.6°C 44.4°F6.9°C 64% Calm Calm 5.4 mph8.7 kmh 28.98 in981.4 mb 0.00 in0.0 mm 0.00 in/hr0.0 mm/hr 0.00 in0.0 mm
02:26 AM 56.5°F13.6°C 44.4°F6.9°C 64% 1.3 mph SW2.1 kmh SW 5.4 mph8.7 kmh 28.98 in981.4 mb 0.00 in0.0 mm 0.00 in/hr0.0 mm/hr 0.00 in0.0 mm
02:25 AM 56.5°F13.6°C 44.0°F6.7°C 63% 0.7 mph SW1.1 kmh SW 5.4 mph8.7 kmh 28.98 in981.4 mb 0.00 in0.0 mm 0.00 in/hr0.0 mm/hr 0.00 in0.0 mm
02:24 AM 56.5°F13.6°C 44.0°F6.7°C 63% 1.6 mph SW2.6 kmh SW 5.4 mph8.7 kmh 28.98 in981.4 mb 0.00 in0.0 mm 0.00 in/hr0.0 mm/hr 0.00 in0.0 mm
02:23 AM 56.5°F13.6°C 44.4°F6.9°C 64% 3.4 mph SW5.5 kmh SW 5.4 mph8.7 kmh 28.98 in981.4 mb 0.00 in0.0 mm 0.00 in/hr0.0 mm/hr 0.00 in0.0 mm
02:22 AM 56.5°F13.6°C 44.4°F6.9°C 64% 2.2 mph SW3.5 kmh SW 5.4 mph8.7 kmh 28.98 in981.4 mb 0.00 in0.0 mm 0.00 in/hr0.0 mm/hr 0.00 in0.0 mm
02:21 AM 56.5°F13.6°C 44.4°F6.9°C 64% 2.0 mph SW3.2 kmh SW 4.9 mph7.9 kmh 28.98 in981.4 mb 0.00 in0.0 mm 0.00 in/hr0.0 mm/hr 0.00 in0.0 mm
02:20 AM 56.5°F13.6°C 44.4°F6.9°C 64% Calm Calm 4.9 mph7.9 kmh 28.98 in981.4 mb 0.00 in0.0 mm 0.00 in/hr0.0 mm/hr 0.00 in0.0 mm
02:19 AM 56.5°F13.6°C 44.4°F6.9°C 64% Calm Calm 4.9 mph7.9 kmh 28.98 in981.4 mb 0.00 in0.0 mm 0.00 in/hr0.0 mm/hr 0.00 in0.0 mm
02:18 AM 56.5°F13.6°C 44.4°F6.9°C 64% Calm Calm 4.9 mph7.9 kmh 28.98 in981.4 mb 0.00 in0.0 mm 0.00 in/hr0.0 mm/hr 0.00 in0.0 mm
02:17 AM 56.5°F13.6°C 44.4°F6.9°C 64% 1.6 mph SW2.6 kmh SW 4.9 mph7.9 kmh 28.98 in981.4 mb 0.00 in0.0 mm 0.00 in/hr0.0 mm/hr 0.00 in0.0 mm
02:16 AM 56.5°F13.6°C 44.4°F6.9°C 64% 2.0 mph SW3.2 kmh SW 4.9 mph7.9 kmh 28.98 in981.4 mb 0.00 in0.0 mm 0.00 in/hr0.0 mm/hr 0.00 in0.0 mm
02:15 AM 56.5°F13.6°C 44.4°F6.9°C 64% 3.1 mph SW5.0 kmh SW 4.9 mph7.9 kmh 28.98 in981.4 mb 0.00 in0.0 mm 0.00 in/hr0.0 mm/hr 0.00 in0.0 mm
02:14 AM 56.5°F13.6°C 44.4°F6.9°C 64% 2.0 mph SW3.2 kmh SW 4.9 mph7.9 kmh 28.98 in981.4 mb 0.00 in0.0 mm 0.00 in/hr0.0 mm/hr 0.00 in0.0 mm
02:13 AM 56.5°F13.6°C 44.4°F6.9°C 64% 3.6 mph SW5.8 kmh SW 3.8 mph6.1 kmh 28.98 in981.4 mb 0.00 in0.0 mm 0.00 in/hr0.0 mm/hr 0.00 in0.0 mm
02:12 AM 56.7°F13.7°C 44.6°F7.0°C 64% 1.8 mph SW2.9 kmh SW 3.8 mph6.1 kmh 28.98 in981.4 mb 0.00 in0.0 mm 0.00 in/hr0.0 mm/hr 0.00 in0.0 mm
02:11 AM 56.7°F13.7°C 44.6°F7.0°C 64% 2.5 mph SW4.0 kmh SW 3.8 mph6.1 kmh 28.98 in981.4 mb 0.00 in0.0 mm 0.00 in/hr0.0 mm/hr 0.00 in0.0 mm
02:10 AM 56.7°F13.7°C 44.2°F6.8°C 63% 2.5 mph SW4.0 kmh SW 3.8 mph6.1 kmh 28.98 in981.4 mb 0.00 in0.0 mm 0.00 in/hr0.0 mm/hr 0.00 in0.0 mm
02:09 AM 56.7°F13.7°C 44.2°F6.8°C 63% 3.4 mph SW5.5 kmh SW 3.8 mph6.1 kmh 28.98 in981.4 mb 0.00 in0.0 mm 0.00 in/hr0.0 mm/hr 0.00 in0.0 mm
02:08 AM 56.8°F13.8°C 44.3°F6.8°C 63% 3.8 mph SW6.1 kmh SW 3.8 mph6.1 kmh 28.98 in981.4 mb 0.00 in0.0 mm 0.00 in/hr0.0 mm/hr 0.00 in0.0 mm
02:07 AM 56.8°F13.8°C 44.3°F6.8°C 63% Calm Calm 2.2 mph3.5 kmh 28.98 in981.4 mb 0.00 in0.0 mm 0.00 in/hr0.0 mm/hr 0.00 in0.0 mm
02:06 AM 56.8°F13.8°C 44.0°F6.7°C 62% 0.7 mph SW1.1 kmh SW 3.8 mph6.1 kmh 28.98 in981.4 mb 0.00 in0.0 mm 0.00 in/hr0.0 mm/hr 0.00 in0.0 mm
02:05 AM 56.8°F13.8°C 44.0°F6.7°C 62% 1.6 mph SW2.6 kmh SW 3.8 mph6.1 kmh 28.98 in981.4 mb 0.00 in0.0 mm 0.00 in/hr0.0 mm/hr 0.00 in0.0 mm
02:04 AM 56.8°F13.8°C 44.3°F6.8°C 63% Calm Calm 3.8 mph6.1 kmh 28.98 in981.4 mb 0.00 in0.0 mm 0.00 in/hr0.0 mm/hr 0.00 in0.0 mm
02:03 AM 56.8°F13.8°C 44.3°F6.8°C 63% Calm Calm 3.8 mph6.1 kmh 28.98 in981.4 mb 0.00 in0.0 mm 0.00 in/hr0.0 mm/hr 0.00 in0.0 mm
02:02 AM 56.8°F13.8°C 44.3°F6.8°C 63% Calm Calm 3.8 mph6.1 kmh 28.98 in981.4 mb 0.00 in0.0 mm 0.00 in/hr0.0 mm/hr 0.00 in0.0 mm
02:01 AM 56.8°F13.8°C 44.3°F6.8°C 63% Calm Calm 3.8 mph6.1 kmh 28.98 in981.4 mb 0.00 in0.0 mm 0.00 in/hr0.0 mm/hr 0.00 in0.0 mm
02:00 AM 56.8°F13.8°C 44.3°F6.8°C 63% Calm Calm 3.8 mph6.1 kmh 28.98 in981.4 mb 0.00 in0.0 mm 0.00 in/hr0.0 mm/hr 0.00 in0.0 mm
01:59 AM 56.8°F13.8°C 44.3°F6.8°C 63% Calm Calm 3.8 mph6.1 kmh 28.98 in981.4 mb 0.00 in0.0 mm 0.00 in/hr0.0 mm/hr 0.00 in0.0 mm
01:58 AM 56.8°F13.8°C 44.3°F6.8°C 63% Calm Calm 3.8 mph6.1 kmh 28.98 in981.4 mb 0.00 in0.0 mm 0.00 in/hr0.0 mm/hr 0.00 in0.0 mm
01:57 AM 56.8°F13.8°C 44.0°F6.7°C 62% Calm Calm 3.8 mph6.1 kmh 28.98 in981.4 mb 0.00 in0.0 mm 0.00 in/hr0.0 mm/hr 0.00 in0.0 mm
01:56 AM 56.8°F13.8°C 44.0°F6.7°C 62% Calm Calm 3.8 mph6.1 kmh 28.98 in981.4 mb 0.00 in0.0 mm 0.00 in/hr0.0 mm/hr 0.00 in0.0 mm
01:55 AM 56.8°F13.8°C 44.0°F6.7°C 62% 1.8 mph SSW2.9 kmh SSW 6.0 mph9.7 kmh 28.98 in981.4 mb 0.00 in0.0 mm 0.00 in/hr0.0 mm/hr 0.00 in0.0 mm
01:54 AM 56.8°F13.8°C 44.3°F6.8°C 63% 1.3 mph SSW2.1 kmh SSW 6.0 mph9.7 kmh 28.98 in981.4 mb 0.00 in0.0 mm 0.00 in/hr0.0 mm/hr 0.00 in0.0 mm
01:53 AM 56.8°F13.8°C 44.3°F6.8°C 63% 3.8 mph SSW6.1 kmh SSW 6.0 mph9.7 kmh 28.98 in981.4 mb 0.00 in0.0 mm 0.00 in/hr0.0 mm/hr 0.00 in0.0 mm
01:52 AM 56.8°F13.8°C 44.3°F6.8°C 63% 1.3 mph SSW2.1 kmh SSW 6.0 mph9.7 kmh 28.98 in981.4 mb 0.00 in0.0 mm 0.00 in/hr0.0 mm/hr 0.00 in0.0 mm
01:51 AM 57.0°F13.9°C 44.5°F6.9°C 63% Calm Calm 6.9 mph11.1 kmh 28.98 in981.4 mb 0.00 in0.0 mm 0.00 in/hr0.0 mm/hr 0.00 in0.0 mm
01:50 AM 57.0°F13.9°C 44.5°F6.9°C 63% 0.9 mph SSW1.4 kmh SSW 6.9 mph11.1 kmh 28.98 in981.4 mb 0.00 in0.0 mm 0.00 in/hr0.0 mm/hr 0.00 in0.0 mm
01:49 AM 56.8°F13.8°C 44.3°F6.8°C 63% Calm Calm 6.9 mph11.1 kmh 28.98 in981.4 mb 0.00 in0.0 mm 0.00 in/hr0.0 mm/hr 0.00 in0.0 mm
01:48 AM 57.0°F13.9°C 44.5°F6.9°C 63% 2.9 mph SSW4.7 kmh SSW 6.9 mph11.1 kmh 28.98 in981.4 mb 0.00 in0.0 mm 0.00 in/hr0.0 mm/hr 0.00 in0.0 mm
01:47 AM 57.0°F13.9°C 44.5°F6.9°C 63% 1.6 mph SSW2.6 kmh SSW 6.9 mph11.1 kmh 28.98 in981.4 mb 0.00 in0.0 mm 0.00 in/hr0.0 mm/hr 0.00 in0.0 mm
01:46 AM 57.0°F13.9°C 44.5°F6.9°C 63% 3.1 mph SSW5.0 kmh SSW 6.9 mph11.1 kmh 28.98 in981.4 mb 0.00 in0.0 mm 0.00 in/hr0.0 mm/hr 0.00 in0.0 mm
01:45 AM 57.0°F13.9°C 44.9°F7.2°C 64% 2.5 mph SSW4.0 kmh SSW 6.9 mph11.1 kmh 28.98 in981.4 mb 0.00 in0.0 mm 0.00 in/hr0.0 mm/hr 0.00 in0.0 mm
01:44 AM 57.0°F13.9°C 44.9°F7.2°C 64% 3.4 mph SSW5.5 kmh SSW 7.2 mph11.6 kmh 28.98 in981.4 mb 0.00 in0.0 mm 0.00 in/hr0.0 mm/hr 0.00 in0.0 mm
01:43 AM 57.0°F13.9°C 44.5°F6.9°C 63% 2.0 mph SSW3.2 kmh SSW 7.2 mph11.6 kmh 28.98 in981.4 mb 0.00 in0.0 mm 0.00 in/hr0.0 mm/hr 0.00 in0.0 mm
01:42 AM 57.0°F13.9°C 44.9°F7.2°C 64% 3.8 mph SSW6.1 kmh SSW 7.2 mph11.6 kmh 28.98 in981.4 mb 0.00 in0.0 mm 0.00 in/hr0.0 mm/hr 0.00 in0.0 mm
01:41 AM 57.0°F13.9°C 44.9°F7.2°C 64% 2.2 mph SSW3.5 kmh SSW 7.2 mph11.6 kmh 28.98 in981.4 mb 0.00 in0.0 mm 0.00 in/hr0.0 mm/hr 0.00 in0.0 mm
01:40 AM 57.0°F13.9°C 44.9°F7.2°C 64% 1.3 mph SSW2.1 kmh SSW 7.2 mph11.6 kmh 28.98 in981.4 mb 0.00 in0.0 mm 0.00 in/hr0.0 mm/hr 0.00 in0.0 mm
01:39 AM 57.0°F13.9°C 44.9°F7.2°C 64% 3.8 mph SSW6.1 kmh SSW 7.2 mph11.6 kmh 28.98 in981.4 mb 0.00 in0.0 mm 0.00 in/hr0.0 mm/hr 0.00 in0.0 mm
01:38 AM 57.0°F13.9°C 44.9°F7.2°C 64% 3.4 mph SSW5.5 kmh SSW 7.2 mph11.6 kmh 28.98 in981.4 mb 0.00 in0.0 mm 0.00 in/hr0.0 mm/hr 0.00 in0.0 mm
01:37 AM 57.0°F13.9°C 44.9°F7.2°C 64% 4.7 mph SSW7.6 kmh SSW 7.2 mph11.6 kmh 28.98 in981.4 mb 0.00 in0.0 mm 0.00 in/hr0.0 mm/hr 0.00 in0.0 mm
01:36 AM 57.0°F13.9°C 44.5°F6.9°C 63% 4.0 mph SSW6.4 kmh SSW 7.2 mph11.6 kmh 28.98 in981.4 mb 0.00 in0.0 mm 0.00 in/hr0.0 mm/hr 0.00 in0.0 mm
01:35 AM 57.0°F13.9°C 44.5°F6.9°C 63% 5.4 mph SSW8.7 kmh SSW 7.2 mph11.6 kmh 28.98 in981.4 mb 0.00 in0.0 mm 0.00 in/hr0.0 mm/hr 0.00 in0.0 mm
01:34 AM 57.0°F13.9°C 44.5°F6.9°C 63% 4.0 mph SSW6.4 kmh SSW 6.3 mph10.1 kmh 28.98 in981.4 mb 0.00 in0.0 mm 0.00 in/hr0.0 mm/hr 0.00 in0.0 mm
01:33 AM 57.0°F13.9°C 44.5°F6.9°C 63% 6.0 mph SSW9.7 kmh SSW 6.3 mph10.1 kmh 28.98 in981.4 mb 0.00 in0.0 mm 0.00 in/hr0.0 mm/hr 0.00 in0.0 mm
01:32 AM 57.0°F13.9°C 44.5°F6.9°C 63% 3.1 mph SSW5.0 kmh SSW 6.3 mph10.1 kmh 28.98 in981.4 mb 0.00 in0.0 mm 0.00 in/hr0.0 mm/hr 0.00 in0.0 mm
01:31 AM 57.0°F13.9°C 44.5°F6.9°C 63% 3.8 mph SSW6.1 kmh SSW 6.3 mph10.1 kmh 28.98 in981.4 mb 0.00 in0.0 mm 0.00 in/hr0.0 mm/hr 0.00 in0.0 mm
01:30 AM 57.0°F13.9°C 44.5°F6.9°C 63% 3.6 mph SSW5.8 kmh SSW 6.3 mph10.1 kmh 28.98 in981.4 mb 0.00 in0.0 mm 0.00 in/hr0.0 mm/hr 0.00 in0.0 mm
01:29 AM 57.0°F13.9°C 44.5°F6.9°C 63% 1.6 mph SSW2.6 kmh SSW 6.3 mph10.1 kmh 28.98 in981.4 mb 0.00 in0.0 mm 0.00 in/hr0.0 mm/hr 0.00 in0.0 mm
01:28 AM 57.0°F13.9°C 44.5°F6.9°C 63% 4.9 mph SSW7.9 kmh SSW 6.3 mph10.1 kmh 28.98 in981.4 mb 0.00 in0.0 mm 0.00 in/hr0.0 mm/hr 0.00 in0.0 mm
01:27 AM 57.4°F14.1°C 44.9°F7.2°C 63% 0.7 mph SSW1.1 kmh SSW 6.3 mph10.1 kmh 28.98 in981.4 mb 0.00 in0.0 mm 0.00 in/hr0.0 mm/hr 0.00 in0.0 mm
01:26 AM 57.4°F14.1°C 44.9°F7.2°C 63% 3.1 mph SSW5.0 kmh SSW 6.3 mph10.1 kmh 28.98 in981.4 mb 0.00 in0.0 mm 0.00 in/hr0.0 mm/hr 0.00 in0.0 mm
01:25 AM 57.2°F14.0°C 44.7°F7.1°C 63% 2.2 mph SSW3.5 kmh SSW 5.1 mph8.2 kmh 28.98 in981.4 mb 0.00 in0.0 mm 0.00 in/hr0.0 mm/hr 0.00 in0.0 mm
01:24 AM 57.4°F14.1°C 44.9°F7.2°C 63% 2.7 mph SSW4.3 kmh SSW 5.1 mph8.2 kmh 28.98 in981.4 mb 0.00 in0.0 mm 0.00 in/hr0.0 mm/hr 0.00 in0.0 mm
01:23 AM 57.2°F14.0°C 44.7°F7.1°C 63% 2.7 mph SSW4.3 kmh SSW 5.1 mph8.2 kmh 28.98 in981.4 mb 0.00 in0.0 mm 0.00 in/hr0.0 mm/hr 0.00 in0.0 mm
01:22 AM 57.4°F14.1°C 44.9°F7.2°C 63% 1.8 mph SSW2.9 kmh SSW 5.1 mph8.2 kmh 28.98 in981.4 mb 0.00 in0.0 mm 0.00 in/hr0.0 mm/hr 0.00 in0.0 mm
01:21 AM 57.4°F14.1°C 44.9°F7.2°C 63% 4.0 mph SSW6.4 kmh SSW 4.7 mph7.6 kmh 28.98 in981.4 mb 0.00 in0.0 mm 0.00 in/hr0.0 mm/hr 0.00 in0.0 mm
01:20 AM 57.4°F14.1°C 44.9°F7.2°C 63% 3.8 mph SSW6.1 kmh SSW 4.7 mph7.6 kmh 28.98 in981.4 mb 0.00 in0.0 mm 0.00 in/hr0.0 mm/hr 0.00 in0.0 mm
01:19 AM 57.4°F14.1°C 44.9°F7.2°C 63% 2.7 mph SW4.3 kmh SW 4.7 mph7.6 kmh 28.98 in981.4 mb 0.00 in0.0 mm 0.00 in/hr0.0 mm/hr 0.00 in0.0 mm
01:18 AM 57.4°F14.1°C 44.9°F7.2°C 63% 1.8 mph SW2.9 kmh SW 4.7 mph7.6 kmh 28.98 in981.4 mb 0.00 in0.0 mm 0.00 in/hr0.0 mm/hr 0.00 in0.0 mm
01:17 AM 57.4°F14.1°C 44.9°F7.2°C 63% 2.5 mph SW4.0 kmh SW 5.8 mph9.3 kmh 28.98 in981.4 mb 0.00 in0.0 mm 0.00 in/hr0.0 mm/hr 0.00 in0.0 mm
01:16 AM 57.4°F14.1°C 44.9°F7.2°C 63% 3.1 mph SW5.0 kmh SW 5.8 mph9.3 kmh 28.98 in981.4 mb 0.00 in0.0 mm 0.00 in/hr0.0 mm/hr 0.00 in0.0 mm
01:15 AM 57.4°F14.1°C 44.9°F7.2°C 63% 3.1 mph SW5.0 kmh SW 5.8 mph9.3 kmh 28.98 in981.4 mb 0.00 in0.0 mm 0.00 in/hr0.0 mm/hr 0.00 in0.0 mm
01:14 AM 57.4°F14.1°C 44.9°F7.2°C 63% 1.3 mph SW2.1 kmh SW 5.8 mph9.3 kmh 28.98 in981.4 mb 0.00 in0.0 mm 0.00 in/hr0.0 mm/hr 0.00 in0.0 mm
01:13 AM 57.4°F14.1°C 44.9°F7.2°C 63% 3.6 mph SSW5.8 kmh SSW 5.8 mph9.3 kmh 28.98 in981.4 mb 0.00 in0.0 mm 0.00 in/hr0.0 mm/hr 0.00 in0.0 mm
01:12 AM 57.4°F14.1°C 44.9°F7.2°C 63% 0.7 mph SSW1.1 kmh SSW 5.8 mph9.3 kmh 28.98 in981.4 mb 0.00 in0.0 mm 0.00 in/hr0.0 mm/hr 0.00 in0.0 mm
01:11 AM 57.4°F14.1°C 44.9°F7.2°C 63% 3.6 mph SSW5.8 kmh SSW 7.6 mph12.2 kmh 28.98 in981.4 mb 0.00 in0.0 mm 0.00 in/hr0.0 mm/hr 0.00 in0.0 mm
01:10 AM 57.4°F14.1°C 44.9°F7.2°C 63% Calm Calm 7.6 mph12.2 kmh 28.98 in981.4 mb 0.00 in0.0 mm 0.00 in/hr0.0 mm/hr 0.00 in0.0 mm
01:09 AM 57.4°F14.1°C 44.9°F7.2°C 63% 1.6 mph SSW2.6 kmh SSW 7.8 mph12.6 kmh 28.98 in981.4 mb 0.00 in0.0 mm 0.00 in/hr0.0 mm/hr 0.00 in0.0 mm
01:08 AM 57.4°F14.1°C 44.9°F7.2°C 63% Calm Calm 7.8 mph12.6 kmh 28.98 in981.4 mb 0.00 in0.0 mm 0.00 in/hr0.0 mm/hr 0.00 in0.0 mm
01:07 AM 57.4°F14.1°C 44.9°F7.2°C 63% 2.2 mph SSW3.5 kmh SSW 8.1 mph13.0 kmh 28.98 in981.4 mb 0.00 in0.0 mm 0.00 in/hr0.0 mm/hr 0.00 in0.0 mm
01:06 AM 57.6°F14.2°C 45.0°F7.2°C 63% 1.8 mph SSW2.9 kmh SSW 8.1 mph13.0 kmh 28.98 in981.4 mb 0.00 in0.0 mm 0.00 in/hr0.0 mm/hr 0.00 in0.0 mm
01:05 AM 57.6°F14.2°C 45.0°F7.2°C 63% 1.8 mph SSW2.9 kmh SSW 8.1 mph13.0 kmh 28.98 in981.4 mb 0.00 in0.0 mm 0.00 in/hr0.0 mm/hr 0.00 in0.0 mm
01:04 AM 57.6°F14.2°C 45.0°F7.2°C 63% 2.0 mph SSW3.2 kmh SSW 8.1 mph13.0 kmh 28.98 in981.4 mb 0.00 in0.0 mm 0.00 in/hr0.0 mm/hr 0.00 in0.0 mm
01:03 AM 57.6°F14.2°C 45.0°F7.2°C 63% 2.7 mph SSW4.3 kmh SSW 8.1 mph13.0 kmh 28.97 in981.0 mb 0.00 in0.0 mm 0.00 in/hr0.0 mm/hr 0.00 in0.0 mm
01:02 AM 57.6°F14.2°C 45.0°F7.2°C 63% 4.0 mph SSW6.4 kmh SSW 8.1 mph13.0 kmh 28.97 in981.0 mb 0.00 in0.0 mm 0.00 in/hr0.0 mm/hr 0.00 in0.0 mm
01:01 AM 57.6°F14.2°C 45.0°F7.2°C 63% 6.0 mph SSW9.7 kmh SSW 8.3 mph13.4 kmh 28.97 in981.0 mb 0.00 in0.0 mm 0.00 in/hr0.0 mm/hr 0.00 in0.0 mm
01:00 AM 57.6°F14.2°C 45.0°F7.2°C 63% 5.4 mph SSW8.7 kmh SSW 8.3 mph13.4 kmh 28.97 in981.0 mb 0.00 in0.0 mm 0.00 in/hr0.0 mm/hr 0.00 in0.0 mm
12:59 AM 57.6°F14.2°C 45.0°F7.2°C 63% 5.6 mph SSW9.0 kmh SSW 8.3 mph13.4 kmh 28.97 in981.0 mb 0.00 in0.0 mm 0.00 in/hr0.0 mm/hr 0.00 in0.0 mm
12:58 AM 57.7°F14.3°C 45.2°F7.3°C 63% 3.4 mph SSW5.5 kmh SSW 8.3 mph13.4 kmh 28.98 in981.4 mb 0.00 in0.0 mm 0.00 in/hr0.0 mm/hr 0.00 in0.0 mm
12:57 AM 57.7°F14.3°C 45.2°F7.3°C 63% 4.0 mph SSW6.4 kmh SSW 8.3 mph13.4 kmh 28.97 in981.0 mb 0.00 in0.0 mm 0.00 in/hr0.0 mm/hr 0.00 in0.0 mm
12:56 AM 57.7°F14.3°C 45.2°F7.3°C 63% 5.1 mph SSW8.2 kmh SSW 8.3 mph13.4 kmh 28.97 in981.0 mb 0.00 in0.0 mm 0.00 in/hr0.0 mm/hr 0.00 in0.0 mm
12:55 AM 57.7°F14.3°C 45.2°F7.3°C 63% 5.4 mph SSW8.7 kmh SSW 8.3 mph13.4 kmh 28.97 in981.0 mb 0.00 in0.0 mm 0.00 in/hr0.0 mm/hr 0.00 in0.0 mm
12:54 AM 57.7°F14.3°C 44.8°F7.1°C 62% 4.5 mph SSW7.2 kmh SSW 8.3 mph13.4 kmh 28.98 in981.4 mb 0.00 in0.0 mm 0.00 in/hr0.0 mm/hr 0.00 in0.0 mm
12:53 AM 57.7°F14.3°C 45.2°F7.3°C 63% 5.6 mph SSW9.0 kmh SSW 8.3 mph13.4 kmh 28.97 in981.0 mb 0.00 in0.0 mm 0.00 in/hr0.0 mm/hr 0.00 in0.0 mm
12:52 AM 57.7°F14.3°C 45.2°F7.3°C 63% 3.8 mph SSW6.1 kmh SSW 8.3 mph13.4 kmh 28.97 in981.0 mb 0.00 in0.0 mm 0.00 in/hr0.0 mm/hr 0.00 in0.0 mm
12:51 AM 57.7°F14.3°C 45.2°F7.3°C 63% 5.1 mph SSW8.2 kmh SSW 6.9 mph11.1 kmh 28.97 in981.0 mb 0.00 in0.0 mm 0.00 in/hr0.0 mm/hr 0.00 in0.0 mm
12:50 AM 57.7°F14.3°C 45.2°F7.3°C 63% 4.5 mph SSW7.2 kmh SSW 6.9 mph11.1 kmh 28.98 in981.4 mb 0.00 in0.0 mm 0.00 in/hr0.0 mm/hr 0.00 in0.0 mm
12:49 AM 57.7°F14.3°C 44.8°F7.1°C 62% 3.4 mph SSW5.5 kmh SSW 6.9 mph11.1 kmh 28.98 in981.4 mb 0.00 in0.0 mm 0.00 in/hr0.0 mm/hr 0.00 in0.0 mm
12:48 AM 57.7°F14.3°C 44.8°F7.1°C 62% 3.4 mph SSW5.5 kmh SSW 6.9 mph11.1 kmh 28.98 in981.4 mb 0.00 in0.0 mm 0.00 in/hr0.0 mm/hr 0.00 in0.0 mm
12:47 AM 57.7°F14.3°C 44.8°F7.1°C 62% 2.7 mph SSW4.3 kmh SSW 6.9 mph11.1 kmh 28.98 in981.4 mb 0.00 in0.0 mm 0.00 in/hr0.0 mm/hr 0.00 in0.0 mm
12:46 AM 57.7°F14.3°C 44.8°F7.1°C 62% 3.8 mph SSW6.1 kmh SSW 6.9 mph11.1 kmh 28.98 in981.4 mb 0.00 in0.0 mm 0.00 in/hr0.0 mm/hr 0.00 in0.0 mm
12:45 AM 57.9°F14.4°C 45.4°F7.4°C 63% 2.2 mph SSW3.5 kmh SSW 6.9 mph11.1 kmh 28.98 in981.4 mb 0.00 in0.0 mm 0.00 in/hr0.0 mm/hr 0.00 in0.0 mm
12:44 AM 57.9°F14.4°C 45.4°F7.4°C 63% 3.6 mph SSW5.8 kmh SSW 6.9 mph11.1 kmh 28.98 in981.4 mb 0.00 in0.0 mm 0.00 in/hr0.0 mm/hr 0.00 in0.0 mm
12:43 AM 57.9°F14.4°C 45.0°F7.2°C 62% 6.9 mph SSW11.1 kmh SSW 6.9 mph11.1 kmh 28.98 in981.4 mb 0.00 in0.0 mm 0.00 in/hr0.0 mm/hr 0.00 in0.0 mm
12:42 AM 57.9°F14.4°C 45.0°F7.2°C 62% 4.0 mph SSW6.4 kmh SSW 6.3 mph10.1 kmh 28.98 in981.4 mb 0.00 in0.0 mm 0.00 in/hr0.0 mm/hr 0.00 in0.0 mm
12:41 AM 57.9°F14.4°C 45.0°F7.2°C 62% 3.8 mph SSW6.1 kmh SSW 6.3 mph10.1 kmh 28.98 in981.4 mb 0.00 in0.0 mm 0.00 in/hr0.0 mm/hr 0.00 in0.0 mm
12:40 AM 57.9°F14.4°C 45.0°F7.2°C 62% 2.7 mph SSW4.3 kmh SSW 6.3 mph10.1 kmh 28.98 in981.4 mb 0.00 in0.0 mm 0.00 in/hr0.0 mm/hr 0.00 in0.0 mm
12:39 AM 57.9°F14.4°C 45.0°F7.2°C 62% 3.4 mph SSW5.5 kmh SSW 6.3 mph10.1 kmh 28.98 in981.4 mb 0.00 in0.0 mm 0.00 in/hr0.0 mm/hr 0.00 in0.0 mm
12:38 AM 57.9°F14.4°C 45.0°F7.2°C 62% 1.6 mph SSW2.6 kmh SSW 6.3 mph10.1 kmh 28.98 in981.4 mb 0.00 in0.0 mm 0.00 in/hr0.0 mm/hr 0.00 in0.0 mm
12:37 AM 57.9°F14.4°C 45.0°F7.2°C 62% 1.8 mph SSW2.9 kmh SSW 6.3 mph10.1 kmh 28.98 in981.4 mb 0.00 in0.0 mm 0.00 in/hr0.0 mm/hr 0.00 in0.0 mm
12:36 AM 57.9°F14.4°C 45.0°F7.2°C 62% 4.3 mph SSW6.9 kmh SSW 6.3 mph10.1 kmh 28.98 in981.4 mb 0.00 in0.0 mm 0.00 in/hr0.0 mm/hr 0.00 in0.0 mm
12:35 AM 57.9°F14.4°C 45.0°F7.2°C 62% 5.6 mph SSW9.0 kmh SSW 6.3 mph10.1 kmh 28.98 in981.4 mb 0.00 in0.0 mm 0.00 in/hr0.0 mm/hr 0.00 in0.0 mm
12:34 AM 57.9°F14.4°C 45.0°F7.2°C 62% 3.6 mph SSW5.8 kmh SSW 5.4 mph8.7 kmh 28.98 in981.4 mb 0.00 in0.0 mm 0.00 in/hr0.0 mm/hr 0.00 in0.0 mm
12:33 AM 57.9°F14.4°C 45.4°F7.4°C 63% 2.7 mph SSW4.3 kmh SSW 6.5 mph10.5 kmh 28.98 in981.4 mb 0.00 in0.0 mm 0.00 in/hr0.0 mm/hr 0.00 in0.0 mm
12:32 AM 58.1°F14.5°C 45.5°F7.5°C 63% 2.5 mph SSW4.0 kmh SSW 6.5 mph10.5 kmh 28.98 in981.4 mb 0.00 in0.0 mm 0.00 in/hr0.0 mm/hr 0.00 in0.0 mm
12:31 AM 58.1°F14.5°C 45.1°F7.3°C 62% 2.9 mph SSW4.7 kmh SSW 6.5 mph10.5 kmh 28.98 in981.4 mb 0.00 in0.0 mm 0.00 in/hr0.0 mm/hr 0.00 in0.0 mm
12:30 AM 58.1°F14.5°C 45.1°F7.3°C 62% 3.8 mph SSW6.1 kmh SSW 6.5 mph10.5 kmh 28.98 in981.4 mb 0.00 in0.0 mm 0.00 in/hr0.0 mm/hr 0.00 in0.0 mm
12:29 AM 58.1°F14.5°C 45.1°F7.3°C 62% 2.9 mph SSW4.7 kmh SSW 6.5 mph10.5 kmh 28.98 in981.4 mb 0.00 in0.0 mm 0.00 in/hr0.0 mm/hr 0.00 in0.0 mm
12:28 AM 58.1°F14.5°C 45.1°F7.3°C 62% 5.4 mph SSW8.7 kmh SSW 6.5 mph10.5 kmh 28.98 in981.4 mb 0.00 in0.0 mm 0.00 in/hr0.0 mm/hr 0.00 in0.0 mm
12:27 AM 58.1°F14.5°C 45.1°F7.3°C 62% 3.1 mph SSW5.0 kmh SSW 8.7 mph14.0 kmh 28.98 in981.4 mb 0.00 in0.0 mm 0.00 in/hr0.0 mm/hr 0.00 in0.0 mm
12:26 AM 58.1°F14.5°C 45.1°F7.3°C 62% 2.5 mph SSW4.0 kmh SSW 8.7 mph14.0 kmh 28.98 in981.4 mb 0.00 in0.0 mm 0.00 in/hr0.0 mm/hr 0.00 in0.0 mm
12:25 AM 58.1°F14.5°C 44.7°F7.1°C 61% 3.1 mph SSW5.0 kmh SSW 8.7 mph14.0 kmh 28.98 in981.4 mb 0.00 in0.0 mm 0.00 in/hr0.0 mm/hr 0.00 in0.0 mm
12:24 AM 58.1°F14.5°C 44.7°F7.1°C 61% 3.4 mph SSW5.5 kmh SSW 8.7 mph14.0 kmh 28.98 in981.4 mb 0.00 in0.0 mm 0.00 in/hr0.0 mm/hr 0.00 in0.0 mm
12:23 AM 58.3°F14.6°C 44.9°F7.2°C 61% 3.8 mph SSW6.1 kmh SSW 8.7 mph14.0 kmh 28.98 in981.4 mb 0.00 in0.0 mm 0.00 in/hr0.0 mm/hr 0.00 in0.0 mm
12:22 AM 58.3°F14.6°C 44.9°F7.2°C 61% 3.4 mph SSW5.5 kmh SSW 8.7 mph14.0 kmh 28.98 in981.4 mb 0.00 in0.0 mm 0.00 in/hr0.0 mm/hr 0.00 in0.0 mm
12:21 AM 58.3°F14.6°C 44.9°F7.2°C 61% 2.9 mph SSW4.7 kmh SSW 8.7 mph14.0 kmh 28.98 in981.4 mb 0.00 in0.0 mm 0.00 in/hr0.0 mm/hr 0.00 in0.0 mm
12:20 AM 58.3°F14.6°C 44.9°F7.2°C 61% 6.0 mph SSW9.7 kmh SSW 8.7 mph14.0 kmh 28.98 in981.4 mb 0.00 in0.0 mm 0.00 in/hr0.0 mm/hr 0.00 in0.0 mm
12:19 AM 58.3°F14.6°C 44.9°F7.2°C 61% 6.0 mph SSW9.7 kmh SSW 8.7 mph14.0 kmh 28.98 in981.4 mb 0.00 in0.0 mm 0.00 in/hr0.0 mm/hr 0.00 in0.0 mm
12:18 AM 58.3°F14.6°C 44.9°F7.2°C 61% 4.5 mph SSW7.2 kmh SSW 8.7 mph14.0 kmh 28.98 in981.4 mb 0.00 in0.0 mm 0.00 in/hr0.0 mm/hr 0.00 in0.0 mm
12:17 AM 58.3°F14.6°C 44.9°F7.2°C 61% 4.5 mph SSW7.2 kmh SSW 6.9 mph11.1 kmh 28.98 in981.4 mb 0.00 in0.0 mm 0.00 in/hr0.0 mm/hr 0.00 in0.0 mm
12:16 AM 58.3°F14.6°C 44.9°F7.2°C 61% 1.6 mph SSW2.6 kmh SSW 6.9 mph11.1 kmh 28.98 in981.4 mb 0.00 in0.0 mm 0.00 in/hr0.0 mm/hr 0.00 in0.0 mm
12:15 AM 58.3°F14.6°C 44.9°F7.2°C 61% 3.6 mph SSW5.8 kmh SSW 6.9 mph11.1 kmh 28.98 in981.4 mb 0.00 in0.0 mm 0.00 in/hr0.0 mm/hr 0.00 in0.0 mm
12:14 AM 58.3°F14.6°C 44.9°F7.2°C 61% 4.9 mph SSW7.9 kmh SSW 6.9 mph11.1 kmh 28.98 in981.4 mb 0.00 in0.0 mm 0.00 in/hr0.0 mm/hr 0.00 in0.0 mm
12:13 AM 58.3°F14.6°C 44.9°F7.2°C 61% 5.1 mph SSW8.2 kmh SSW 6.3 mph10.1 kmh 28.98 in981.4 mb 0.00 in0.0 mm 0.00 in/hr0.0 mm/hr 0.00 in0.0 mm
12:12 AM 58.3°F14.6°C 44.9°F7.2°C 61% 3.4 mph SSW5.5 kmh SSW 7.6 mph12.2 kmh 28.98 in981.4 mb 0.00 in0.0 mm 0.00 in/hr0.0 mm/hr 0.00 in0.0 mm
12:11 AM 58.3°F14.6°C 44.9°F7.2°C 61% 3.8 mph SSW6.1 kmh SSW 7.6 mph12.2 kmh 28.98 in981.4 mb 0.00 in0.0 mm 0.00 in/hr0.0 mm/hr 0.00 in0.0 mm
12:10 AM 58.3°F14.6°C 44.9°F7.2°C 61% 2.2 mph SSW3.5 kmh SSW 7.6 mph12.2 kmh 28.98 in981.4 mb 0.00 in0.0 mm 0.00 in/hr0.0 mm/hr 0.00 in0.0 mm
12:09 AM 58.3°F14.6°C 44.9°F7.2°C 61% 4.3 mph SSW6.9 kmh SSW 7.6 mph12.2 kmh 28.98 in981.4 mb 0.00 in0.0 mm 0.00 in/hr0.0 mm/hr 0.00 in0.0 mm
12:08 AM 58.3°F14.6°C 44.9°F7.2°C 61% 5.1 mph SSW8.2 kmh SSW 7.6 mph12.2 kmh 28.98 in981.4 mb 0.00 in0.0 mm 0.00 in/hr0.0 mm/hr 0.00 in0.0 mm
12:07 AM 58.3°F14.6°C 44.9°F7.2°C 61% 4.0 mph SSW6.4 kmh SSW 7.6 mph12.2 kmh 28.98 in981.4 mb 0.00 in0.0 mm 0.00 in/hr0.0 mm/hr 0.00 in0.0 mm
12:06 AM 58.5°F14.7°C 45.0°F7.2°C 61% 3.1 mph SSW5.0 kmh SSW 7.6 mph12.2 kmh 28.98 in981.4 mb 0.00 in0.0 mm 0.00 in/hr0.0 mm/hr 0.00 in0.0 mm
12:05 AM 58.5°F14.7°C 45.0°F7.2°C 61% 1.8 mph SSW2.9 kmh SSW 7.6 mph12.2 kmh 28.98 in981.4 mb 0.00 in0.0 mm 0.00 in/hr0.0 mm/hr 0.00 in0.0 mm
12:04 AM 58.5°F14.7°C 45.0°F7.2°C 61% 3.6 mph SSW5.8 kmh SSW 7.6 mph12.2 kmh 28.98 in981.4 mb 0.00 in0.0 mm 0.00 in/hr0.0 mm/hr 0.00 in0.0 mm
12:03 AM 58.5°F14.7°C 45.0°F7.2°C 61% 4.3 mph SSW6.9 kmh SSW 7.6 mph12.2 kmh 28.98 in981.4 mb 0.00 in0.0 mm 0.00 in/hr0.0 mm/hr 0.00 in0.0 mm
12:00 AM 58.5°F14.7°C 45.0°F7.2°C 61% Calm Calm 7.6 mph12.2 kmh 28.98 in981.4 mb 0.00 in0.0 mm 0.00 in/hr0.0 mm/hr 0.00 in0.0 mm